<?xml version='1.0' encoding='UTF-8'?><gpx version="1.1" creator="JPX - https://github.com/jenetics/jpx" xmlns="http://www.topografix.com/GPX/1/1"><trk><trkseg><trkpt lat="37.3174324" lon="13.6542922"><ele>377.0</ele><time>2026-04-28T14:56:16.063Z</time></trkpt><trkpt lat="37.3173985" lon="13.6543834"><ele>377.0</ele><time>2026-04-28T14:56:51.162Z</time></trkpt><trkpt lat="37.3173639" lon="13.6544568"><ele>377.0</ele><time>2026-04-28T14:56:54.162Z</time></trkpt><trkpt lat="37.3173164" lon="13.6545273"><ele>377.0</ele><time>2026-04-28T14:56:57.162Z</time></trkpt><trkpt lat="37.3172779" lon="13.6546075"><ele>377.0</ele><time>2026-04-28T14:57:00.161Z</time></trkpt><trkpt lat="37.3172657" lon="13.6546916"><ele>377.0</ele><time>2026-04-28T14:57:04.162Z</time></trkpt><trkpt lat="37.3173393" lon="13.6547556"><ele>375.33333333333337</ele><time>2026-04-28T14:57:07.162Z</time></trkpt><trkpt lat="37.317395" lon="13.6548092"><ele>373.6666666666667</ele><time>2026-04-28T14:57:10.162Z</time></trkpt><trkpt lat="37.3174504" lon="13.6548512"><ele>372.0</ele><time>2026-04-28T14:57:18.162Z</time></trkpt><trkpt lat="37.3175082" lon="13.6549008"><ele>370.3333333333333</ele><time>2026-04-28T14:57:20.163Z</time></trkpt><trkpt lat="37.3175777" lon="13.6549701"><ele>368.66666666666663</ele><time>2026-04-28T14:57:22.161Z</time></trkpt><trkpt lat="37.3176643" lon="13.6550417"><ele>367.0</ele><time>2026-04-28T14:57:24.162Z</time></trkpt><trkpt lat="37.3177611" lon="13.6551187"><ele>367.0</ele><time>2026-04-28T14:57:26.162Z</time></trkpt><trkpt lat="37.3178479" lon="13.6551936"><ele>367.0</ele><time>2026-04-28T14:57:28.161Z</time></trkpt><trkpt lat="37.3179254" lon="13.6552531"><ele>367.0</ele><time>2026-04-28T14:57:30.161Z</time></trkpt><trkpt lat="37.3179991" lon="13.6553074"><ele>367.0</ele><time>2026-04-28T14:57:32.162Z</time></trkpt><trkpt lat="37.3180822" lon="13.655264"><ele>367.0</ele><time>2026-04-28T14:57:35.162Z</time></trkpt><trkpt lat="37.3181453" lon="13.6551419"><ele>365.5</ele><time>2026-04-28T14:57:37.162Z</time></trkpt><trkpt lat="37.3181988" lon="13.6550391"><ele>364.0</ele><time>2026-04-28T14:57:39.161Z</time></trkpt><trkpt lat="37.3182572" lon="13.6550056"><ele>362.5</ele><time>2026-04-28T14:57:41.161Z</time></trkpt><trkpt lat="37.3183253" lon="13.6550337"><ele>361.0</ele><time>2026-04-28T14:57:44.162Z</time></trkpt><trkpt lat="37.3184026" lon="13.6550247"><ele>359.5</ele><time>2026-04-28T14:58:13.161Z</time></trkpt><trkpt lat="37.3184811" lon="13.6549137"><ele>358.0</ele><time>2026-04-28T14:58:15.162Z</time></trkpt><trkpt lat="37.3185751" lon="13.6547896"><ele>358.0</ele><time>2026-04-28T14:58:17.162Z</time></trkpt><trkpt lat="37.3186093" lon="13.6546973"><ele>358.0</ele><time>2026-04-28T14:58:18.162Z</time></trkpt><trkpt lat="37.3186395" lon="13.6546217"><ele>358.0</ele><time>2026-04-28T14:58:19.163Z</time></trkpt><trkpt lat="37.3186999" lon="13.6545093"><ele>358.0</ele><time>2026-04-28T14:58:21.163Z</time></trkpt><trkpt lat="37.318747" lon="13.6544212"><ele>358.0</ele><time>2026-04-28T14:58:22.162Z</time></trkpt><trkpt lat="37.3188129" lon="13.6542985"><ele>357.4</ele><time>2026-04-28T14:58:24.163Z</time></trkpt><trkpt lat="37.3188723" lon="13.6542049"><ele>356.79999999999995</ele><time>2026-04-28T14:58:26.163Z</time></trkpt><trkpt lat="37.3189391" lon="13.6540917"><ele>356.2</ele><time>2026-04-28T14:58:28.161Z</time></trkpt><trkpt lat="37.3189809" lon="13.6540102"><ele>355.6</ele><time>2026-04-28T14:58:29.162Z</time></trkpt><trkpt lat="37.3190386" lon="13.6539128"><ele>355.0</ele><time>2026-04-28T14:58:30.162Z</time></trkpt><trkpt lat="37.3190889" lon="13.6538276"><ele>355.0</ele><time>2026-04-28T14:58:31.162Z</time></trkpt><trkpt lat="37.319127" lon="13.6537345"><ele>355.0</ele><time>2026-04-28T14:58:32.162Z</time></trkpt><trkpt lat="37.3191587" lon="13.6536622"><ele>355.0</ele><time>2026-04-28T14:58:33.161Z</time></trkpt><trkpt lat="37.3191953" lon="13.6535885"><ele>355.0</ele><time>2026-04-28T14:58:34.163Z</time></trkpt><trkpt lat="37.3192391" lon="13.6535019"><ele>355.0</ele><time>2026-04-28T14:58:35.162Z</time></trkpt><trkpt lat="37.319283" lon="13.653415"><ele>355.0</ele><time>2026-04-28T14:58:36.161Z</time></trkpt><trkpt lat="37.3193231" lon="13.6533398"><ele>355.66666666666663</ele><time>2026-04-28T14:58:37.163Z</time></trkpt><trkpt lat="37.3193738" lon="13.6532689"><ele>356.3333333333333</ele><time>2026-04-28T14:58:38.162Z</time></trkpt><trkpt lat="37.3194422" lon="13.6532156"><ele>357.0</ele><time>2026-04-28T14:58:39.162Z</time></trkpt><trkpt lat="37.3195127" lon="13.6531752"><ele>357.6666666666667</ele><time>2026-04-28T14:58:40.163Z</time></trkpt><trkpt lat="37.3195892" lon="13.6531684"><ele>358.33333333333337</ele><time>2026-04-28T14:58:41.162Z</time></trkpt><trkpt lat="37.319664" lon="13.6531487"><ele>359.0</ele><time>2026-04-28T14:58:42.162Z</time></trkpt><trkpt lat="37.3197636" lon="13.6530845"><ele>359.0</ele><time>2026-04-28T14:58:44.163Z</time></trkpt><trkpt lat="37.3198134" lon="13.6529949"><ele>359.0</ele><time>2026-04-28T14:58:47.164Z</time></trkpt><trkpt lat="37.3198394" lon="13.6529037"><ele>359.0</ele><time>2026-04-28T14:58:49.162Z</time></trkpt><trkpt lat="37.3198493" lon="13.6528215"><ele>359.0</ele><time>2026-04-28T14:58:51.162Z</time></trkpt><trkpt lat="37.3198397" lon="13.6527367"><ele>359.0</ele><time>2026-04-28T14:58:53.162Z</time></trkpt><trkpt lat="37.3198295" lon="13.6526114"><ele>359.0</ele><time>2026-04-28T14:58:56.162Z</time></trkpt><trkpt lat="37.3198312" lon="13.6524666"><ele>361.75</ele><time>2026-04-28T14:58:58.161Z</time></trkpt><trkpt lat="37.3198548" lon="13.6522969"><ele>364.5</ele><time>2026-04-28T14:59:00.161Z</time></trkpt><trkpt lat="37.3198654" lon="13.6521798"><ele>367.25</ele><time>2026-04-28T14:59:01.162Z</time></trkpt><trkpt lat="37.3198971" lon="13.6520275"><ele>370.0</ele><time>2026-04-28T14:59:02.162Z</time></trkpt><trkpt lat="37.3199237" lon="13.6518783"><ele>372.5</ele><time>2026-04-28T14:59:03.163Z</time></trkpt><trkpt lat="37.3199594" lon="13.6517148"><ele>375.0</ele><time>2026-04-28T14:59:04.162Z</time></trkpt><trkpt lat="37.3199745" lon="13.65155"><ele>377.5</ele><time>2026-04-28T14:59:05.161Z</time></trkpt><trkpt lat="37.3199918" lon="13.6513736"><ele>380.0</ele><time>2026-04-28T14:59:06.163Z</time></trkpt><trkpt lat="37.3199955" lon="13.6512058"><ele>382.0</ele><time>2026-04-28T14:59:07.163Z</time></trkpt><trkpt lat="37.3200064" lon="13.6510377"><ele>384.0</ele><time>2026-04-28T14:59:08.163Z</time></trkpt><trkpt lat="37.3200266" lon="13.6508943"><ele>386.0</ele><time>2026-04-28T14:59:09.162Z</time></trkpt><trkpt lat="37.3200399" lon="13.650767"><ele>388.0</ele><time>2026-04-28T14:59:10.161Z</time></trkpt><trkpt lat="37.3200587" lon="13.6506323"><ele>388.0</ele><time>2026-04-28T14:59:11.164Z</time></trkpt><trkpt lat="37.3200504" lon="13.6505303"><ele>388.0</ele><time>2026-04-28T14:59:12.161Z</time></trkpt><trkpt lat="37.320043" lon="13.650434"><ele>388.0</ele><time>2026-04-28T14:59:13.161Z</time></trkpt><trkpt lat="37.3200996" lon="13.6503248"><ele>388.0</ele><time>2026-04-28T14:59:15.164Z</time></trkpt><trkpt lat="37.3201854" lon="13.6502923"><ele>388.0</ele><time>2026-04-28T14:59:16.163Z</time></trkpt><trkpt lat="37.3202829" lon="13.6502547"><ele>390.5</ele><time>2026-04-28T14:59:17.162Z</time></trkpt><trkpt lat="37.3203966" lon="13.650205"><ele>393.0</ele><time>2026-04-28T14:59:18.162Z</time></trkpt><trkpt lat="37.3205107" lon="13.6501441"><ele>395.5</ele><time>2026-04-28T14:59:19.163Z</time></trkpt><trkpt lat="37.3206449" lon="13.6500728"><ele>398.0</ele><time>2026-04-28T14:59:20.163Z</time></trkpt><trkpt lat="37.3207625" lon="13.6500072"><ele>399.75</ele><time>2026-04-28T14:59:21.161Z</time></trkpt><trkpt lat="37.3208687" lon="13.6499275"><ele>401.5</ele><time>2026-04-28T14:59:22.162Z</time></trkpt><trkpt lat="37.3209674" lon="13.6498325"><ele>403.25</ele><time>2026-04-28T14:59:23.163Z</time></trkpt><trkpt lat="37.3210598" lon="13.6497331"><ele>405.0</ele><time>2026-04-28T14:59:24.162Z</time></trkpt><trkpt lat="37.3211431" lon="13.6496328"><ele>405.0</ele><time>2026-04-28T14:59:25.161Z</time></trkpt><trkpt lat="37.3212251" lon="13.6495332"><ele>405.0</ele><time>2026-04-28T14:59:26.162Z</time></trkpt><trkpt lat="37.3213013" lon="13.6494339"><ele>405.0</ele><time>2026-04-28T14:59:27.163Z</time></trkpt><trkpt lat="37.3213788" lon="13.649332"><ele>405.0</ele><time>2026-04-28T14:59:28.161Z</time></trkpt><trkpt lat="37.3214454" lon="13.6492315"><ele>405.0</ele><time>2026-04-28T14:59:29.162Z</time></trkpt><trkpt lat="37.3214956" lon="13.6491096"><ele>408.4</ele><time>2026-04-28T14:59:30.162Z</time></trkpt><trkpt lat="37.3215444" lon="13.6489788"><ele>411.8</ele><time>2026-04-28T14:59:31.163Z</time></trkpt><trkpt lat="37.3215802" lon="13.6488505"><ele>415.20000000000005</ele><time>2026-04-28T14:59:32.162Z</time></trkpt><trkpt lat="37.3216159" lon="13.6487456"><ele>418.6</ele><time>2026-04-28T14:59:33.162Z</time></trkpt><trkpt lat="37.3216529" lon="13.6486681"><ele>422.0</ele><time>2026-04-28T14:59:34.162Z</time></trkpt><trkpt lat="37.3217059" lon="13.6486022"><ele>421.99999999999994</ele><time>2026-04-28T14:59:35.162Z</time></trkpt><trkpt lat="37.3217837" lon="13.648548"><ele>422.0</ele><time>2026-04-28T14:59:36.162Z</time></trkpt><trkpt lat="37.3218716" lon="13.6484931"><ele>422.0</ele><time>2026-04-28T14:59:37.161Z</time></trkpt><trkpt lat="37.321943" lon="13.6484481"><ele>422.0</ele><time>2026-04-28T14:59:38.163Z</time></trkpt><trkpt lat="37.3220095" lon="13.6484111"><ele>421.99999999999994</ele><time>2026-04-28T14:59:39.163Z</time></trkpt><trkpt lat="37.3220688" lon="13.6483777"><ele>422.0</ele><time>2026-04-28T14:59:40.163Z</time></trkpt><trkpt lat="37.3221281" lon="13.6483204"><ele>421.99999999999994</ele><time>2026-04-28T14:59:41.163Z</time></trkpt><trkpt lat="37.3221903" lon="13.6482369"><ele>422.0</ele><time>2026-04-28T14:59:42.161Z</time></trkpt><trkpt lat="37.3222441" lon="13.6481766"><ele>422.0</ele><time>2026-04-28T14:59:43.162Z</time></trkpt><trkpt lat="37.3223122" lon="13.6481152"><ele>422.0</ele><time>2026-04-28T14:59:44.163Z</time></trkpt><trkpt lat="37.3223872" lon="13.64806"><ele>421.99999999999994</ele><time>2026-04-28T14:59:45.162Z</time></trkpt><trkpt lat="37.3224643" lon="13.6480098"><ele>422.0</ele><time>2026-04-28T14:59:46.163Z</time></trkpt><trkpt lat="37.32255" lon="13.6479509"><ele>424.6</ele><time>2026-04-28T14:59:47.162Z</time></trkpt><trkpt lat="37.3226375" lon="13.6479001"><ele>427.20000000000005</ele><time>2026-04-28T14:59:48.163Z</time></trkpt><trkpt lat="37.3227264" lon="13.647836"><ele>429.8</ele><time>2026-04-28T14:59:49.163Z</time></trkpt><trkpt lat="37.3228082" lon="13.6477703"><ele>432.4</ele><time>2026-04-28T14:59:50.162Z</time></trkpt><trkpt lat="37.3228633" lon="13.6476868"><ele>435.0</ele><time>2026-04-28T14:59:51.162Z</time></trkpt><trkpt lat="37.3229032" lon="13.6476132"><ele>435.0</ele><time>2026-04-28T14:59:52.161Z</time></trkpt><trkpt lat="37.3229171" lon="13.6475272"><ele>435.0</ele><time>2026-04-28T14:59:53.161Z</time></trkpt><trkpt lat="37.3229288" lon="13.6474339"><ele>435.0</ele><time>2026-04-28T14:59:54.162Z</time></trkpt><trkpt lat="37.3229156" lon="13.6473323"><ele>435.0</ele><time>2026-04-28T14:59:55.162Z</time></trkpt><trkpt lat="37.3229131" lon="13.6472494"><ele>435.0</ele><time>2026-04-28T14:59:56.162Z</time></trkpt><trkpt lat="37.3229644" lon="13.6471042"><ele>435.0</ele><time>2026-04-28T14:59:58.162Z</time></trkpt><trkpt lat="37.3229976" lon="13.6470034"><ele>433.6666666666667</ele><time>2026-04-28T14:59:59.162Z</time></trkpt><trkpt lat="37.3230301" lon="13.6469116"><ele>432.33333333333337</ele><time>2026-04-28T15:00:00.162Z</time></trkpt><trkpt lat="37.3230629" lon="13.6468254"><ele>431.0</ele><time>2026-04-28T15:00:01.163Z</time></trkpt><trkpt lat="37.3230964" lon="13.6467476"><ele>429.6666666666667</ele><time>2026-04-28T15:00:02.164Z</time></trkpt><trkpt lat="37.3231916" lon="13.6466551"><ele>428.33333333333337</ele><time>2026-04-28T15:00:04.163Z</time></trkpt><trkpt lat="37.323268" lon="13.6465987"><ele>427.0</ele><time>2026-04-28T15:00:06.161Z</time></trkpt><trkpt lat="37.3233565" lon="13.6465496"><ele>432.8</ele><time>2026-04-28T15:00:08.163Z</time></trkpt><trkpt lat="37.3234345" lon="13.6465043"><ele>438.6</ele><time>2026-04-28T15:00:10.163Z</time></trkpt><trkpt lat="37.3235248" lon="13.6465004"><ele>444.40000000000003</ele><time>2026-04-28T15:00:12.162Z</time></trkpt><trkpt lat="37.3236291" lon="13.6465174"><ele>450.20000000000005</ele><time>2026-04-28T15:00:14.162Z</time></trkpt><trkpt lat="37.3237186" lon="13.6465362"><ele>456.0</ele><time>2026-04-28T15:00:16.163Z</time></trkpt><trkpt lat="37.3238031" lon="13.6465676"><ele>456.0</ele><time>2026-04-28T15:00:18.163Z</time></trkpt><trkpt lat="37.3238758" lon="13.6466156"><ele>456.0</ele><time>2026-04-28T15:00:20.162Z</time></trkpt><trkpt lat="37.3239407" lon="13.6466753"><ele>456.0</ele><time>2026-04-28T15:00:22.162Z</time></trkpt><trkpt lat="37.3240275" lon="13.6467408"><ele>456.0</ele><time>2026-04-28T15:00:24.163Z</time></trkpt><trkpt lat="37.3241105" lon="13.6468267"><ele>456.0</ele><time>2026-04-28T15:00:26.162Z</time></trkpt><trkpt lat="37.3242086" lon="13.6469184"><ele>459.8</ele><time>2026-04-28T15:00:28.162Z</time></trkpt><trkpt lat="37.3242562" lon="13.6469704"><ele>463.6</ele><time>2026-04-28T15:00:29.162Z</time></trkpt><trkpt lat="37.3243054" lon="13.6470198"><ele>467.4</ele><time>2026-04-28T15:00:30.162Z</time></trkpt><trkpt lat="37.3244046" lon="13.6470809"><ele>471.2</ele><time>2026-04-28T15:00:32.162Z</time></trkpt><trkpt lat="37.3245132" lon="13.6471433"><ele>475.0</ele><time>2026-04-28T15:00:34.162Z</time></trkpt><trkpt lat="37.3246022" lon="13.6472216"><ele>475.0</ele><time>2026-04-28T15:00:36.162Z</time></trkpt><trkpt lat="37.3246998" lon="13.6472897"><ele>475.0</ele><time>2026-04-28T15:00:38.163Z</time></trkpt><trkpt lat="37.3247947" lon="13.6473613"><ele>475.0</ele><time>2026-04-28T15:00:40.163Z</time></trkpt><trkpt lat="37.324881" lon="13.6474271"><ele>475.0</ele><time>2026-04-28T15:00:42.161Z</time></trkpt><trkpt lat="37.324985" lon="13.647482"><ele>475.0</ele><time>2026-04-28T15:00:44.162Z</time></trkpt><trkpt lat="37.3250925" lon="13.6475574"><ele>473.83333333333337</ele><time>2026-04-28T15:00:46.161Z</time></trkpt><trkpt lat="37.325149" lon="13.6475973"><ele>472.6666666666667</ele><time>2026-04-28T15:00:47.162Z</time></trkpt><trkpt lat="37.3252087" lon="13.6476356"><ele>471.5</ele><time>2026-04-28T15:00:48.164Z</time></trkpt><trkpt lat="37.3252677" lon="13.6476768"><ele>470.33333333333337</ele><time>2026-04-28T15:00:49.162Z</time></trkpt><trkpt lat="37.3253252" lon="13.647719"><ele>469.1666666666667</ele><time>2026-04-28T15:00:50.162Z</time></trkpt><trkpt lat="37.3254276" lon="13.6477781"><ele>468.0</ele><time>2026-04-28T15:00:52.164Z</time></trkpt><trkpt lat="37.3255129" lon="13.6478389"><ele>470.4</ele><time>2026-04-28T15:00:54.162Z</time></trkpt><trkpt lat="37.3255983" lon="13.6479193"><ele>472.79999999999995</ele><time>2026-04-28T15:00:56.161Z</time></trkpt><trkpt lat="37.3256855" lon="13.6480142"><ele>475.2</ele><time>2026-04-28T15:00:58.163Z</time></trkpt><trkpt lat="37.3257902" lon="13.6481344"><ele>477.6</ele><time>2026-04-28T15:01:00.163Z</time></trkpt><trkpt lat="37.3258445" lon="13.6481845"><ele>480.0</ele><time>2026-04-28T15:01:01.162Z</time></trkpt><trkpt lat="37.3259071" lon="13.6482385"><ele>480.0</ele><time>2026-04-28T15:01:02.162Z</time></trkpt><trkpt lat="37.3259633" lon="13.6482834"><ele>480.0</ele><time>2026-04-28T15:01:03.162Z</time></trkpt><trkpt lat="37.3260223" lon="13.6483324"><ele>480.0</ele><time>2026-04-28T15:01:04.161Z</time></trkpt><trkpt lat="37.3260831" lon="13.6483806"><ele>480.0</ele><time>2026-04-28T15:01:05.163Z</time></trkpt><trkpt lat="37.3261412" lon="13.6484286"><ele>480.0</ele><time>2026-04-28T15:01:06.163Z</time></trkpt><trkpt lat="37.3262503" lon="13.6485177"><ele>480.0</ele><time>2026-04-28T15:01:08.161Z</time></trkpt><trkpt lat="37.3263046" lon="13.6485667"><ele>480.0</ele><time>2026-04-28T15:01:09.162Z</time></trkpt><trkpt lat="37.3263607" lon="13.6486158"><ele>480.0</ele><time>2026-04-28T15:01:10.163Z</time></trkpt><trkpt lat="37.3264096" lon="13.6486695"><ele>480.0</ele><time>2026-04-28T15:01:11.163Z</time></trkpt><trkpt lat="37.3265101" lon="13.648755"><ele>480.0</ele><time>2026-04-28T15:01:13.162Z</time></trkpt><trkpt lat="37.3266266" lon="13.6488205"><ele>480.0</ele><time>2026-04-28T15:01:15.162Z</time></trkpt><trkpt lat="37.3267313" lon="13.64889"><ele>480.4</ele><time>2026-04-28T15:01:17.162Z</time></trkpt><trkpt lat="37.3268238" lon="13.6489572"><ele>480.8</ele><time>2026-04-28T15:01:19.161Z</time></trkpt><trkpt lat="37.326923" lon="13.6490113"><ele>481.20000000000005</ele><time>2026-04-28T15:01:21.163Z</time></trkpt><trkpt lat="37.3270052" lon="13.6490628"><ele>481.6</ele><time>2026-04-28T15:01:23.164Z</time></trkpt><trkpt lat="37.3270814" lon="13.649135"><ele>482.0</ele><time>2026-04-28T15:01:25.162Z</time></trkpt><trkpt lat="37.3271709" lon="13.6491919"><ele>484.66666666666663</ele><time>2026-04-28T15:01:27.161Z</time></trkpt><trkpt lat="37.3272829" lon="13.6492416"><ele>487.3333333333333</ele><time>2026-04-28T15:01:29.162Z</time></trkpt><trkpt lat="37.3273518" lon="13.6492612"><ele>490.0</ele><time>2026-04-28T15:01:30.161Z</time></trkpt><trkpt lat="37.3274181" lon="13.6492715"><ele>492.66666666666663</ele><time>2026-04-28T15:01:31.161Z</time></trkpt><trkpt lat="37.3274869" lon="13.649279"><ele>495.3333333333333</ele><time>2026-04-28T15:01:32.163Z</time></trkpt><trkpt lat="37.3275674" lon="13.6492899"><ele>498.0</ele><time>2026-04-28T15:01:33.163Z</time></trkpt><trkpt lat="37.3276556" lon="13.6493039"><ele>498.0</ele><time>2026-04-28T15:01:34.163Z</time></trkpt><trkpt lat="37.3277265" lon="13.6493115"><ele>498.0</ele><time>2026-04-28T15:01:35.161Z</time></trkpt><trkpt lat="37.3278334" lon="13.649333"><ele>498.0</ele><time>2026-04-28T15:01:37.162Z</time></trkpt><trkpt lat="37.3279052" lon="13.6493757"><ele>498.0</ele><time>2026-04-28T15:01:39.163Z</time></trkpt><trkpt lat="37.3279223" lon="13.6494615"><ele>498.0</ele><time>2026-04-28T15:01:42.162Z</time></trkpt><trkpt lat="37.3278859" lon="13.6493722"><ele>498.0</ele><time>2026-04-28T15:05:08.161Z</time></trkpt><trkpt lat="37.3278041" lon="13.6493319"><ele>498.0</ele><time>2026-04-28T15:05:11.161Z</time></trkpt><trkpt lat="37.327733" lon="13.6493296"><ele>497.99999999999994</ele><time>2026-04-28T15:05:14.161Z</time></trkpt><trkpt lat="37.3276641" lon="13.649325"><ele>498.0</ele><time>2026-04-28T15:05:17.162Z</time></trkpt><trkpt lat="37.3275982" lon="13.6493084"><ele>498.0</ele><time>2026-04-28T15:05:20.161Z</time></trkpt><trkpt lat="37.3275345" lon="13.6493013"><ele>497.99999999999994</ele><time>2026-04-28T15:05:23.161Z</time></trkpt><trkpt lat="37.327465" lon="13.6492845"><ele>498.0</ele><time>2026-04-28T15:05:25.162Z</time></trkpt><trkpt lat="37.3273615" lon="13.649257"><ele>498.0</ele><time>2026-04-28T15:05:27.161Z</time></trkpt><trkpt lat="37.3272793" lon="13.649229"><ele>495.71428571428567</ele><time>2026-04-28T15:05:29.162Z</time></trkpt><trkpt lat="37.3272099" lon="13.6492007"><ele>493.4285714285714</ele><time>2026-04-28T15:05:31.161Z</time></trkpt><trkpt lat="37.3271444" lon="13.6491674"><ele>491.1428571428571</ele><time>2026-04-28T15:05:33.161Z</time></trkpt><trkpt lat="37.3270862" lon="13.6491295"><ele>488.8571428571429</ele><time>2026-04-28T15:05:35.16Z</time></trkpt><trkpt lat="37.3270267" lon="13.6490829"><ele>486.5714285714286</ele><time>2026-04-28T15:05:37.162Z</time></trkpt><trkpt lat="37.3269666" lon="13.6490296"><ele>484.28571428571433</ele><time>2026-04-28T15:05:39.161Z</time></trkpt><trkpt lat="37.3268935" lon="13.6490027"><ele>482.0</ele><time>2026-04-28T15:05:41.162Z</time></trkpt><trkpt lat="37.3268198" lon="13.6489705"><ele>481.99999999999994</ele><time>2026-04-28T15:05:43.162Z</time></trkpt><trkpt lat="37.3267505" lon="13.6489242"><ele>482.0</ele><time>2026-04-28T15:05:45.161Z</time></trkpt><trkpt lat="37.3266854" lon="13.6488779"><ele>482.0</ele><time>2026-04-28T15:05:47.162Z</time></trkpt><trkpt lat="37.3266226" lon="13.6488308"><ele>482.0</ele><time>2026-04-28T15:05:49.162Z</time></trkpt><trkpt lat="37.3265535" lon="13.6487952"><ele>481.99999999999994</ele><time>2026-04-28T15:05:51.163Z</time></trkpt><trkpt lat="37.3264871" lon="13.6487528"><ele>482.0</ele><time>2026-04-28T15:05:53.162Z</time></trkpt><trkpt lat="37.3264206" lon="13.6486961"><ele>481.66666666666663</ele><time>2026-04-28T15:05:55.163Z</time></trkpt><trkpt lat="37.3263639" lon="13.6486262"><ele>481.3333333333333</ele><time>2026-04-28T15:05:57.162Z</time></trkpt><trkpt lat="37.3262982" lon="13.6485639"><ele>481.0</ele><time>2026-04-28T15:05:59.161Z</time></trkpt><trkpt lat="37.3262283" lon="13.6485015"><ele>480.66666666666663</ele><time>2026-04-28T15:06:01.161Z</time></trkpt><trkpt lat="37.3261596" lon="13.6484471"><ele>480.3333333333333</ele><time>2026-04-28T15:06:03.162Z</time></trkpt><trkpt lat="37.3260825" lon="13.6483928"><ele>480.0</ele><time>2026-04-28T15:06:05.161Z</time></trkpt><trkpt lat="37.3259953" lon="13.6483187"><ele>480.0</ele><time>2026-04-28T15:06:07.162Z</time></trkpt><trkpt lat="37.3259205" lon="13.6482571"><ele>480.0</ele><time>2026-04-28T15:06:09.162Z</time></trkpt><trkpt lat="37.3258228" lon="13.6481771"><ele>480.0</ele><time>2026-04-28T15:06:11.162Z</time></trkpt><trkpt lat="37.3257738" lon="13.6481173"><ele>480.0</ele><time>2026-04-28T15:06:12.162Z</time></trkpt><trkpt lat="37.3256837" lon="13.648015"><ele>480.0</ele><time>2026-04-28T15:06:14.16Z</time></trkpt><trkpt lat="37.3256027" lon="13.6479275"><ele>481.0</ele><time>2026-04-28T15:06:16.162Z</time></trkpt><trkpt lat="37.3255291" lon="13.6478575"><ele>482.0</ele><time>2026-04-28T15:06:18.162Z</time></trkpt><trkpt lat="37.3254612" lon="13.6478078"><ele>483.0</ele><time>2026-04-28T15:06:20.161Z</time></trkpt><trkpt lat="37.3253853" lon="13.6477571"><ele>484.0</ele><time>2026-04-28T15:06:22.16Z</time></trkpt><trkpt lat="37.3253031" lon="13.6477062"><ele>485.0</ele><time>2026-04-28T15:06:24.16Z</time></trkpt><trkpt lat="37.3252271" lon="13.6476523"><ele>486.0</ele><time>2026-04-28T15:06:26.161Z</time></trkpt><trkpt lat="37.32515" lon="13.6476021"><ele>483.0</ele><time>2026-04-28T15:06:28.162Z</time></trkpt><trkpt lat="37.3250832" lon="13.6475519"><ele>480.0</ele><time>2026-04-28T15:06:30.161Z</time></trkpt><trkpt lat="37.3250268" lon="13.6474993"><ele>477.0</ele><time>2026-04-28T15:06:32.161Z</time></trkpt><trkpt lat="37.324959" lon="13.6474689"><ele>474.0</ele><time>2026-04-28T15:06:34.162Z</time></trkpt><trkpt lat="37.3248858" lon="13.6474397"><ele>471.0</ele><time>2026-04-28T15:06:36.162Z</time></trkpt><trkpt lat="37.3248244" lon="13.6473866"><ele>468.0</ele><time>2026-04-28T15:06:38.161Z</time></trkpt><trkpt lat="37.3247547" lon="13.6473412"><ele>469.1666666666667</ele><time>2026-04-28T15:06:40.161Z</time></trkpt><trkpt lat="37.3246863" lon="13.6472905"><ele>470.33333333333337</ele><time>2026-04-28T15:06:42.162Z</time></trkpt><trkpt lat="37.3246196" lon="13.6472356"><ele>471.5</ele><time>2026-04-28T15:06:44.162Z</time></trkpt><trkpt lat="37.3245555" lon="13.6471934"><ele>472.6666666666667</ele><time>2026-04-28T15:06:46.162Z</time></trkpt><trkpt lat="37.3244899" lon="13.6471574"><ele>473.83333333333337</ele><time>2026-04-28T15:06:48.161Z</time></trkpt><trkpt lat="37.3244236" lon="13.6471129"><ele>475.0</ele><time>2026-04-28T15:06:50.162Z</time></trkpt><trkpt lat="37.3243563" lon="13.6470787"><ele>475.0</ele><time>2026-04-28T15:06:52.16Z</time></trkpt><trkpt lat="37.3242868" lon="13.6470371"><ele>475.0</ele><time>2026-04-28T15:06:54.161Z</time></trkpt><trkpt lat="37.3242197" lon="13.6469692"><ele>475.0</ele><time>2026-04-28T15:06:56.161Z</time></trkpt><trkpt lat="37.3241483" lon="13.646892"><ele>475.0</ele><time>2026-04-28T15:06:58.161Z</time></trkpt><trkpt lat="37.3240356" lon="13.6467829"><ele>475.0</ele><time>2026-04-28T15:07:00.161Z</time></trkpt><trkpt lat="37.3239733" lon="13.6467379"><ele>471.83333333333337</ele><time>2026-04-28T15:07:01.162Z</time></trkpt><trkpt lat="37.3238756" lon="13.6466454"><ele>468.6666666666667</ele><time>2026-04-28T15:07:03.161Z</time></trkpt><trkpt lat="37.323782" lon="13.6465861"><ele>465.5</ele><time>2026-04-28T15:07:05.16Z</time></trkpt><trkpt lat="37.3237197" lon="13.6465715"><ele>462.33333333333337</ele><time>2026-04-28T15:07:06.162Z</time></trkpt><trkpt lat="37.3236504" lon="13.6465533"><ele>459.1666666666667</ele><time>2026-04-28T15:07:07.161Z</time></trkpt><trkpt lat="37.3235878" lon="13.6465366"><ele>456.0</ele><time>2026-04-28T15:07:08.162Z</time></trkpt><trkpt lat="37.3235238" lon="13.6465269"><ele>456.0</ele><time>2026-04-28T15:07:09.161Z</time></trkpt><trkpt lat="37.3234595" lon="13.6465282"><ele>456.0</ele><time>2026-04-28T15:07:10.162Z</time></trkpt><trkpt lat="37.3233879" lon="13.646541"><ele>456.0</ele><time>2026-04-28T15:07:11.161Z</time></trkpt><trkpt lat="37.3232641" lon="13.6466157"><ele>456.0</ele><time>2026-04-28T15:07:13.163Z</time></trkpt><trkpt lat="37.3231796" lon="13.6466835"><ele>456.0</ele><time>2026-04-28T15:07:15.16Z</time></trkpt><trkpt lat="37.3231055" lon="13.646763"><ele>451.8</ele><time>2026-04-28T15:07:17.162Z</time></trkpt><trkpt lat="37.3230495" lon="13.6468729"><ele>447.6</ele><time>2026-04-28T15:07:19.16Z</time></trkpt><trkpt lat="37.3229985" lon="13.6470016"><ele>443.4</ele><time>2026-04-28T15:07:21.16Z</time></trkpt><trkpt lat="37.3229572" lon="13.6471196"><ele>439.2</ele><time>2026-04-28T15:07:23.162Z</time></trkpt><trkpt lat="37.3229171" lon="13.6472274"><ele>435.0</ele><time>2026-04-28T15:07:25.161Z</time></trkpt><trkpt lat="37.322917" lon="13.6473394"><ele>435.0</ele><time>2026-04-28T15:07:27.163Z</time></trkpt><trkpt lat="37.322937" lon="13.6474533"><ele>435.0</ele><time>2026-04-28T15:07:29.162Z</time></trkpt><trkpt lat="37.3229313" lon="13.6475663"><ele>435.0</ele><time>2026-04-28T15:07:31.162Z</time></trkpt><trkpt lat="37.3228651" lon="13.6476793"><ele>435.0</ele><time>2026-04-28T15:07:33.16Z</time></trkpt><trkpt lat="37.322776" lon="13.6477839"><ele>435.0</ele><time>2026-04-28T15:07:35.162Z</time></trkpt><trkpt lat="37.3227236" lon="13.6478331"><ele>435.8</ele><time>2026-04-28T15:07:36.162Z</time></trkpt><trkpt lat="37.3226723" lon="13.6478825"><ele>436.6</ele><time>2026-04-28T15:07:37.162Z</time></trkpt><trkpt lat="37.3226156" lon="13.6479257"><ele>437.4</ele><time>2026-04-28T15:07:38.162Z</time></trkpt><trkpt lat="37.3225167" lon="13.6479969"><ele>438.2</ele><time>2026-04-28T15:07:40.162Z</time></trkpt><trkpt lat="37.322422" lon="13.6480609"><ele>439.0</ele><time>2026-04-28T15:07:42.16Z</time></trkpt><trkpt lat="37.3223282" lon="13.6481266"><ele>435.6</ele><time>2026-04-28T15:07:44.161Z</time></trkpt><trkpt lat="37.322228" lon="13.6482192"><ele>432.2</ele><time>2026-04-28T15:07:46.162Z</time></trkpt><trkpt lat="37.3221424" lon="13.6483211"><ele>428.8</ele><time>2026-04-28T15:07:48.16Z</time></trkpt><trkpt lat="37.3220545" lon="13.64839"><ele>425.40000000000003</ele><time>2026-04-28T15:07:50.161Z</time></trkpt><trkpt lat="37.3219651" lon="13.6484437"><ele>422.0</ele><time>2026-04-28T15:07:52.161Z</time></trkpt><trkpt lat="37.3218701" lon="13.648489"><ele>422.0</ele><time>2026-04-28T15:07:54.162Z</time></trkpt><trkpt lat="37.3217866" lon="13.6485464"><ele>422.0</ele><time>2026-04-28T15:07:56.162Z</time></trkpt><trkpt lat="37.3217003" lon="13.6486058"><ele>422.0</ele><time>2026-04-28T15:07:58.161Z</time></trkpt><trkpt lat="37.3216299" lon="13.648722"><ele>422.0</ele><time>2026-04-28T15:08:00.161Z</time></trkpt><trkpt lat="37.3215828" lon="13.6488753"><ele>422.0</ele><time>2026-04-28T15:08:02.162Z</time></trkpt><trkpt lat="37.3215454" lon="13.6490218"><ele>422.16666666666663</ele><time>2026-04-28T15:08:04.16Z</time></trkpt><trkpt lat="37.3215023" lon="13.6491543"><ele>422.3333333333333</ele><time>2026-04-28T15:08:06.163Z</time></trkpt><trkpt lat="37.3214674" lon="13.6492229"><ele>422.5</ele><time>2026-04-28T15:08:07.16Z</time></trkpt><trkpt lat="37.3214272" lon="13.6492878"><ele>422.66666666666663</ele><time>2026-04-28T15:08:08.161Z</time></trkpt><trkpt lat="37.3213803" lon="13.6493563"><ele>422.8333333333333</ele><time>2026-04-28T15:08:09.161Z</time></trkpt><trkpt lat="37.3213299" lon="13.6494245"><ele>423.0</ele><time>2026-04-28T15:08:10.16Z</time></trkpt><trkpt lat="37.3212798" lon="13.6494835"><ele>420.4285714285714</ele><time>2026-04-28T15:08:11.162Z</time></trkpt><trkpt lat="37.3212268" lon="13.6495472"><ele>417.8571428571429</ele><time>2026-04-28T15:08:12.161Z</time></trkpt><trkpt lat="37.3211729" lon="13.649614"><ele>415.2857142857143</ele><time>2026-04-28T15:08:13.163Z</time></trkpt><trkpt lat="37.3211121" lon="13.6496828"><ele>412.71428571428567</ele><time>2026-04-28T15:08:14.162Z</time></trkpt><trkpt lat="37.3210606" lon="13.6497471"><ele>410.1428571428571</ele><time>2026-04-28T15:08:15.161Z</time></trkpt><trkpt lat="37.3210067" lon="13.6498053"><ele>407.57142857142856</ele><time>2026-04-28T15:08:16.162Z</time></trkpt><trkpt lat="37.3209513" lon="13.6498622"><ele>405.0</ele><time>2026-04-28T15:08:17.162Z</time></trkpt><trkpt lat="37.3208885" lon="13.6499214"><ele>405.0</ele><time>2026-04-28T15:08:18.16Z</time></trkpt><trkpt lat="37.320831" lon="13.6499664"><ele>405.0</ele><time>2026-04-28T15:08:19.162Z</time></trkpt><trkpt lat="37.3207354" lon="13.6500302"><ele>405.0</ele><time>2026-04-28T15:08:21.161Z</time></trkpt><trkpt lat="37.32065" lon="13.6500778"><ele>405.0</ele><time>2026-04-28T15:08:23.161Z</time></trkpt><trkpt lat="37.3205665" lon="13.6501235"><ele>405.0</ele><time>2026-04-28T15:08:25.161Z</time></trkpt><trkpt lat="37.3204843" lon="13.6501686"><ele>403.8333333333333</ele><time>2026-04-28T15:08:27.161Z</time></trkpt><trkpt lat="37.3204045" lon="13.650208"><ele>402.66666666666663</ele><time>2026-04-28T15:08:29.162Z</time></trkpt><trkpt lat="37.3203271" lon="13.6502374"><ele>401.5</ele><time>2026-04-28T15:08:31.162Z</time></trkpt><trkpt lat="37.3202491" lon="13.6502679"><ele>400.3333333333333</ele><time>2026-04-28T15:08:33.162Z</time></trkpt><trkpt lat="37.3201695" lon="13.6503001"><ele>399.16666666666663</ele><time>2026-04-28T15:08:35.161Z</time></trkpt><trkpt lat="37.320099" lon="13.6503097"><ele>398.0</ele><time>2026-04-28T15:08:37.16Z</time></trkpt><trkpt lat="37.3200365" lon="13.6502496"><ele>398.0</ele><time>2026-04-28T15:08:40.162Z</time></trkpt><trkpt lat="37.3200327" lon="13.6501481"><ele>398.0</ele><time>2026-04-28T15:08:41.161Z</time></trkpt><trkpt lat="37.3200232" lon="13.6500544"><ele>398.0</ele><time>2026-04-28T15:08:42.161Z</time></trkpt><trkpt lat="37.3200169" lon="13.6499222"><ele>398.0</ele><time>2026-04-28T15:08:43.16Z</time></trkpt><trkpt lat="37.3200136" lon="13.6497609"><ele>398.0</ele><time>2026-04-28T15:08:44.161Z</time></trkpt><trkpt lat="37.3200053" lon="13.6496017"><ele>397.75</ele><time>2026-04-28T15:08:45.16Z</time></trkpt><trkpt lat="37.3199955" lon="13.6494381"><ele>397.5</ele><time>2026-04-28T15:08:46.161Z</time></trkpt><trkpt lat="37.3199759" lon="13.6492878"><ele>397.25</ele><time>2026-04-28T15:08:47.161Z</time></trkpt><trkpt lat="37.3199475" lon="13.6491119"><ele>397.0</ele><time>2026-04-28T15:08:48.161Z</time></trkpt><trkpt lat="37.3199159" lon="13.6489298"><ele>397.0</ele><time>2026-04-28T15:08:49.162Z</time></trkpt><trkpt lat="37.3198888" lon="13.6487604"><ele>397.0</ele><time>2026-04-28T15:08:50.161Z</time></trkpt><trkpt lat="37.3198607" lon="13.648597"><ele>397.0</ele><time>2026-04-28T15:08:51.161Z</time></trkpt><trkpt lat="37.3198285" lon="13.648448"><ele>397.0</ele><time>2026-04-28T15:08:52.162Z</time></trkpt><trkpt lat="37.3197872" lon="13.6482964"><ele>393.0</ele><time>2026-04-28T15:08:53.161Z</time></trkpt><trkpt lat="37.3197295" lon="13.6481432"><ele>389.0</ele><time>2026-04-28T15:08:54.161Z</time></trkpt><trkpt lat="37.3196558" lon="13.6479695"><ele>385.0</ele><time>2026-04-28T15:08:55.161Z</time></trkpt><trkpt lat="37.3195837" lon="13.6478121"><ele>381.0</ele><time>2026-04-28T15:08:56.163Z</time></trkpt><trkpt lat="37.319515" lon="13.6476552"><ele>379.5</ele><time>2026-04-28T15:08:57.16Z</time></trkpt><trkpt lat="37.3194491" lon="13.6475149"><ele>378.0</ele><time>2026-04-28T15:08:58.162Z</time></trkpt><trkpt lat="37.3193873" lon="13.6473742"><ele>376.5</ele><time>2026-04-28T15:08:59.16Z</time></trkpt><trkpt lat="37.3193273" lon="13.6472373"><ele>375.0</ele><time>2026-04-28T15:09:00.162Z</time></trkpt><trkpt lat="37.3192677" lon="13.6470867"><ele>375.0</ele><time>2026-04-28T15:09:01.161Z</time></trkpt><trkpt lat="37.3191886" lon="13.6468907"><ele>375.0</ele><time>2026-04-28T15:09:02.163Z</time></trkpt><trkpt lat="37.3191175" lon="13.646711"><ele>375.0</ele><time>2026-04-28T15:09:03.161Z</time></trkpt><trkpt lat="37.319053" lon="13.6465414"><ele>375.0</ele><time>2026-04-28T15:09:04.162Z</time></trkpt><trkpt lat="37.3189915" lon="13.6463814"><ele>375.0</ele><time>2026-04-28T15:09:05.162Z</time></trkpt><trkpt lat="37.3189357" lon="13.6462312"><ele>375.0</ele><time>2026-04-28T15:09:06.162Z</time></trkpt><trkpt lat="37.3188891" lon="13.6460776"><ele>375.0</ele><time>2026-04-28T15:09:07.162Z</time></trkpt><trkpt lat="37.3188484" lon="13.6459275"><ele>372.0</ele><time>2026-04-28T15:09:08.162Z</time></trkpt><trkpt lat="37.3188159" lon="13.6457835"><ele>369.0</ele><time>2026-04-28T15:09:09.162Z</time></trkpt><trkpt lat="37.3187891" lon="13.6456398"><ele>366.0</ele><time>2026-04-28T15:09:10.162Z</time></trkpt><trkpt lat="37.3187684" lon="13.6454943"><ele>363.0</ele><time>2026-04-28T15:09:11.162Z</time></trkpt><trkpt lat="37.318755" lon="13.6453424"><ele>360.75</ele><time>2026-04-28T15:09:12.161Z</time></trkpt><trkpt lat="37.3187543" lon="13.6451921"><ele>358.5</ele><time>2026-04-28T15:09:13.163Z</time></trkpt><trkpt lat="37.3187674" lon="13.6450279"><ele>356.25</ele><time>2026-04-28T15:09:14.16Z</time></trkpt><trkpt lat="37.3187871" lon="13.6448676"><ele>354.0</ele><time>2026-04-28T15:09:15.161Z</time></trkpt><trkpt lat="37.3188054" lon="13.6447037"><ele>354.0</ele><time>2026-04-28T15:09:16.161Z</time></trkpt><trkpt lat="37.3188256" lon="13.644547"><ele>354.0</ele><time>2026-04-28T15:09:17.161Z</time></trkpt><trkpt lat="37.3188362" lon="13.6443894"><ele>354.0</ele><time>2026-04-28T15:09:18.163Z</time></trkpt><trkpt lat="37.318853" lon="13.6442399"><ele>354.0</ele><time>2026-04-28T15:09:19.16Z</time></trkpt><trkpt lat="37.3188734" lon="13.6440954"><ele>353.0</ele><time>2026-04-28T15:09:20.162Z</time></trkpt><trkpt lat="37.3188955" lon="13.6439501"><ele>352.0</ele><time>2026-04-28T15:09:21.16Z</time></trkpt><trkpt lat="37.318917" lon="13.6438118"><ele>351.0</ele><time>2026-04-28T15:09:22.162Z</time></trkpt><trkpt lat="37.3189388" lon="13.6436781"><ele>350.0</ele><time>2026-04-28T15:09:23.16Z</time></trkpt><trkpt lat="37.3189561" lon="13.6435425"><ele>349.0</ele><time>2026-04-28T15:09:24.162Z</time></trkpt><trkpt lat="37.3189704" lon="13.6434061"><ele>346.4</ele><time>2026-04-28T15:09:25.16Z</time></trkpt><trkpt lat="37.3189752" lon="13.6432743"><ele>343.79999999999995</ele><time>2026-04-28T15:09:26.161Z</time></trkpt><trkpt lat="37.3189781" lon="13.6431418"><ele>341.20000000000005</ele><time>2026-04-28T15:09:27.16Z</time></trkpt><trkpt lat="37.3189771" lon="13.6430106"><ele>338.6</ele><time>2026-04-28T15:09:28.161Z</time></trkpt><trkpt lat="37.318978" lon="13.642882"><ele>336.0</ele><time>2026-04-28T15:09:29.161Z</time></trkpt><trkpt lat="37.3189753" lon="13.6427557"><ele>335.0</ele><time>2026-04-28T15:09:30.162Z</time></trkpt><trkpt lat="37.3189692" lon="13.642624"><ele>334.0</ele><time>2026-04-28T15:09:31.162Z</time></trkpt><trkpt lat="37.3189707" lon="13.6424997"><ele>333.0</ele><time>2026-04-28T15:09:32.162Z</time></trkpt><trkpt lat="37.3189758" lon="13.6423807"><ele>332.0</ele><time>2026-04-28T15:09:33.161Z</time></trkpt><trkpt lat="37.3189873" lon="13.6422484"><ele>331.0</ele><time>2026-04-28T15:09:34.16Z</time></trkpt><trkpt lat="37.3190091" lon="13.6421254"><ele>331.0</ele><time>2026-04-28T15:09:35.162Z</time></trkpt><trkpt lat="37.319033" lon="13.6419904"><ele>331.0</ele><time>2026-04-28T15:09:36.161Z</time></trkpt><trkpt lat="37.3190649" lon="13.6418629"><ele>331.0</ele><time>2026-04-28T15:09:37.161Z</time></trkpt><trkpt lat="37.3190964" lon="13.6417359"><ele>331.0</ele><time>2026-04-28T15:09:38.16Z</time></trkpt><trkpt lat="37.3191332" lon="13.6416041"><ele>331.0</ele><time>2026-04-28T15:09:39.162Z</time></trkpt><trkpt lat="37.3191898" lon="13.6414827"><ele>328.75</ele><time>2026-04-28T15:09:40.161Z</time></trkpt><trkpt lat="37.3192536" lon="13.6413663"><ele>326.5</ele><time>2026-04-28T15:09:41.162Z</time></trkpt><trkpt lat="37.3193492" lon="13.641274"><ele>324.25</ele><time>2026-04-28T15:09:42.163Z</time></trkpt><trkpt lat="37.3194662" lon="13.6411892"><ele>322.0</ele><time>2026-04-28T15:09:43.161Z</time></trkpt><trkpt lat="37.3195824" lon="13.6411041"><ele>319.75</ele><time>2026-04-28T15:09:44.161Z</time></trkpt><trkpt lat="37.3196954" lon="13.6410518"><ele>317.5</ele><time>2026-04-28T15:09:45.162Z</time></trkpt><trkpt lat="37.3198241" lon="13.6410126"><ele>315.25</ele><time>2026-04-28T15:09:46.161Z</time></trkpt><trkpt lat="37.3199753" lon="13.640989"><ele>313.0</ele><time>2026-04-28T15:09:47.161Z</time></trkpt><trkpt lat="37.3201378" lon="13.6409586"><ele>313.0</ele><time>2026-04-28T15:09:48.16Z</time></trkpt><trkpt lat="37.3203003" lon="13.640924"><ele>313.0</ele><time>2026-04-28T15:09:49.161Z</time></trkpt><trkpt lat="37.3204584" lon="13.6408956"><ele>313.0</ele><time>2026-04-28T15:09:50.162Z</time></trkpt><trkpt lat="37.3206072" lon="13.6408701"><ele>313.25</ele><time>2026-04-28T15:09:51.162Z</time></trkpt><trkpt lat="37.3207493" lon="13.640831"><ele>313.5</ele><time>2026-04-28T15:09:52.162Z</time></trkpt><trkpt lat="37.3208986" lon="13.640787"><ele>313.75</ele><time>2026-04-28T15:09:53.161Z</time></trkpt><trkpt lat="37.3210316" lon="13.6407305"><ele>314.0</ele><time>2026-04-28T15:09:54.162Z</time></trkpt><trkpt lat="37.3211597" lon="13.6406752"><ele>314.0</ele><time>2026-04-28T15:09:55.161Z</time></trkpt><trkpt lat="37.3212681" lon="13.640618"><ele>314.0</ele><time>2026-04-28T15:09:56.162Z</time></trkpt><trkpt lat="37.3213602" lon="13.6405652"><ele>314.0</ele><time>2026-04-28T15:09:57.161Z</time></trkpt><trkpt lat="37.3214389" lon="13.6405042"><ele>314.0</ele><time>2026-04-28T15:09:58.16Z</time></trkpt><trkpt lat="37.3215134" lon="13.6404402"><ele>314.0</ele><time>2026-04-28T15:09:59.161Z</time></trkpt><trkpt lat="37.3215667" lon="13.6403642"><ele>311.6666666666667</ele><time>2026-04-28T15:10:00.163Z</time></trkpt><trkpt lat="37.321584" lon="13.640268"><ele>309.33333333333337</ele><time>2026-04-28T15:10:01.161Z</time></trkpt><trkpt lat="37.3215921" lon="13.6401698"><ele>307.0</ele><time>2026-04-28T15:10:02.161Z</time></trkpt><trkpt lat="37.3215944" lon="13.6400774"><ele>304.6666666666667</ele><time>2026-04-28T15:10:03.16Z</time></trkpt><trkpt lat="37.321574" lon="13.6399879"><ele>302.3333333333333</ele><time>2026-04-28T15:10:04.16Z</time></trkpt><trkpt lat="37.3215579" lon="13.6398935"><ele>300.0</ele><time>2026-04-28T15:10:05.162Z</time></trkpt><trkpt lat="37.3215436" lon="13.6398046"><ele>300.0</ele><time>2026-04-28T15:10:06.161Z</time></trkpt><trkpt lat="37.3215201" lon="13.6397065"><ele>300.0</ele><time>2026-04-28T15:10:07.161Z</time></trkpt><trkpt lat="37.3214933" lon="13.6396025"><ele>300.0</ele><time>2026-04-28T15:10:08.161Z</time></trkpt><trkpt lat="37.321467" lon="13.6394999"><ele>300.0</ele><time>2026-04-28T15:10:09.161Z</time></trkpt><trkpt lat="37.3214406" lon="13.6393993"><ele>300.0</ele><time>2026-04-28T15:10:10.16Z</time></trkpt><trkpt lat="37.3214135" lon="13.6392976"><ele>300.0</ele><time>2026-04-28T15:10:11.16Z</time></trkpt><trkpt lat="37.3213898" lon="13.6391984"><ele>299.1666666666667</ele><time>2026-04-28T15:10:12.16Z</time></trkpt><trkpt lat="37.3213718" lon="13.6391022"><ele>298.3333333333333</ele><time>2026-04-28T15:10:13.162Z</time></trkpt><trkpt lat="37.32137" lon="13.6390067"><ele>297.5</ele><time>2026-04-28T15:10:14.161Z</time></trkpt><trkpt lat="37.3213884" lon="13.6389086"><ele>296.66666666666663</ele><time>2026-04-28T15:10:15.16Z</time></trkpt><trkpt lat="37.3214189" lon="13.6388116"><ele>295.8333333333333</ele><time>2026-04-28T15:10:16.16Z</time></trkpt><trkpt lat="37.3214537" lon="13.6387101"><ele>295.0</ele><time>2026-04-28T15:10:17.161Z</time></trkpt><trkpt lat="37.3214926" lon="13.6386067"><ele>293.6</ele><time>2026-04-28T15:10:18.161Z</time></trkpt><trkpt lat="37.3215323" lon="13.6385016"><ele>292.2</ele><time>2026-04-28T15:10:19.162Z</time></trkpt><trkpt lat="37.3215755" lon="13.6384024"><ele>290.8</ele><time>2026-04-28T15:10:20.162Z</time></trkpt><trkpt lat="37.3216223" lon="13.6383054"><ele>289.4</ele><time>2026-04-28T15:10:21.161Z</time></trkpt><trkpt lat="37.3216687" lon="13.6382078"><ele>288.0</ele><time>2026-04-28T15:10:22.161Z</time></trkpt><trkpt lat="37.3217291" lon="13.6381044"><ele>288.0</ele><time>2026-04-28T15:10:23.161Z</time></trkpt><trkpt lat="37.3217941" lon="13.6380024"><ele>288.0</ele><time>2026-04-28T15:10:24.162Z</time></trkpt><trkpt lat="37.3218685" lon="13.6379258"><ele>288.0</ele><time>2026-04-28T15:10:25.162Z</time></trkpt><trkpt lat="37.321957" lon="13.6378626"><ele>288.0</ele><time>2026-04-28T15:10:26.16Z</time></trkpt><trkpt lat="37.3220461" lon="13.6378118"><ele>288.0</ele><time>2026-04-28T15:10:27.162Z</time></trkpt><trkpt lat="37.3221297" lon="13.637759"><ele>286.4</ele><time>2026-04-28T15:10:28.162Z</time></trkpt><trkpt lat="37.3222105" lon="13.637711"><ele>284.8</ele><time>2026-04-28T15:10:29.16Z</time></trkpt><trkpt lat="37.32229" lon="13.6376668"><ele>283.2</ele><time>2026-04-28T15:10:30.161Z</time></trkpt><trkpt lat="37.322358" lon="13.6376094"><ele>281.6</ele><time>2026-04-28T15:10:31.16Z</time></trkpt><trkpt lat="37.3224143" lon="13.6375088"><ele>280.0</ele><time>2026-04-28T15:10:32.163Z</time></trkpt><trkpt lat="37.3224638" lon="13.637395"><ele>280.0</ele><time>2026-04-28T15:10:33.162Z</time></trkpt><trkpt lat="37.3224992" lon="13.6372795"><ele>280.0</ele><time>2026-04-28T15:10:34.161Z</time></trkpt><trkpt lat="37.3225139" lon="13.63714"><ele>280.0</ele><time>2026-04-28T15:10:35.16Z</time></trkpt><trkpt lat="37.3225176" lon="13.6369754"><ele>280.0</ele><time>2026-04-28T15:10:36.161Z</time></trkpt><trkpt lat="37.3225038" lon="13.6368109"><ele>279.0</ele><time>2026-04-28T15:10:37.161Z</time></trkpt><trkpt lat="37.3225117" lon="13.6366575"><ele>278.0</ele><time>2026-04-28T15:10:38.162Z</time></trkpt><trkpt lat="37.3225145" lon="13.6365205"><ele>277.0</ele><time>2026-04-28T15:10:39.161Z</time></trkpt><trkpt lat="37.3225047" lon="13.6364059"><ele>276.0</ele><time>2026-04-28T15:10:40.16Z</time></trkpt><trkpt lat="37.3224793" lon="13.6362992"><ele>275.0</ele><time>2026-04-28T15:10:41.163Z</time></trkpt><trkpt lat="37.3224306" lon="13.6362092"><ele>275.0</ele><time>2026-04-28T15:10:42.16Z</time></trkpt><trkpt lat="37.3223696" lon="13.6361479"><ele>275.0</ele><time>2026-04-28T15:10:43.162Z</time></trkpt><trkpt lat="37.3223205" lon="13.6360957"><ele>275.0</ele><time>2026-04-28T15:10:44.16Z</time></trkpt><trkpt lat="37.3222786" lon="13.6360096"><ele>275.0</ele><time>2026-04-28T15:10:46.162Z</time></trkpt><trkpt lat="37.3223114" lon="13.6358958"><ele>275.0</ele><time>2026-04-28T15:10:53.161Z</time></trkpt><trkpt lat="37.322419" lon="13.6357841"><ele>273.25</ele><time>2026-04-28T15:10:55.161Z</time></trkpt><trkpt lat="37.3225303" lon="13.6356937"><ele>271.5</ele><time>2026-04-28T15:10:56.161Z</time></trkpt><trkpt lat="37.3226425" lon="13.635604"><ele>269.75</ele><time>2026-04-28T15:10:57.16Z</time></trkpt><trkpt lat="37.3227702" lon="13.635486"><ele>268.0</ele><time>2026-04-28T15:10:58.161Z</time></trkpt><trkpt lat="37.322894" lon="13.6353488"><ele>267.66666666666663</ele><time>2026-04-28T15:10:59.162Z</time></trkpt><trkpt lat="37.3230111" lon="13.6351983"><ele>267.3333333333333</ele><time>2026-04-28T15:11:00.161Z</time></trkpt><trkpt lat="37.3230847" lon="13.6350181"><ele>267.0</ele><time>2026-04-28T15:11:01.161Z</time></trkpt><trkpt lat="37.3231464" lon="13.6348505"><ele>267.0</ele><time>2026-04-28T15:11:02.16Z</time></trkpt><trkpt lat="37.323186" lon="13.6346995"><ele>267.0</ele><time>2026-04-28T15:11:03.161Z</time></trkpt><trkpt lat="37.3232271" lon="13.6345558"><ele>267.0</ele><time>2026-04-28T15:11:04.162Z</time></trkpt><trkpt lat="37.3232904" lon="13.6344534"><ele>267.0</ele><time>2026-04-28T15:11:05.161Z</time></trkpt><trkpt lat="37.323374" lon="13.634343"><ele>265.8</ele><time>2026-04-28T15:11:06.16Z</time></trkpt><trkpt lat="37.3234522" lon="13.6342615"><ele>264.6</ele><time>2026-04-28T15:11:07.16Z</time></trkpt><trkpt lat="37.3235354" lon="13.6341893"><ele>263.40000000000003</ele><time>2026-04-28T15:11:08.16Z</time></trkpt><trkpt lat="37.3236191" lon="13.6341204"><ele>262.2</ele><time>2026-04-28T15:11:09.16Z</time></trkpt><trkpt lat="37.3236968" lon="13.6340557"><ele>261.0</ele><time>2026-04-28T15:11:10.162Z</time></trkpt><trkpt lat="37.3237689" lon="13.6339901"><ele>261.0</ele><time>2026-04-28T15:11:11.162Z</time></trkpt><trkpt lat="37.3238315" lon="13.6339307"><ele>261.0</ele><time>2026-04-28T15:11:12.161Z</time></trkpt><trkpt lat="37.3238928" lon="13.6338798"><ele>261.0</ele><time>2026-04-28T15:11:13.161Z</time></trkpt><trkpt lat="37.3239376" lon="13.6338192"><ele>261.0</ele><time>2026-04-28T15:11:14.162Z</time></trkpt><trkpt lat="37.3240294" lon="13.6337161"><ele>261.0</ele><time>2026-04-28T15:11:16.16Z</time></trkpt><trkpt lat="37.3241263" lon="13.6336217"><ele>262.14285714285717</ele><time>2026-04-28T15:11:18.161Z</time></trkpt><trkpt lat="37.3241845" lon="13.6335801"><ele>263.2857142857143</ele><time>2026-04-28T15:11:19.16Z</time></trkpt><trkpt lat="37.324243" lon="13.6335454"><ele>264.42857142857144</ele><time>2026-04-28T15:11:20.161Z</time></trkpt><trkpt lat="37.324297" lon="13.6335028"><ele>265.57142857142856</ele><time>2026-04-28T15:11:21.161Z</time></trkpt><trkpt lat="37.3243522" lon="13.6334559"><ele>266.7142857142857</ele><time>2026-04-28T15:11:22.161Z</time></trkpt><trkpt lat="37.3244066" lon="13.6334133"><ele>267.8571428571429</ele><time>2026-04-28T15:11:23.161Z</time></trkpt><trkpt lat="37.3244883" lon="13.633306"><ele>269.0</ele><time>2026-04-28T15:11:25.16Z</time></trkpt><trkpt lat="37.3245315" lon="13.6332146"><ele>269.0</ele><time>2026-04-28T15:11:27.161Z</time></trkpt><trkpt lat="37.3245477" lon="13.63311"><ele>269.0</ele><time>2026-04-28T15:11:29.161Z</time></trkpt><trkpt lat="37.3245514" lon="13.6330208"><ele>269.0</ele><time>2026-04-28T15:11:31.16Z</time></trkpt><trkpt lat="37.3245494" lon="13.6329368"><ele>269.0</ele><time>2026-04-28T15:11:33.162Z</time></trkpt><trkpt lat="37.3245481" lon="13.632781"><ele>269.0</ele><time>2026-04-28T15:11:35.16Z</time></trkpt><trkpt lat="37.324542" lon="13.6326235"><ele>268.8</ele><time>2026-04-28T15:11:37.162Z</time></trkpt><trkpt lat="37.3245421" lon="13.6325352"><ele>268.59999999999997</ele><time>2026-04-28T15:11:38.16Z</time></trkpt><trkpt lat="37.3245543" lon="13.6324449"><ele>268.4</ele><time>2026-04-28T15:11:39.161Z</time></trkpt><trkpt lat="37.3245698" lon="13.6323404"><ele>268.2</ele><time>2026-04-28T15:11:40.162Z</time></trkpt><trkpt lat="37.3246106" lon="13.6322095"><ele>268.0</ele><time>2026-04-28T15:11:41.161Z</time></trkpt><trkpt lat="37.3246588" lon="13.6320622"><ele>267.25</ele><time>2026-04-28T15:11:42.161Z</time></trkpt><trkpt lat="37.3247079" lon="13.6318991"><ele>266.5</ele><time>2026-04-28T15:11:43.162Z</time></trkpt><trkpt lat="37.3247536" lon="13.6317319"><ele>265.75</ele><time>2026-04-28T15:11:44.163Z</time></trkpt><trkpt lat="37.3247996" lon="13.6315697"><ele>265.0</ele><time>2026-04-28T15:11:45.16Z</time></trkpt><trkpt lat="37.324845" lon="13.6314267"><ele>268.75</ele><time>2026-04-28T15:11:46.161Z</time></trkpt><trkpt lat="37.3248943" lon="13.6312773"><ele>272.5</ele><time>2026-04-28T15:11:47.161Z</time></trkpt><trkpt lat="37.3249443" lon="13.6311231"><ele>276.25</ele><time>2026-04-28T15:11:48.161Z</time></trkpt><trkpt lat="37.3249954" lon="13.630974"><ele>280.0</ele><time>2026-04-28T15:11:49.161Z</time></trkpt><trkpt lat="37.3250329" lon="13.6308376"><ele>280.0</ele><time>2026-04-28T15:11:50.161Z</time></trkpt><trkpt lat="37.3250512" lon="13.6306998"><ele>280.0</ele><time>2026-04-28T15:11:51.161Z</time></trkpt><trkpt lat="37.3250484" lon="13.630543"><ele>280.0</ele><time>2026-04-28T15:11:52.162Z</time></trkpt><trkpt lat="37.3250346" lon="13.6303759"><ele>280.0</ele><time>2026-04-28T15:11:53.161Z</time></trkpt><trkpt lat="37.3250234" lon="13.630236"><ele>280.4</ele><time>2026-04-28T15:11:54.162Z</time></trkpt><trkpt lat="37.3250211" lon="13.6301173"><ele>280.8</ele><time>2026-04-28T15:11:55.162Z</time></trkpt><trkpt lat="37.3250765" lon="13.6299944"><ele>281.2</ele><time>2026-04-28T15:11:57.161Z</time></trkpt><trkpt lat="37.3251818" lon="13.629998"><ele>281.6</ele><time>2026-04-28T15:11:59.16Z</time></trkpt><trkpt lat="37.3252638" lon="13.6300515"><ele>282.0</ele><time>2026-04-28T15:12:00.16Z</time></trkpt><trkpt lat="37.3253712" lon="13.6301307"><ele>282.0</ele><time>2026-04-28T15:12:01.161Z</time></trkpt><trkpt lat="37.3254741" lon="13.6302223"><ele>282.0</ele><time>2026-04-28T15:12:02.161Z</time></trkpt><trkpt lat="37.3255893" lon="13.6303219"><ele>282.0</ele><time>2026-04-28T15:12:03.16Z</time></trkpt><trkpt lat="37.3257163" lon="13.6304194"><ele>282.0</ele><time>2026-04-28T15:12:04.161Z</time></trkpt><trkpt lat="37.3258323" lon="13.6305335"><ele>285.75</ele><time>2026-04-28T15:12:05.162Z</time></trkpt><trkpt lat="37.3259332" lon="13.6306526"><ele>289.5</ele><time>2026-04-28T15:12:06.161Z</time></trkpt><trkpt lat="37.3260337" lon="13.6307517"><ele>293.25</ele><time>2026-04-28T15:12:07.162Z</time></trkpt><trkpt lat="37.3261335" lon="13.630828"><ele>297.0</ele><time>2026-04-28T15:12:08.161Z</time></trkpt><trkpt lat="37.3262567" lon="13.6308649"><ele>297.0</ele><time>2026-04-28T15:12:09.161Z</time></trkpt><trkpt lat="37.3263891" lon="13.6309002"><ele>297.0</ele><time>2026-04-28T15:12:10.16Z</time></trkpt><trkpt lat="37.3265306" lon="13.6309585"><ele>297.0</ele><time>2026-04-28T15:12:11.161Z</time></trkpt><trkpt lat="37.3266761" lon="13.6310316"><ele>297.0</ele><time>2026-04-28T15:12:12.162Z</time></trkpt><trkpt lat="37.3268262" lon="13.6311074"><ele>301.5</ele><time>2026-04-28T15:12:13.16Z</time></trkpt><trkpt lat="37.3269805" lon="13.6311848"><ele>306.0</ele><time>2026-04-28T15:12:14.161Z</time></trkpt><trkpt lat="37.3271144" lon="13.6312539"><ele>310.5</ele><time>2026-04-28T15:12:15.162Z</time></trkpt><trkpt lat="37.3272199" lon="13.6313191"><ele>315.0</ele><time>2026-04-28T15:12:16.161Z</time></trkpt><trkpt lat="37.3273269" lon="13.6313856"><ele>315.4</ele><time>2026-04-28T15:12:17.161Z</time></trkpt><trkpt lat="37.3274054" lon="13.6314726"><ele>315.8</ele><time>2026-04-28T15:12:18.16Z</time></trkpt><trkpt lat="37.3274797" lon="13.6315573"><ele>316.2</ele><time>2026-04-28T15:12:19.161Z</time></trkpt><trkpt lat="37.3275489" lon="13.6316337"><ele>316.6</ele><time>2026-04-28T15:12:20.161Z</time></trkpt><trkpt lat="37.327619" lon="13.6317082"><ele>317.0</ele><time>2026-04-28T15:12:21.16Z</time></trkpt><trkpt lat="37.3276829" lon="13.6317885"><ele>317.0</ele><time>2026-04-28T15:12:22.161Z</time></trkpt><trkpt lat="37.3277367" lon="13.6318794"><ele>317.0</ele><time>2026-04-28T15:12:23.161Z</time></trkpt><trkpt lat="37.3277866" lon="13.6319699"><ele>317.0</ele><time>2026-04-28T15:12:24.161Z</time></trkpt><trkpt lat="37.3278414" lon="13.6320629"><ele>317.0</ele><time>2026-04-28T15:12:25.161Z</time></trkpt><trkpt lat="37.3278953" lon="13.6321517"><ele>317.0</ele><time>2026-04-28T15:12:26.161Z</time></trkpt><trkpt lat="37.3279475" lon="13.6322405"><ele>317.0</ele><time>2026-04-28T15:12:27.162Z</time></trkpt><trkpt lat="37.3279989" lon="13.6323276"><ele>316.8</ele><time>2026-04-28T15:12:28.162Z</time></trkpt><trkpt lat="37.3280604" lon="13.6324389"><ele>316.6</ele><time>2026-04-28T15:12:29.161Z</time></trkpt><trkpt lat="37.3281248" lon="13.6325596"><ele>316.40000000000003</ele><time>2026-04-28T15:12:30.161Z</time></trkpt><trkpt lat="37.3281967" lon="13.6326599"><ele>316.2</ele><time>2026-04-28T15:12:31.161Z</time></trkpt><trkpt lat="37.3282634" lon="13.6327423"><ele>316.0</ele><time>2026-04-28T15:12:32.161Z</time></trkpt><trkpt lat="37.3283299" lon="13.6328132"><ele>316.0</ele><time>2026-04-28T15:12:33.161Z</time></trkpt><trkpt lat="37.3283888" lon="13.6328699"><ele>316.0</ele><time>2026-04-28T15:12:34.16Z</time></trkpt><trkpt lat="37.3284435" lon="13.6329148"><ele>316.0</ele><time>2026-04-28T15:12:35.16Z</time></trkpt><trkpt lat="37.328544" lon="13.6329659"><ele>316.0</ele><time>2026-04-28T15:12:37.161Z</time></trkpt><trkpt lat="37.3286216" lon="13.6329499"><ele>316.0</ele><time>2026-04-28T15:12:39.161Z</time></trkpt><trkpt lat="37.3286901" lon="13.6329054"><ele>316.0</ele><time>2026-04-28T15:12:41.162Z</time></trkpt><trkpt lat="37.3287612" lon="13.6328411"><ele>314.2</ele><time>2026-04-28T15:12:44.161Z</time></trkpt><trkpt lat="37.328831" lon="13.6327696"><ele>312.40000000000003</ele><time>2026-04-28T15:13:23.16Z</time></trkpt><trkpt lat="37.3288804" lon="13.6326873"><ele>310.6</ele><time>2026-04-28T15:13:24.161Z</time></trkpt><trkpt lat="37.3289256" lon="13.6325822"><ele>308.8</ele><time>2026-04-28T15:13:25.16Z</time></trkpt><trkpt lat="37.3289584" lon="13.6324738"><ele>307.0</ele><time>2026-04-28T15:13:26.16Z</time></trkpt><trkpt lat="37.3289818" lon="13.6323559"><ele>307.0</ele><time>2026-04-28T15:13:27.161Z</time></trkpt><trkpt lat="37.3289991" lon="13.632205"><ele>307.0</ele><time>2026-04-28T15:13:28.161Z</time></trkpt><trkpt lat="37.3290071" lon="13.6320337"><ele>307.0</ele><time>2026-04-28T15:13:29.16Z</time></trkpt><trkpt lat="37.3290108" lon="13.6318716"><ele>307.0</ele><time>2026-04-28T15:13:30.161Z</time></trkpt><trkpt lat="37.3290111" lon="13.6317242"><ele>306.0</ele><time>2026-04-28T15:13:31.16Z</time></trkpt><trkpt lat="37.3290019" lon="13.631596"><ele>305.0</ele><time>2026-04-28T15:13:32.162Z</time></trkpt><trkpt lat="37.3289815" lon="13.6314594"><ele>304.0</ele><time>2026-04-28T15:13:33.16Z</time></trkpt><trkpt lat="37.3289489" lon="13.6313273"><ele>303.0</ele><time>2026-04-28T15:13:34.162Z</time></trkpt><trkpt lat="37.3289182" lon="13.6312087"><ele>302.0</ele><time>2026-04-28T15:13:35.161Z</time></trkpt><trkpt lat="37.3288915" lon="13.6310805"><ele>299.0</ele><time>2026-04-28T15:13:36.161Z</time></trkpt><trkpt lat="37.3288595" lon="13.6309212"><ele>296.0</ele><time>2026-04-28T15:13:37.161Z</time></trkpt><trkpt lat="37.3288255" lon="13.630761"><ele>293.0</ele><time>2026-04-28T15:13:38.161Z</time></trkpt><trkpt lat="37.3287918" lon="13.6306022"><ele>290.0</ele><time>2026-04-28T15:13:39.162Z</time></trkpt><trkpt lat="37.328753" lon="13.6304532"><ele>290.0</ele><time>2026-04-28T15:13:40.16Z</time></trkpt><trkpt lat="37.3287207" lon="13.6303308"><ele>290.0</ele><time>2026-04-28T15:13:41.161Z</time></trkpt><trkpt lat="37.3286911" lon="13.6302147"><ele>290.0</ele><time>2026-04-28T15:13:42.161Z</time></trkpt><trkpt lat="37.3286746" lon="13.6300851"><ele>290.0</ele><time>2026-04-28T15:13:43.16Z</time></trkpt><trkpt lat="37.3286584" lon="13.6299311"><ele>290.0</ele><time>2026-04-28T15:13:44.16Z</time></trkpt><trkpt lat="37.3286442" lon="13.6297843"><ele>289.5</ele><time>2026-04-28T15:13:45.16Z</time></trkpt><trkpt lat="37.3286225" lon="13.62964"><ele>289.0</ele><time>2026-04-28T15:13:46.161Z</time></trkpt><trkpt lat="37.3285806" lon="13.6294963"><ele>288.5</ele><time>2026-04-28T15:13:47.161Z</time></trkpt><trkpt lat="37.32854" lon="13.6293544"><ele>288.0</ele><time>2026-04-28T15:13:48.161Z</time></trkpt><trkpt lat="37.3284939" lon="13.6292281"><ele>287.6666666666667</ele><time>2026-04-28T15:13:49.16Z</time></trkpt><trkpt lat="37.3284612" lon="13.6291132"><ele>287.3333333333333</ele><time>2026-04-28T15:13:50.161Z</time></trkpt><trkpt lat="37.328439" lon="13.6290029"><ele>287.0</ele><time>2026-04-28T15:13:51.161Z</time></trkpt><trkpt lat="37.3284317" lon="13.6289045"><ele>286.66666666666663</ele><time>2026-04-28T15:13:52.161Z</time></trkpt><trkpt lat="37.3284396" lon="13.6288194"><ele>286.3333333333333</ele><time>2026-04-28T15:13:53.161Z</time></trkpt><trkpt lat="37.3284645" lon="13.6287304"><ele>286.0</ele><time>2026-04-28T15:13:54.161Z</time></trkpt><trkpt lat="37.3285098" lon="13.6286421"><ele>285.8333333333333</ele><time>2026-04-28T15:13:55.161Z</time></trkpt><trkpt lat="37.3285696" lon="13.6285688"><ele>285.66666666666663</ele><time>2026-04-28T15:13:56.16Z</time></trkpt><trkpt lat="37.3286351" lon="13.6284944"><ele>285.5</ele><time>2026-04-28T15:13:57.16Z</time></trkpt><trkpt lat="37.3286992" lon="13.6284381"><ele>285.3333333333333</ele><time>2026-04-28T15:13:58.16Z</time></trkpt><trkpt lat="37.3287742" lon="13.6284023"><ele>285.1666666666667</ele><time>2026-04-28T15:13:59.16Z</time></trkpt><trkpt lat="37.3288443" lon="13.62838"><ele>285.0</ele><time>2026-04-28T15:14:00.161Z</time></trkpt><trkpt lat="37.3289086" lon="13.6283547"><ele>285.0</ele><time>2026-04-28T15:14:01.16Z</time></trkpt><trkpt lat="37.3289674" lon="13.6283224"><ele>285.0</ele><time>2026-04-28T15:14:02.16Z</time></trkpt><trkpt lat="37.3290428" lon="13.6282092"><ele>285.0</ele><time>2026-04-28T15:14:04.161Z</time></trkpt><trkpt lat="37.3291213" lon="13.6281003"><ele>285.0</ele><time>2026-04-28T15:14:06.161Z</time></trkpt><trkpt lat="37.3292287" lon="13.6280247"><ele>285.0</ele><time>2026-04-28T15:14:08.16Z</time></trkpt><trkpt lat="37.3292905" lon="13.6279918"><ele>285.0</ele><time>2026-04-28T15:14:09.161Z</time></trkpt><trkpt lat="37.3293949" lon="13.6279137"><ele>285.0</ele><time>2026-04-28T15:14:11.161Z</time></trkpt><trkpt lat="37.3294496" lon="13.6278735"><ele>285.0</ele><time>2026-04-28T15:14:12.161Z</time></trkpt><trkpt lat="37.3295106" lon="13.6278308"><ele>285.0</ele><time>2026-04-28T15:14:13.16Z</time></trkpt><trkpt lat="37.3296154" lon="13.6277596"><ele>285.0</ele><time>2026-04-28T15:14:15.161Z</time></trkpt><trkpt lat="37.3296975" lon="13.6276779"><ele>283.4</ele><time>2026-04-28T15:14:17.161Z</time></trkpt><trkpt lat="37.3297435" lon="13.6275705"><ele>281.8</ele><time>2026-04-28T15:14:19.161Z</time></trkpt><trkpt lat="37.3297541" lon="13.627433"><ele>280.2</ele><time>2026-04-28T15:14:21.161Z</time></trkpt><trkpt lat="37.3297478" lon="13.6273004"><ele>278.6</ele><time>2026-04-28T15:14:23.161Z</time></trkpt><trkpt lat="37.3297433" lon="13.6271704"><ele>277.0</ele><time>2026-04-28T15:14:25.161Z</time></trkpt><trkpt lat="37.3297489" lon="13.6270461"><ele>275.4</ele><time>2026-04-28T15:14:27.161Z</time></trkpt><trkpt lat="37.3297573" lon="13.6269183"><ele>273.79999999999995</ele><time>2026-04-28T15:14:29.161Z</time></trkpt><trkpt lat="37.3297739" lon="13.6267961"><ele>272.2</ele><time>2026-04-28T15:14:31.16Z</time></trkpt><trkpt lat="37.3297967" lon="13.6266718"><ele>270.59999999999997</ele><time>2026-04-28T15:14:33.16Z</time></trkpt><trkpt lat="37.3298256" lon="13.6265402"><ele>269.0</ele><time>2026-04-28T15:14:35.161Z</time></trkpt><trkpt lat="37.3298548" lon="13.6264116"><ele>269.0</ele><time>2026-04-28T15:14:37.161Z</time></trkpt><trkpt lat="37.3298729" lon="13.6262824"><ele>269.0</ele><time>2026-04-28T15:14:39.161Z</time></trkpt><trkpt lat="37.3298797" lon="13.6261625"><ele>269.0</ele><time>2026-04-28T15:14:41.161Z</time></trkpt><trkpt lat="37.3298702" lon="13.6260516"><ele>269.0</ele><time>2026-04-28T15:14:43.161Z</time></trkpt><trkpt lat="37.3298487" lon="13.6259527"><ele>269.0</ele><time>2026-04-28T15:14:45.16Z</time></trkpt><trkpt lat="37.3298321" lon="13.6258692"><ele>269.0</ele><time>2026-04-28T15:14:47.161Z</time></trkpt><trkpt lat="37.3298106" lon="13.6257845"><ele>267.0</ele><time>2026-04-28T15:14:49.16Z</time></trkpt><trkpt lat="37.3297966" lon="13.6256738"><ele>265.0</ele><time>2026-04-28T15:14:51.161Z</time></trkpt><trkpt lat="37.3297849" lon="13.6255293"><ele>263.0</ele><time>2026-04-28T15:14:53.16Z</time></trkpt><trkpt lat="37.3297831" lon="13.6253707"><ele>261.0</ele><time>2026-04-28T15:14:55.16Z</time></trkpt><trkpt lat="37.3297812" lon="13.6252839"><ele>259.0</ele><time>2026-04-28T15:14:56.161Z</time></trkpt><trkpt lat="37.3297815" lon="13.6251933"><ele>258.8333333333333</ele><time>2026-04-28T15:14:57.16Z</time></trkpt><trkpt lat="37.3297901" lon="13.6251066"><ele>258.66666666666663</ele><time>2026-04-28T15:14:58.161Z</time></trkpt><trkpt lat="37.3297965" lon="13.6250234"><ele>258.5</ele><time>2026-04-28T15:14:59.16Z</time></trkpt><trkpt lat="37.3297994" lon="13.6249412"><ele>258.3333333333333</ele><time>2026-04-28T15:15:00.16Z</time></trkpt><trkpt lat="37.329786" lon="13.624796"><ele>258.1666666666667</ele><time>2026-04-28T15:15:02.161Z</time></trkpt><trkpt lat="37.3297459" lon="13.6246719"><ele>258.0</ele><time>2026-04-28T15:15:04.162Z</time></trkpt><trkpt lat="37.3296956" lon="13.6246158"><ele>258.0</ele><time>2026-04-28T15:15:05.161Z</time></trkpt><trkpt lat="37.3296433" lon="13.6245556"><ele>258.0</ele><time>2026-04-28T15:15:06.161Z</time></trkpt><trkpt lat="37.3295845" lon="13.6244956"><ele>258.0</ele><time>2026-04-28T15:15:07.161Z</time></trkpt><trkpt lat="37.3295123" lon="13.6244243"><ele>258.0</ele><time>2026-04-28T15:15:08.161Z</time></trkpt><trkpt lat="37.3294329" lon="13.6243439"><ele>258.0</ele><time>2026-04-28T15:15:09.161Z</time></trkpt><trkpt lat="37.3293513" lon="13.6242614"><ele>258.0</ele><time>2026-04-28T15:15:10.161Z</time></trkpt><trkpt lat="37.329272" lon="13.6241734"><ele>256.8</ele><time>2026-04-28T15:15:11.16Z</time></trkpt><trkpt lat="37.3291937" lon="13.6240843"><ele>255.60000000000002</ele><time>2026-04-28T15:15:12.161Z</time></trkpt><trkpt lat="37.3291185" lon="13.6239971"><ele>254.39999999999998</ele><time>2026-04-28T15:15:13.159Z</time></trkpt><trkpt lat="37.329045" lon="13.6239113"><ele>253.2</ele><time>2026-04-28T15:15:14.16Z</time></trkpt><trkpt lat="37.3289713" lon="13.6238271"><ele>252.0</ele><time>2026-04-28T15:15:15.161Z</time></trkpt><trkpt lat="37.3288988" lon="13.6237404"><ele>251.8</ele><time>2026-04-28T15:15:16.16Z</time></trkpt><trkpt lat="37.328827" lon="13.6236573"><ele>251.6</ele><time>2026-04-28T15:15:17.161Z</time></trkpt><trkpt lat="37.328757" lon="13.6235777"><ele>251.40000000000003</ele><time>2026-04-28T15:15:18.16Z</time></trkpt><trkpt lat="37.3286864" lon="13.6234965"><ele>251.20000000000002</ele><time>2026-04-28T15:15:19.159Z</time></trkpt><trkpt lat="37.3286204" lon="13.623418"><ele>251.0</ele><time>2026-04-28T15:15:20.161Z</time></trkpt><trkpt lat="37.3285543" lon="13.6233419"><ele>249.8</ele><time>2026-04-28T15:15:21.16Z</time></trkpt><trkpt lat="37.3284871" lon="13.6232644"><ele>248.60000000000002</ele><time>2026-04-28T15:15:22.161Z</time></trkpt><trkpt lat="37.3284106" lon="13.6231845"><ele>247.4</ele><time>2026-04-28T15:15:23.159Z</time></trkpt><trkpt lat="37.3283333" lon="13.6231038"><ele>246.2</ele><time>2026-04-28T15:15:24.162Z</time></trkpt><trkpt lat="37.3282593" lon="13.6230258"><ele>245.0</ele><time>2026-04-28T15:15:25.16Z</time></trkpt><trkpt lat="37.3281915" lon="13.6229503"><ele>245.00000000000003</ele><time>2026-04-28T15:15:26.161Z</time></trkpt><trkpt lat="37.3281259" lon="13.6228714"><ele>245.0</ele><time>2026-04-28T15:15:27.161Z</time></trkpt><trkpt lat="37.3280615" lon="13.6227931"><ele>245.0</ele><time>2026-04-28T15:15:28.162Z</time></trkpt><trkpt lat="37.3280037" lon="13.6227147"><ele>245.0</ele><time>2026-04-28T15:15:29.161Z</time></trkpt><trkpt lat="37.3279573" lon="13.6226305"><ele>245.00000000000003</ele><time>2026-04-28T15:15:30.161Z</time></trkpt><trkpt lat="37.3279336" lon="13.6225431"><ele>245.0</ele><time>2026-04-28T15:15:31.161Z</time></trkpt><trkpt lat="37.3279248" lon="13.6224578"><ele>245.0</ele><time>2026-04-28T15:15:32.16Z</time></trkpt><trkpt lat="37.3279567" lon="13.6223106"><ele>245.0</ele><time>2026-04-28T15:15:34.161Z</time></trkpt><trkpt lat="37.3280489" lon="13.6222245"><ele>245.0</ele><time>2026-04-28T15:15:36.159Z</time></trkpt><trkpt lat="37.3281138" lon="13.6221986"><ele>245.0</ele><time>2026-04-28T15:15:37.161Z</time></trkpt><trkpt lat="37.3281824" lon="13.6221734"><ele>245.0</ele><time>2026-04-28T15:15:38.159Z</time></trkpt><trkpt lat="37.328255" lon="13.6221454"><ele>244.71428571428572</ele><time>2026-04-28T15:15:39.16Z</time></trkpt><trkpt lat="37.3283272" lon="13.6221209"><ele>244.42857142857144</ele><time>2026-04-28T15:15:40.16Z</time></trkpt><trkpt lat="37.3284038" lon="13.6220969"><ele>244.14285714285714</ele><time>2026-04-28T15:15:41.162Z</time></trkpt><trkpt lat="37.3284771" lon="13.6220656"><ele>243.85714285714286</ele><time>2026-04-28T15:15:42.161Z</time></trkpt><trkpt lat="37.3285405" lon="13.6220261"><ele>243.57142857142858</ele><time>2026-04-28T15:15:43.16Z</time></trkpt><trkpt lat="37.3285941" lon="13.6219803"><ele>243.28571428571428</ele><time>2026-04-28T15:15:44.161Z</time></trkpt><trkpt lat="37.3286317" lon="13.6219071"><ele>243.0</ele><time>2026-04-28T15:15:45.16Z</time></trkpt><trkpt lat="37.328651" lon="13.6218045"><ele>242.8</ele><time>2026-04-28T15:15:46.16Z</time></trkpt><trkpt lat="37.3286615" lon="13.6216872"><ele>242.60000000000002</ele><time>2026-04-28T15:15:47.161Z</time></trkpt><trkpt lat="37.3286626" lon="13.6215507"><ele>242.39999999999998</ele><time>2026-04-28T15:15:48.16Z</time></trkpt><trkpt lat="37.3286599" lon="13.6214278"><ele>242.2</ele><time>2026-04-28T15:15:49.161Z</time></trkpt><trkpt lat="37.3286565" lon="13.6213103"><ele>242.0</ele><time>2026-04-28T15:15:50.16Z</time></trkpt><trkpt lat="37.3286533" lon="13.6212075"><ele>241.66666666666669</ele><time>2026-04-28T15:15:51.161Z</time></trkpt><trkpt lat="37.3286569" lon="13.6211045"><ele>241.33333333333334</ele><time>2026-04-28T15:15:52.159Z</time></trkpt><trkpt lat="37.328663" lon="13.6210077"><ele>241.0</ele><time>2026-04-28T15:15:53.16Z</time></trkpt><trkpt lat="37.3286795" lon="13.6209106"><ele>240.66666666666669</ele><time>2026-04-28T15:15:54.159Z</time></trkpt><trkpt lat="37.3287005" lon="13.6208114"><ele>240.33333333333334</ele><time>2026-04-28T15:15:55.162Z</time></trkpt><trkpt lat="37.3287343" lon="13.6207016"><ele>240.0</ele><time>2026-04-28T15:15:56.16Z</time></trkpt><trkpt lat="37.3287818" lon="13.620571"><ele>240.0</ele><time>2026-04-28T15:15:57.162Z</time></trkpt><trkpt lat="37.3288407" lon="13.6204371"><ele>240.0</ele><time>2026-04-28T15:15:58.16Z</time></trkpt><trkpt lat="37.3289008" lon="13.6203163"><ele>240.0</ele><time>2026-04-28T15:15:59.161Z</time></trkpt><trkpt lat="37.3289542" lon="13.6202057"><ele>240.0</ele><time>2026-04-28T15:16:00.16Z</time></trkpt><trkpt lat="37.3290057" lon="13.6201094"><ele>240.0</ele><time>2026-04-28T15:16:01.161Z</time></trkpt><trkpt lat="37.3290544" lon="13.6200165"><ele>238.66666666666666</ele><time>2026-04-28T15:16:02.16Z</time></trkpt><trkpt lat="37.3291018" lon="13.6199353"><ele>237.33333333333331</ele><time>2026-04-28T15:16:03.161Z</time></trkpt><trkpt lat="37.3291437" lon="13.6198561"><ele>236.0</ele><time>2026-04-28T15:16:04.161Z</time></trkpt><trkpt lat="37.3291851" lon="13.6197808"><ele>234.66666666666666</ele><time>2026-04-28T15:16:05.161Z</time></trkpt><trkpt lat="37.3292228" lon="13.6197029"><ele>233.33333333333331</ele><time>2026-04-28T15:16:06.162Z</time></trkpt><trkpt lat="37.3292559" lon="13.6196241"><ele>232.0</ele><time>2026-04-28T15:16:07.16Z</time></trkpt><trkpt lat="37.3292872" lon="13.6195342"><ele>231.28571428571433</ele><time>2026-04-28T15:16:08.16Z</time></trkpt><trkpt lat="37.3293128" lon="13.6194496"><ele>230.57142857142858</ele><time>2026-04-28T15:16:09.161Z</time></trkpt><trkpt lat="37.3293307" lon="13.6193609"><ele>229.8571428571429</ele><time>2026-04-28T15:16:10.16Z</time></trkpt><trkpt lat="37.3293454" lon="13.6192776"><ele>229.14285714285717</ele><time>2026-04-28T15:16:11.159Z</time></trkpt><trkpt lat="37.3293587" lon="13.6191873"><ele>228.42857142857144</ele><time>2026-04-28T15:16:12.161Z</time></trkpt><trkpt lat="37.3293722" lon="13.6190958"><ele>227.71428571428572</ele><time>2026-04-28T15:16:13.16Z</time></trkpt><trkpt lat="37.3293837" lon="13.6190098"><ele>227.0</ele><time>2026-04-28T15:16:14.161Z</time></trkpt><trkpt lat="37.3293953" lon="13.6189024"><ele>227.00000000000003</ele><time>2026-04-28T15:16:15.162Z</time></trkpt><trkpt lat="37.3294082" lon="13.6187926"><ele>227.0</ele><time>2026-04-28T15:16:16.161Z</time></trkpt><trkpt lat="37.3294211" lon="13.6186817"><ele>227.0</ele><time>2026-04-28T15:16:17.16Z</time></trkpt><trkpt lat="37.3294319" lon="13.6185778"><ele>227.0</ele><time>2026-04-28T15:16:18.16Z</time></trkpt><trkpt lat="37.3294269" lon="13.6184751"><ele>227.00000000000003</ele><time>2026-04-28T15:16:19.16Z</time></trkpt><trkpt lat="37.3294086" lon="13.6183825"><ele>227.0</ele><time>2026-04-28T15:16:20.16Z</time></trkpt><trkpt lat="37.3293793" lon="13.6182943"><ele>226.16666666666669</ele><time>2026-04-28T15:16:21.161Z</time></trkpt><trkpt lat="37.3293467" lon="13.6182163"><ele>225.33333333333334</ele><time>2026-04-28T15:16:22.162Z</time></trkpt><trkpt lat="37.3293087" lon="13.6181418"><ele>224.5</ele><time>2026-04-28T15:16:23.16Z</time></trkpt><trkpt lat="37.3292649" lon="13.6180543"><ele>223.66666666666669</ele><time>2026-04-28T15:16:24.161Z</time></trkpt><trkpt lat="37.3292079" lon="13.6179525"><ele>222.83333333333334</ele><time>2026-04-28T15:16:25.16Z</time></trkpt><trkpt lat="37.3291578" lon="13.6178566"><ele>222.0</ele><time>2026-04-28T15:16:26.161Z</time></trkpt><trkpt lat="37.3291071" lon="13.617761"><ele>220.39999999999998</ele><time>2026-04-28T15:16:27.162Z</time></trkpt><trkpt lat="37.3290567" lon="13.6176778"><ele>218.79999999999998</ele><time>2026-04-28T15:16:28.16Z</time></trkpt><trkpt lat="37.3290157" lon="13.617595"><ele>217.2</ele><time>2026-04-28T15:16:29.16Z</time></trkpt><trkpt lat="37.3289825" lon="13.6175095"><ele>215.6</ele><time>2026-04-28T15:16:30.161Z</time></trkpt><trkpt lat="37.3289393" lon="13.6173583"><ele>214.0</ele><time>2026-04-28T15:16:32.161Z</time></trkpt><trkpt lat="37.3289253" lon="13.6172016"><ele>213.99999999999997</ele><time>2026-04-28T15:16:34.161Z</time></trkpt><trkpt lat="37.3289182" lon="13.6170467"><ele>214.0</ele><time>2026-04-28T15:16:36.161Z</time></trkpt><trkpt lat="37.3289154" lon="13.6169664"><ele>214.0</ele><time>2026-04-28T15:16:37.16Z</time></trkpt><trkpt lat="37.3289181" lon="13.6168842"><ele>214.0</ele><time>2026-04-28T15:16:38.161Z</time></trkpt><trkpt lat="37.3289192" lon="13.6168009"><ele>213.99999999999997</ele><time>2026-04-28T15:16:39.16Z</time></trkpt><trkpt lat="37.3289137" lon="13.616722"><ele>214.0</ele><time>2026-04-28T15:16:40.161Z</time></trkpt><trkpt lat="37.3288654" lon="13.6165792"><ele>212.16666666666666</ele><time>2026-04-28T15:16:42.161Z</time></trkpt><trkpt lat="37.3287796" lon="13.6164964"><ele>210.33333333333331</ele><time>2026-04-28T15:16:44.16Z</time></trkpt><trkpt lat="37.3287183" lon="13.6164767"><ele>208.5</ele><time>2026-04-28T15:16:45.16Z</time></trkpt><trkpt lat="37.3286445" lon="13.6164839"><ele>206.66666666666669</ele><time>2026-04-28T15:16:46.16Z</time></trkpt><trkpt lat="37.3285735" lon="13.6165019"><ele>204.83333333333334</ele><time>2026-04-28T15:16:47.16Z</time></trkpt><trkpt lat="37.3284981" lon="13.6165257"><ele>203.0</ele><time>2026-04-28T15:16:48.161Z</time></trkpt><trkpt lat="37.328423" lon="13.6165616"><ele>203.00000000000003</ele><time>2026-04-28T15:16:49.161Z</time></trkpt><trkpt lat="37.328346" lon="13.616573"><ele>203.0</ele><time>2026-04-28T15:16:50.161Z</time></trkpt><trkpt lat="37.3282704" lon="13.6165804"><ele>203.0</ele><time>2026-04-28T15:16:51.16Z</time></trkpt><trkpt lat="37.3281991" lon="13.6165681"><ele>203.0</ele><time>2026-04-28T15:16:52.159Z</time></trkpt><trkpt lat="37.3281402" lon="13.6165294"><ele>203.00000000000003</ele><time>2026-04-28T15:16:53.16Z</time></trkpt><trkpt lat="37.328088" lon="13.6164647"><ele>203.0</ele><time>2026-04-28T15:16:54.16Z</time></trkpt><trkpt lat="37.3280302" lon="13.6163616"><ele>201.4</ele><time>2026-04-28T15:16:55.16Z</time></trkpt><trkpt lat="37.3279811" lon="13.6162461"><ele>199.8</ele><time>2026-04-28T15:16:56.16Z</time></trkpt><trkpt lat="37.3279315" lon="13.6161212"><ele>198.2</ele><time>2026-04-28T15:16:57.161Z</time></trkpt><trkpt lat="37.3278882" lon="13.6160093"><ele>196.6</ele><time>2026-04-28T15:16:58.16Z</time></trkpt><trkpt lat="37.3278479" lon="13.6158978"><ele>195.0</ele><time>2026-04-28T15:16:59.16Z</time></trkpt><trkpt lat="37.3278087" lon="13.61579"><ele>193.33333333333334</ele><time>2026-04-28T15:17:00.161Z</time></trkpt><trkpt lat="37.3277681" lon="13.6157022"><ele>191.66666666666666</ele><time>2026-04-28T15:17:01.16Z</time></trkpt><trkpt lat="37.3277247" lon="13.6156229"><ele>190.0</ele><time>2026-04-28T15:17:02.161Z</time></trkpt><trkpt lat="37.3276681" lon="13.6155561"><ele>188.33333333333331</ele><time>2026-04-28T15:17:03.159Z</time></trkpt><trkpt lat="37.327601" lon="13.6155073"><ele>186.66666666666666</ele><time>2026-04-28T15:17:04.161Z</time></trkpt><trkpt lat="37.3275139" lon="13.6154642"><ele>185.0</ele><time>2026-04-28T15:17:05.161Z</time></trkpt><trkpt lat="37.3274288" lon="13.6154194"><ele>185.0</ele><time>2026-04-28T15:17:06.161Z</time></trkpt><trkpt lat="37.3273375" lon="13.615384"><ele>185.0</ele><time>2026-04-28T15:17:07.161Z</time></trkpt><trkpt lat="37.3272523" lon="13.6153492"><ele>185.0</ele><time>2026-04-28T15:17:08.16Z</time></trkpt><trkpt lat="37.3271698" lon="13.6153181"><ele>185.0</ele><time>2026-04-28T15:17:09.159Z</time></trkpt><trkpt lat="37.3270943" lon="13.6152809"><ele>185.0</ele><time>2026-04-28T15:17:10.16Z</time></trkpt><trkpt lat="37.3270279" lon="13.6152387"><ele>185.0</ele><time>2026-04-28T15:17:11.161Z</time></trkpt><trkpt lat="37.3269698" lon="13.6151803"><ele>182.42857142857142</ele><time>2026-04-28T15:17:12.161Z</time></trkpt><trkpt lat="37.3269284" lon="13.615107"><ele>179.85714285714286</ele><time>2026-04-28T15:17:13.161Z</time></trkpt><trkpt lat="37.3269118" lon="13.6150288"><ele>177.28571428571428</ele><time>2026-04-28T15:17:14.16Z</time></trkpt><trkpt lat="37.3269108" lon="13.6149439"><ele>174.71428571428572</ele><time>2026-04-28T15:17:15.161Z</time></trkpt><trkpt lat="37.3269134" lon="13.6148575"><ele>172.14285714285714</ele><time>2026-04-28T15:17:16.16Z</time></trkpt><trkpt lat="37.326915" lon="13.6147732"><ele>169.57142857142856</ele><time>2026-04-28T15:17:17.16Z</time></trkpt><trkpt lat="37.3269115" lon="13.6146903"><ele>167.0</ele><time>2026-04-28T15:17:18.16Z</time></trkpt><trkpt lat="37.3269035" lon="13.6146057"><ele>165.6</ele><time>2026-04-28T15:17:19.161Z</time></trkpt><trkpt lat="37.3268486" lon="13.6144687"><ele>164.2</ele><time>2026-04-28T15:17:21.161Z</time></trkpt><trkpt lat="37.3267402" lon="13.6144157"><ele>162.8</ele><time>2026-04-28T15:17:23.161Z</time></trkpt><trkpt lat="37.3266773" lon="13.6144111"><ele>161.4</ele><time>2026-04-28T15:17:24.161Z</time></trkpt><trkpt lat="37.3265586" lon="13.614416"><ele>160.0</ele><time>2026-04-28T15:17:26.159Z</time></trkpt><trkpt lat="37.3264479" lon="13.6144178"><ele>158.6</ele><time>2026-04-28T15:17:28.16Z</time></trkpt><trkpt lat="37.3263298" lon="13.614423"><ele>157.2</ele><time>2026-04-28T15:17:30.16Z</time></trkpt><trkpt lat="37.3262228" lon="13.6144206"><ele>155.8</ele><time>2026-04-28T15:17:32.16Z</time></trkpt><trkpt lat="37.3261214" lon="13.6144245"><ele>154.4</ele><time>2026-04-28T15:17:34.161Z</time></trkpt><trkpt lat="37.3260165" lon="13.6144294"><ele>153.0</ele><time>2026-04-28T15:17:36.161Z</time></trkpt><trkpt lat="37.3259068" lon="13.6144335"><ele>153.0</ele><time>2026-04-28T15:17:38.159Z</time></trkpt><trkpt lat="37.3258097" lon="13.6144327"><ele>153.0</ele><time>2026-04-28T15:17:40.161Z</time></trkpt><trkpt lat="37.3257271" lon="13.614414"><ele>153.0</ele><time>2026-04-28T15:17:42.162Z</time></trkpt><trkpt lat="37.3256905" lon="13.6143479"><ele>153.0</ele><time>2026-04-28T15:17:45.161Z</time></trkpt><trkpt lat="37.3256732" lon="13.6144447"><ele>153.0</ele><time>2026-04-28T15:18:03.161Z</time></trkpt><trkpt lat="37.3256088" lon="13.6144074"><ele>153.0</ele><time>2026-04-28T15:18:06.161Z</time></trkpt><trkpt lat="37.3255906" lon="13.6143246"><ele>153.0</ele><time>2026-04-28T15:18:08.16Z</time></trkpt><trkpt lat="37.3256018" lon="13.6142421"><ele>153.0</ele><time>2026-04-28T15:18:10.16Z</time></trkpt><trkpt lat="37.3256007" lon="13.614134"><ele>153.0</ele><time>2026-04-28T15:18:12.16Z</time></trkpt><trkpt lat="37.3255974" lon="13.613999"><ele>153.0</ele><time>2026-04-28T15:18:14.159Z</time></trkpt><trkpt lat="37.3256348" lon="13.6138947"><ele>153.0</ele><time>2026-04-28T15:18:16.16Z</time></trkpt><trkpt lat="37.3256795" lon="13.6138026"><ele>153.0</ele><time>2026-04-28T15:18:18.16Z</time></trkpt><trkpt lat="37.3257518" lon="13.6137412"><ele>153.0</ele><time>2026-04-28T15:18:20.16Z</time></trkpt><trkpt lat="37.3258554" lon="13.6137358"><ele>153.0</ele><time>2026-04-28T15:18:22.161Z</time></trkpt><trkpt lat="37.3259992" lon="13.6137391"><ele>153.0</ele><time>2026-04-28T15:18:24.161Z</time></trkpt><trkpt lat="37.3260763" lon="13.6137346"><ele>153.0</ele><time>2026-04-28T15:18:25.162Z</time></trkpt><trkpt lat="37.3261858" lon="13.61373"><ele>153.0</ele><time>2026-04-28T15:18:26.162Z</time></trkpt><trkpt lat="37.3263065" lon="13.6137256"><ele>155.33333333333334</ele><time>2026-04-28T15:18:27.161Z</time></trkpt><trkpt lat="37.3264474" lon="13.6137128"><ele>157.66666666666669</ele><time>2026-04-28T15:18:28.159Z</time></trkpt><trkpt lat="37.3265999" lon="13.6137066"><ele>160.0</ele><time>2026-04-28T15:18:29.16Z</time></trkpt><trkpt lat="37.3267628" lon="13.6137032"><ele>160.0</ele><time>2026-04-28T15:18:30.16Z</time></trkpt><trkpt lat="37.3269325" lon="13.6136967"><ele>160.0</ele><time>2026-04-28T15:18:31.16Z</time></trkpt><trkpt lat="37.327112" lon="13.6136938"><ele>160.0</ele><time>2026-04-28T15:18:32.16Z</time></trkpt><trkpt lat="37.3272976" lon="13.6136967"><ele>162.0</ele><time>2026-04-28T15:18:33.16Z</time></trkpt><trkpt lat="37.3274911" lon="13.6137107"><ele>164.0</ele><time>2026-04-28T15:18:34.16Z</time></trkpt><trkpt lat="37.3276905" lon="13.6137256"><ele>166.0</ele><time>2026-04-28T15:18:35.162Z</time></trkpt><trkpt lat="37.3278968" lon="13.6137277"><ele>168.0</ele><time>2026-04-28T15:18:36.161Z</time></trkpt><trkpt lat="37.3281074" lon="13.6137184"><ele>170.0</ele><time>2026-04-28T15:18:37.162Z</time></trkpt><trkpt lat="37.3283218" lon="13.6136935"><ele>172.0</ele><time>2026-04-28T15:18:38.16Z</time></trkpt><trkpt lat="37.3285423" lon="13.6136696"><ele>172.0</ele><time>2026-04-28T15:18:39.161Z</time></trkpt><trkpt lat="37.328764" lon="13.6136471"><ele>172.0</ele><time>2026-04-28T15:18:40.159Z</time></trkpt><trkpt lat="37.3289683" lon="13.6136352"><ele>172.0</ele><time>2026-04-28T15:18:41.159Z</time></trkpt><trkpt lat="37.329169" lon="13.6136442"><ele>175.33333333333334</ele><time>2026-04-28T15:18:42.16Z</time></trkpt><trkpt lat="37.3293624" lon="13.6136693"><ele>178.66666666666666</ele><time>2026-04-28T15:18:43.16Z</time></trkpt><trkpt lat="37.3295602" lon="13.6137069"><ele>182.0</ele><time>2026-04-28T15:18:44.161Z</time></trkpt><trkpt lat="37.3297582" lon="13.6137605"><ele>183.0</ele><time>2026-04-28T15:18:45.161Z</time></trkpt><trkpt lat="37.3299621" lon="13.6138561"><ele>184.0</ele><time>2026-04-28T15:18:46.16Z</time></trkpt><trkpt lat="37.33016" lon="13.6139424"><ele>185.0</ele><time>2026-04-28T15:18:47.159Z</time></trkpt><trkpt lat="37.3303271" lon="13.6140378"><ele>185.0</ele><time>2026-04-28T15:18:48.161Z</time></trkpt><trkpt lat="37.3305054" lon="13.6141356"><ele>185.0</ele><time>2026-04-28T15:18:49.159Z</time></trkpt><trkpt lat="37.330686" lon="13.614244"><ele>185.0</ele><time>2026-04-28T15:18:50.16Z</time></trkpt><trkpt lat="37.3308591" lon="13.6143616"><ele>186.33333333333331</ele><time>2026-04-28T15:18:51.161Z</time></trkpt><trkpt lat="37.3310075" lon="13.6144842"><ele>187.66666666666666</ele><time>2026-04-28T15:18:52.16Z</time></trkpt><trkpt lat="37.3311391" lon="13.6146041"><ele>189.0</ele><time>2026-04-28T15:18:53.162Z</time></trkpt><trkpt lat="37.3312652" lon="13.6147213"><ele>189.0</ele><time>2026-04-28T15:18:54.159Z</time></trkpt><trkpt lat="37.3313823" lon="13.6148234"><ele>189.0</ele><time>2026-04-28T15:18:55.161Z</time></trkpt><trkpt lat="37.3314962" lon="13.6149211"><ele>189.0</ele><time>2026-04-28T15:18:56.16Z</time></trkpt><trkpt lat="37.3316042" lon="13.6150188"><ele>189.0</ele><time>2026-04-28T15:18:57.16Z</time></trkpt><trkpt lat="37.3317084" lon="13.6151146"><ele>187.25</ele><time>2026-04-28T15:18:58.16Z</time></trkpt><trkpt lat="37.3318058" lon="13.6152006"><ele>185.5</ele><time>2026-04-28T15:18:59.16Z</time></trkpt><trkpt lat="37.3319036" lon="13.6152827"><ele>183.75</ele><time>2026-04-28T15:19:00.159Z</time></trkpt><trkpt lat="37.3319959" lon="13.6153596"><ele>182.0</ele><time>2026-04-28T15:19:01.16Z</time></trkpt><trkpt lat="37.3320891" lon="13.6154406"><ele>182.0</ele><time>2026-04-28T15:19:02.161Z</time></trkpt><trkpt lat="37.3321862" lon="13.6155264"><ele>182.0</ele><time>2026-04-28T15:19:03.161Z</time></trkpt><trkpt lat="37.3322726" lon="13.6156261"><ele>182.0</ele><time>2026-04-28T15:19:04.16Z</time></trkpt><trkpt lat="37.33232" lon="13.6157811"><ele>182.0</ele><time>2026-04-28T15:19:05.161Z</time></trkpt><trkpt lat="37.3323588" lon="13.6159736"><ele>180.75</ele><time>2026-04-28T15:19:06.161Z</time></trkpt><trkpt lat="37.3323659" lon="13.6161712"><ele>179.5</ele><time>2026-04-28T15:19:07.159Z</time></trkpt><trkpt lat="37.3323627" lon="13.6163289"><ele>178.25</ele><time>2026-04-28T15:19:08.161Z</time></trkpt><trkpt lat="37.3323864" lon="13.6164964"><ele>177.0</ele><time>2026-04-28T15:19:09.16Z</time></trkpt><trkpt lat="37.3324149" lon="13.6166421"><ele>177.0</ele><time>2026-04-28T15:19:10.161Z</time></trkpt><trkpt lat="37.332443" lon="13.6167513"><ele>177.0</ele><time>2026-04-28T15:19:11.16Z</time></trkpt><trkpt lat="37.3324735" lon="13.6168305"><ele>177.0</ele><time>2026-04-28T15:19:12.161Z</time></trkpt><trkpt lat="37.3325292" lon="13.6169121"><ele>177.0</ele><time>2026-04-28T15:19:14.161Z</time></trkpt><trkpt lat="37.3325067" lon="13.6167885"><ele>177.0</ele><time>2026-04-28T15:19:17.161Z</time></trkpt><trkpt lat="37.3324572" lon="13.6166617"><ele>177.0</ele><time>2026-04-28T15:19:18.161Z</time></trkpt><trkpt lat="37.3324163" lon="13.6165103"><ele>177.0</ele><time>2026-04-28T15:19:19.161Z</time></trkpt><trkpt lat="37.3323948" lon="13.6163408"><ele>177.0</ele><time>2026-04-28T15:19:20.159Z</time></trkpt><trkpt lat="37.3323905" lon="13.6161817"><ele>177.0</ele><time>2026-04-28T15:19:21.16Z</time></trkpt><trkpt lat="37.332388" lon="13.6160287"><ele>178.25</ele><time>2026-04-28T15:19:22.159Z</time></trkpt><trkpt lat="37.3323763" lon="13.6158844"><ele>179.5</ele><time>2026-04-28T15:19:23.159Z</time></trkpt><trkpt lat="37.3323274" lon="13.6157355"><ele>180.75</ele><time>2026-04-28T15:19:24.159Z</time></trkpt><trkpt lat="37.332243" lon="13.6155966"><ele>182.0</ele><time>2026-04-28T15:19:25.161Z</time></trkpt><trkpt lat="37.3321242" lon="13.6154654"><ele>182.0</ele><time>2026-04-28T15:19:26.161Z</time></trkpt><trkpt lat="37.3319858" lon="13.6153417"><ele>182.0</ele><time>2026-04-28T15:19:27.161Z</time></trkpt><trkpt lat="37.3318399" lon="13.6152098"><ele>182.0</ele><time>2026-04-28T15:19:28.16Z</time></trkpt><trkpt lat="37.3316929" lon="13.6150776"><ele>184.33333333333331</ele><time>2026-04-28T15:19:29.16Z</time></trkpt><trkpt lat="37.3315374" lon="13.6149396"><ele>186.66666666666666</ele><time>2026-04-28T15:19:30.16Z</time></trkpt><trkpt lat="37.3313799" lon="13.6148004"><ele>189.0</ele><time>2026-04-28T15:19:31.161Z</time></trkpt><trkpt lat="37.3312281" lon="13.6146633"><ele>189.0</ele><time>2026-04-28T15:19:32.159Z</time></trkpt><trkpt lat="37.3310883" lon="13.6145322"><ele>189.0</ele><time>2026-04-28T15:19:33.16Z</time></trkpt><trkpt lat="37.3309392" lon="13.614406"><ele>189.0</ele><time>2026-04-28T15:19:34.16Z</time></trkpt><trkpt lat="37.3307805" lon="13.6142842"><ele>187.66666666666666</ele><time>2026-04-28T15:19:35.161Z</time></trkpt><trkpt lat="37.3306021" lon="13.6141766"><ele>186.33333333333331</ele><time>2026-04-28T15:19:36.16Z</time></trkpt><trkpt lat="37.3304231" lon="13.6140715"><ele>185.0</ele><time>2026-04-28T15:19:37.159Z</time></trkpt><trkpt lat="37.3302602" lon="13.6139847"><ele>185.0</ele><time>2026-04-28T15:19:38.159Z</time></trkpt><trkpt lat="37.3301035" lon="13.6138973"><ele>185.0</ele><time>2026-04-28T15:19:39.161Z</time></trkpt><trkpt lat="37.3299329" lon="13.6138117"><ele>185.0</ele><time>2026-04-28T15:19:40.16Z</time></trkpt><trkpt lat="37.3297557" lon="13.6137323"><ele>184.0</ele><time>2026-04-28T15:19:41.159Z</time></trkpt><trkpt lat="37.3295507" lon="13.6136797"><ele>183.0</ele><time>2026-04-28T15:19:42.162Z</time></trkpt><trkpt lat="37.3293348" lon="13.6136473"><ele>182.0</ele><time>2026-04-28T15:19:43.159Z</time></trkpt><trkpt lat="37.329127" lon="13.6136229"><ele>178.66666666666666</ele><time>2026-04-28T15:19:44.16Z</time></trkpt><trkpt lat="37.3289084" lon="13.6136295"><ele>175.33333333333334</ele><time>2026-04-28T15:19:45.162Z</time></trkpt><trkpt lat="37.3286907" lon="13.6136465"><ele>172.0</ele><time>2026-04-28T15:19:46.159Z</time></trkpt><trkpt lat="37.3284861" lon="13.6136821"><ele>172.0</ele><time>2026-04-28T15:19:47.16Z</time></trkpt><trkpt lat="37.3282985" lon="13.6137038"><ele>172.0</ele><time>2026-04-28T15:19:48.159Z</time></trkpt><trkpt lat="37.3281015" lon="13.6137238"><ele>172.0</ele><time>2026-04-28T15:19:49.161Z</time></trkpt><trkpt lat="37.3278916" lon="13.6137236"><ele>170.0</ele><time>2026-04-28T15:19:50.16Z</time></trkpt><trkpt lat="37.327674" lon="13.6137115"><ele>168.0</ele><time>2026-04-28T15:19:51.16Z</time></trkpt><trkpt lat="37.3274501" lon="13.6136984"><ele>166.0</ele><time>2026-04-28T15:19:52.16Z</time></trkpt><trkpt lat="37.327232" lon="13.6136908"><ele>164.0</ele><time>2026-04-28T15:19:53.16Z</time></trkpt><trkpt lat="37.3270316" lon="13.6136895"><ele>162.0</ele><time>2026-04-28T15:19:54.16Z</time></trkpt><trkpt lat="37.3268427" lon="13.6136933"><ele>160.0</ele><time>2026-04-28T15:19:55.161Z</time></trkpt><trkpt lat="37.3266655" lon="13.6137003"><ele>160.0</ele><time>2026-04-28T15:19:56.159Z</time></trkpt><trkpt lat="37.3264975" lon="13.6137075"><ele>160.0</ele><time>2026-04-28T15:19:57.161Z</time></trkpt><trkpt lat="37.3263468" lon="13.6137087"><ele>160.0</ele><time>2026-04-28T15:19:58.161Z</time></trkpt><trkpt lat="37.3262072" lon="13.6137149"><ele>158.6</ele><time>2026-04-28T15:19:59.159Z</time></trkpt><trkpt lat="37.3260841" lon="13.6137179"><ele>157.2</ele><time>2026-04-28T15:20:00.161Z</time></trkpt><trkpt lat="37.3259797" lon="13.6137222"><ele>155.8</ele><time>2026-04-28T15:20:01.16Z</time></trkpt><trkpt lat="37.3258828" lon="13.6137243"><ele>154.4</ele><time>2026-04-28T15:20:02.16Z</time></trkpt><trkpt lat="37.3258015" lon="13.6137346"><ele>153.0</ele><time>2026-04-28T15:20:03.159Z</time></trkpt><trkpt lat="37.3256932" lon="13.6137728"><ele>153.0</ele><time>2026-04-28T15:20:05.16Z</time></trkpt><trkpt lat="37.3256431" lon="13.6138892"><ele>153.0</ele><time>2026-04-28T15:20:07.16Z</time></trkpt><trkpt lat="37.325632" lon="13.6139986"><ele>153.0</ele><time>2026-04-28T15:20:09.161Z</time></trkpt><trkpt lat="37.3256172" lon="13.6141137"><ele>153.0</ele><time>2026-04-28T15:20:11.16Z</time></trkpt><trkpt lat="37.325591" lon="13.6142525"><ele>153.0</ele><time>2026-04-28T15:20:13.16Z</time></trkpt><trkpt lat="37.3256185" lon="13.6143819"><ele>153.0</ele><time>2026-04-28T15:20:15.16Z</time></trkpt><trkpt lat="37.3257064" lon="13.6144149"><ele>153.0</ele><time>2026-04-28T15:20:17.16Z</time></trkpt><trkpt lat="37.3257919" lon="13.6144014"><ele>153.0</ele><time>2026-04-28T15:20:18.159Z</time></trkpt><trkpt lat="37.3258919" lon="13.61439"><ele>153.0</ele><time>2026-04-28T15:20:19.161Z</time></trkpt><trkpt lat="37.3260169" lon="13.6143896"><ele>153.0</ele><time>2026-04-28T15:20:20.16Z</time></trkpt><trkpt lat="37.3261502" lon="13.6143817"><ele>153.0</ele><time>2026-04-28T15:20:21.161Z</time></trkpt><trkpt lat="37.3262935" lon="13.6143794"><ele>153.0</ele><time>2026-04-28T15:20:22.159Z</time></trkpt><trkpt lat="37.3264231" lon="13.614377"><ele>153.0</ele><time>2026-04-28T15:20:23.16Z</time></trkpt><trkpt lat="37.3265364" lon="13.6143831"><ele>153.0</ele><time>2026-04-28T15:20:24.16Z</time></trkpt><trkpt lat="37.3266395" lon="13.6143887"><ele>154.16666666666666</ele><time>2026-04-28T15:20:25.16Z</time></trkpt><trkpt lat="37.3267249" lon="13.614399"><ele>155.33333333333334</ele><time>2026-04-28T15:20:26.161Z</time></trkpt><trkpt lat="37.3267949" lon="13.6144241"><ele>156.5</ele><time>2026-04-28T15:20:27.161Z</time></trkpt><trkpt lat="37.3268473" lon="13.6144725"><ele>157.66666666666669</ele><time>2026-04-28T15:20:28.162Z</time></trkpt><trkpt lat="37.3268831" lon="13.6145601"><ele>158.83333333333334</ele><time>2026-04-28T15:20:29.161Z</time></trkpt><trkpt lat="37.3269073" lon="13.6146618"><ele>160.0</ele><time>2026-04-28T15:20:30.159Z</time></trkpt><trkpt lat="37.3268971" lon="13.614769"><ele>161.16666666666669</ele><time>2026-04-28T15:20:31.16Z</time></trkpt><trkpt lat="37.3268947" lon="13.6148718"><ele>162.33333333333334</ele><time>2026-04-28T15:20:32.159Z</time></trkpt><trkpt lat="37.3268985" lon="13.6149789"><ele>163.5</ele><time>2026-04-28T15:20:33.161Z</time></trkpt><trkpt lat="37.3269222" lon="13.6150798"><ele>164.66666666666666</ele><time>2026-04-28T15:20:34.16Z</time></trkpt><trkpt lat="37.3269661" lon="13.6151657"><ele>165.83333333333331</ele><time>2026-04-28T15:20:35.16Z</time></trkpt><trkpt lat="37.3270406" lon="13.6152281"><ele>167.0</ele><time>2026-04-28T15:20:36.16Z</time></trkpt><trkpt lat="37.327143" lon="13.6152794"><ele>170.0</ele><time>2026-04-28T15:20:37.159Z</time></trkpt><trkpt lat="37.3272443" lon="13.6153247"><ele>173.0</ele><time>2026-04-28T15:20:38.16Z</time></trkpt><trkpt lat="37.3273293" lon="13.6153627"><ele>176.0</ele><time>2026-04-28T15:20:39.161Z</time></trkpt><trkpt lat="37.3273959" lon="13.6153971"><ele>179.0</ele><time>2026-04-28T15:20:40.161Z</time></trkpt><trkpt lat="37.3274582" lon="13.6154282"><ele>182.0</ele><time>2026-04-28T15:20:41.159Z</time></trkpt><trkpt lat="37.3275265" lon="13.6154531"><ele>185.0</ele><time>2026-04-28T15:20:42.159Z</time></trkpt><trkpt lat="37.3275964" lon="13.6154792"><ele>185.0</ele><time>2026-04-28T15:20:43.161Z</time></trkpt><trkpt lat="37.3276561" lon="13.6155217"><ele>185.0</ele><time>2026-04-28T15:20:44.16Z</time></trkpt><trkpt lat="37.3277074" lon="13.6155779"><ele>185.0</ele><time>2026-04-28T15:20:45.16Z</time></trkpt><trkpt lat="37.3277505" lon="13.6156483"><ele>185.0</ele><time>2026-04-28T15:20:46.161Z</time></trkpt><trkpt lat="37.327794" lon="13.615733"><ele>185.0</ele><time>2026-04-28T15:20:47.16Z</time></trkpt><trkpt lat="37.3278326" lon="13.6158262"><ele>185.0</ele><time>2026-04-28T15:20:48.16Z</time></trkpt><trkpt lat="37.3278604" lon="13.6159193"><ele>185.0</ele><time>2026-04-28T15:20:49.159Z</time></trkpt><trkpt lat="37.3278965" lon="13.616018"><ele>185.0</ele><time>2026-04-28T15:20:50.161Z</time></trkpt><trkpt lat="37.3279388" lon="13.6161153"><ele>185.0</ele><time>2026-04-28T15:20:51.159Z</time></trkpt><trkpt lat="37.3279786" lon="13.6162237"><ele>185.0</ele><time>2026-04-28T15:20:52.159Z</time></trkpt><trkpt lat="37.3280285" lon="13.6163464"><ele>185.0</ele><time>2026-04-28T15:20:53.159Z</time></trkpt><trkpt lat="37.3280751" lon="13.6164381"><ele>188.0</ele><time>2026-04-28T15:20:54.16Z</time></trkpt><trkpt lat="37.3281256" lon="13.6165126"><ele>191.0</ele><time>2026-04-28T15:20:55.16Z</time></trkpt><trkpt lat="37.3281895" lon="13.6165648"><ele>194.0</ele><time>2026-04-28T15:20:56.16Z</time></trkpt><trkpt lat="37.3282567" lon="13.61659"><ele>197.0</ele><time>2026-04-28T15:20:57.162Z</time></trkpt><trkpt lat="37.3283369" lon="13.6165854"><ele>200.00000000000003</ele><time>2026-04-28T15:20:58.16Z</time></trkpt><trkpt lat="37.3284357" lon="13.6165617"><ele>203.0</ele><time>2026-04-28T15:20:59.16Z</time></trkpt><trkpt lat="37.3285384" lon="13.6165249"><ele>203.0</ele><time>2026-04-28T15:21:00.159Z</time></trkpt><trkpt lat="37.328628" lon="13.6165003"><ele>203.0</ele><time>2026-04-28T15:21:01.16Z</time></trkpt><trkpt lat="37.3287075" lon="13.6164945"><ele>203.0</ele><time>2026-04-28T15:21:02.159Z</time></trkpt><trkpt lat="37.3287811" lon="13.6165094"><ele>203.0</ele><time>2026-04-28T15:21:03.16Z</time></trkpt><trkpt lat="37.3288411" lon="13.6165464"><ele>203.0</ele><time>2026-04-28T15:21:04.16Z</time></trkpt><trkpt lat="37.3288828" lon="13.616607"><ele>203.0</ele><time>2026-04-28T15:21:05.159Z</time></trkpt><trkpt lat="37.3289074" lon="13.6166809"><ele>203.0</ele><time>2026-04-28T15:21:06.16Z</time></trkpt><trkpt lat="37.32892" lon="13.616772"><ele>204.00000000000003</ele><time>2026-04-28T15:21:07.161Z</time></trkpt><trkpt lat="37.3289263" lon="13.6168626"><ele>205.0</ele><time>2026-04-28T15:21:08.159Z</time></trkpt><trkpt lat="37.3289267" lon="13.6169539"><ele>206.0</ele><time>2026-04-28T15:21:09.16Z</time></trkpt><trkpt lat="37.3289288" lon="13.6170422"><ele>207.0</ele><time>2026-04-28T15:21:10.16Z</time></trkpt><trkpt lat="37.328928" lon="13.6171312"><ele>208.00000000000003</ele><time>2026-04-28T15:21:11.16Z</time></trkpt><trkpt lat="37.3289329" lon="13.6172274"><ele>209.0</ele><time>2026-04-28T15:21:12.16Z</time></trkpt><trkpt lat="37.3289491" lon="13.6173486"><ele>210.25</ele><time>2026-04-28T15:21:13.16Z</time></trkpt><trkpt lat="37.3289827" lon="13.6174633"><ele>211.5</ele><time>2026-04-28T15:21:14.16Z</time></trkpt><trkpt lat="37.3290321" lon="13.6175928"><ele>212.75</ele><time>2026-04-28T15:21:15.159Z</time></trkpt><trkpt lat="37.3291047" lon="13.6177408"><ele>214.0</ele><time>2026-04-28T15:21:16.16Z</time></trkpt><trkpt lat="37.3291847" lon="13.6178977"><ele>216.0</ele><time>2026-04-28T15:21:17.16Z</time></trkpt><trkpt lat="37.3292617" lon="13.618048"><ele>218.0</ele><time>2026-04-28T15:21:18.159Z</time></trkpt><trkpt lat="37.3293243" lon="13.6181745"><ele>220.0</ele><time>2026-04-28T15:21:19.159Z</time></trkpt><trkpt lat="37.3293714" lon="13.6182893"><ele>222.0</ele><time>2026-04-28T15:21:20.16Z</time></trkpt><trkpt lat="37.3294009" lon="13.6184006"><ele>222.0</ele><time>2026-04-28T15:21:21.161Z</time></trkpt><trkpt lat="37.3294197" lon="13.6185383"><ele>222.0</ele><time>2026-04-28T15:21:22.16Z</time></trkpt><trkpt lat="37.329422" lon="13.6186887"><ele>222.0</ele><time>2026-04-28T15:21:23.159Z</time></trkpt><trkpt lat="37.3294089" lon="13.6188585"><ele>222.0</ele><time>2026-04-28T15:21:24.161Z</time></trkpt><trkpt lat="37.3293852" lon="13.6190437"><ele>223.25</ele><time>2026-04-28T15:21:25.16Z</time></trkpt><trkpt lat="37.3293628" lon="13.6192269"><ele>224.5</ele><time>2026-04-28T15:21:26.16Z</time></trkpt><trkpt lat="37.3293324" lon="13.6193913"><ele>225.75</ele><time>2026-04-28T15:21:27.161Z</time></trkpt><trkpt lat="37.3292896" lon="13.619558"><ele>227.0</ele><time>2026-04-28T15:21:28.161Z</time></trkpt><trkpt lat="37.3292217" lon="13.6197217"><ele>228.25</ele><time>2026-04-28T15:21:29.159Z</time></trkpt><trkpt lat="37.3291436" lon="13.6198875"><ele>229.5</ele><time>2026-04-28T15:21:30.159Z</time></trkpt><trkpt lat="37.3290592" lon="13.6200444"><ele>230.75</ele><time>2026-04-28T15:21:31.16Z</time></trkpt><trkpt lat="37.3289811" lon="13.6201847"><ele>232.0</ele><time>2026-04-28T15:21:32.16Z</time></trkpt><trkpt lat="37.3289125" lon="13.620326"><ele>234.0</ele><time>2026-04-28T15:21:33.161Z</time></trkpt><trkpt lat="37.3288405" lon="13.6204787"><ele>236.0</ele><time>2026-04-28T15:21:34.16Z</time></trkpt><trkpt lat="37.3287777" lon="13.6206129"><ele>238.0</ele><time>2026-04-28T15:21:35.16Z</time></trkpt><trkpt lat="37.3287284" lon="13.6207497"><ele>240.0</ele><time>2026-04-28T15:21:36.162Z</time></trkpt><trkpt lat="37.3286926" lon="13.6208849"><ele>240.0</ele><time>2026-04-28T15:21:37.161Z</time></trkpt><trkpt lat="37.3286699" lon="13.621018"><ele>240.0</ele><time>2026-04-28T15:21:38.159Z</time></trkpt><trkpt lat="37.3286713" lon="13.6211453"><ele>240.0</ele><time>2026-04-28T15:21:39.16Z</time></trkpt><trkpt lat="37.3286775" lon="13.6212967"><ele>240.0</ele><time>2026-04-28T15:21:40.16Z</time></trkpt><trkpt lat="37.3286805" lon="13.6214531"><ele>240.4</ele><time>2026-04-28T15:21:41.159Z</time></trkpt><trkpt lat="37.3286826" lon="13.6215985"><ele>240.8</ele><time>2026-04-28T15:21:42.159Z</time></trkpt><trkpt lat="37.3286772" lon="13.6217234"><ele>241.2</ele><time>2026-04-28T15:21:43.16Z</time></trkpt><trkpt lat="37.3286591" lon="13.6218343"><ele>241.6</ele><time>2026-04-28T15:21:44.161Z</time></trkpt><trkpt lat="37.328621" lon="13.6219288"><ele>242.0</ele><time>2026-04-28T15:21:45.16Z</time></trkpt><trkpt lat="37.3285566" lon="13.6219997"><ele>242.2</ele><time>2026-04-28T15:21:46.16Z</time></trkpt><trkpt lat="37.3284657" lon="13.622057"><ele>242.39999999999998</ele><time>2026-04-28T15:21:47.16Z</time></trkpt><trkpt lat="37.3283504" lon="13.6221035"><ele>242.60000000000002</ele><time>2026-04-28T15:21:48.159Z</time></trkpt><trkpt lat="37.3282411" lon="13.6221488"><ele>242.8</ele><time>2026-04-28T15:21:49.16Z</time></trkpt><trkpt lat="37.3281509" lon="13.6221809"><ele>243.0</ele><time>2026-04-28T15:21:50.16Z</time></trkpt><trkpt lat="37.3280771" lon="13.6222134"><ele>243.4</ele><time>2026-04-28T15:21:51.159Z</time></trkpt><trkpt lat="37.3280156" lon="13.6222486"><ele>243.8</ele><time>2026-04-28T15:21:52.16Z</time></trkpt><trkpt lat="37.3279419" lon="13.6223645"><ele>244.2</ele><time>2026-04-28T15:21:54.159Z</time></trkpt><trkpt lat="37.3279268" lon="13.6225115"><ele>244.6</ele><time>2026-04-28T15:21:56.16Z</time></trkpt><trkpt lat="37.3279712" lon="13.6226476"><ele>245.0</ele><time>2026-04-28T15:21:58.16Z</time></trkpt><trkpt lat="37.3280127" lon="13.6227109"><ele>245.0</ele><time>2026-04-28T15:21:59.161Z</time></trkpt><trkpt lat="37.3280676" lon="13.62277"><ele>245.0</ele><time>2026-04-28T15:22:00.161Z</time></trkpt><trkpt lat="37.3281289" lon="13.6228386"><ele>245.0</ele><time>2026-04-28T15:22:01.16Z</time></trkpt><trkpt lat="37.3281958" lon="13.6229232"><ele>245.0</ele><time>2026-04-28T15:22:02.16Z</time></trkpt><trkpt lat="37.3282815" lon="13.6230198"><ele>245.0</ele><time>2026-04-28T15:22:03.159Z</time></trkpt><trkpt lat="37.3283722" lon="13.6231188"><ele>245.0</ele><time>2026-04-28T15:22:04.16Z</time></trkpt><trkpt lat="37.3284778" lon="13.6232348"><ele>245.0</ele><time>2026-04-28T15:22:05.161Z</time></trkpt><trkpt lat="37.3285763" lon="13.623342"><ele>245.0</ele><time>2026-04-28T15:22:06.159Z</time></trkpt><trkpt lat="37.3286675" lon="13.6234447"><ele>245.0</ele><time>2026-04-28T15:22:07.161Z</time></trkpt><trkpt lat="37.3287553" lon="13.6235399"><ele>245.0</ele><time>2026-04-28T15:22:08.159Z</time></trkpt><trkpt lat="37.3288486" lon="13.6236435"><ele>245.0</ele><time>2026-04-28T15:22:09.159Z</time></trkpt><trkpt lat="37.3289409" lon="13.6237513"><ele>245.0</ele><time>2026-04-28T15:22:10.159Z</time></trkpt><trkpt lat="37.329036" lon="13.6238634"><ele>245.0</ele><time>2026-04-28T15:22:11.161Z</time></trkpt><trkpt lat="37.3291279" lon="13.623971"><ele>246.75</ele><time>2026-04-28T15:22:12.161Z</time></trkpt><trkpt lat="37.3292208" lon="13.6240843"><ele>248.5</ele><time>2026-04-28T15:22:13.159Z</time></trkpt><trkpt lat="37.3293183" lon="13.6241978"><ele>250.25</ele><time>2026-04-28T15:22:14.16Z</time></trkpt><trkpt lat="37.3294127" lon="13.6242985"><ele>252.0</ele><time>2026-04-28T15:22:15.16Z</time></trkpt><trkpt lat="37.3295011" lon="13.6243899"><ele>252.0</ele><time>2026-04-28T15:22:16.159Z</time></trkpt><trkpt lat="37.329577" lon="13.6244674"><ele>252.0</ele><time>2026-04-28T15:22:17.159Z</time></trkpt><trkpt lat="37.3296476" lon="13.6245371"><ele>252.0</ele><time>2026-04-28T15:22:18.16Z</time></trkpt><trkpt lat="37.3297084" lon="13.6246139"><ele>252.0</ele><time>2026-04-28T15:22:19.159Z</time></trkpt><trkpt lat="37.3297613" lon="13.6247047"><ele>252.0</ele><time>2026-04-28T15:22:20.159Z</time></trkpt><trkpt lat="37.3297923" lon="13.6247898"><ele>252.0</ele><time>2026-04-28T15:22:21.16Z</time></trkpt><trkpt lat="37.3298067" lon="13.6248823"><ele>251.6</ele><time>2026-04-28T15:22:22.16Z</time></trkpt><trkpt lat="37.3298034" lon="13.6249902"><ele>251.2</ele><time>2026-04-28T15:22:23.161Z</time></trkpt><trkpt lat="37.3297979" lon="13.6251277"><ele>250.8</ele><time>2026-04-28T15:22:24.16Z</time></trkpt><trkpt lat="37.3297936" lon="13.6252578"><ele>250.4</ele><time>2026-04-28T15:22:25.159Z</time></trkpt><trkpt lat="37.3297956" lon="13.6253992"><ele>250.0</ele><time>2026-04-28T15:22:26.16Z</time></trkpt><trkpt lat="37.3297952" lon="13.6255148"><ele>251.49999999999997</ele><time>2026-04-28T15:22:27.159Z</time></trkpt><trkpt lat="37.3297958" lon="13.6256219"><ele>253.0</ele><time>2026-04-28T15:22:28.159Z</time></trkpt><trkpt lat="37.3298133" lon="13.6257064"><ele>254.5</ele><time>2026-04-28T15:22:29.159Z</time></trkpt><trkpt lat="37.329824" lon="13.6258064"><ele>256.0</ele><time>2026-04-28T15:22:30.16Z</time></trkpt><trkpt lat="37.329843" lon="13.6259276"><ele>257.5</ele><time>2026-04-28T15:22:31.16Z</time></trkpt><trkpt lat="37.3298598" lon="13.6260703"><ele>259.0</ele><time>2026-04-28T15:22:32.159Z</time></trkpt><trkpt lat="37.3298669" lon="13.6261955"><ele>261.5</ele><time>2026-04-28T15:22:33.16Z</time></trkpt><trkpt lat="37.3298651" lon="13.6263249"><ele>264.0</ele><time>2026-04-28T15:22:34.161Z</time></trkpt><trkpt lat="37.3298455" lon="13.6264657"><ele>266.5</ele><time>2026-04-28T15:22:35.159Z</time></trkpt><trkpt lat="37.3298121" lon="13.6266283"><ele>269.0</ele><time>2026-04-28T15:22:36.159Z</time></trkpt><trkpt lat="37.3297855" lon="13.6267907"><ele>269.0</ele><time>2026-04-28T15:22:37.16Z</time></trkpt><trkpt lat="37.3297638" lon="13.6269691"><ele>269.0</ele><time>2026-04-28T15:22:38.159Z</time></trkpt><trkpt lat="37.3297511" lon="13.6271262"><ele>269.0</ele><time>2026-04-28T15:22:39.16Z</time></trkpt><trkpt lat="37.3297556" lon="13.6272714"><ele>269.0</ele><time>2026-04-28T15:22:40.16Z</time></trkpt><trkpt lat="37.3297601" lon="13.6274071"><ele>270.59999999999997</ele><time>2026-04-28T15:22:41.16Z</time></trkpt><trkpt lat="37.3297609" lon="13.6275186"><ele>272.2</ele><time>2026-04-28T15:22:42.16Z</time></trkpt><trkpt lat="37.3297184" lon="13.6276675"><ele>273.79999999999995</ele><time>2026-04-28T15:22:44.159Z</time></trkpt><trkpt lat="37.3296681" lon="13.6277359"><ele>275.4</ele><time>2026-04-28T15:22:45.161Z</time></trkpt><trkpt lat="37.3295627" lon="13.627808"><ele>277.0</ele><time>2026-04-28T15:22:46.16Z</time></trkpt><trkpt lat="37.3294635" lon="13.6278781"><ele>278.6</ele><time>2026-04-28T15:22:47.161Z</time></trkpt><trkpt lat="37.3293537" lon="13.6279459"><ele>280.2</ele><time>2026-04-28T15:22:48.159Z</time></trkpt><trkpt lat="37.3292574" lon="13.6280139"><ele>281.8</ele><time>2026-04-28T15:22:49.16Z</time></trkpt><trkpt lat="37.3291929" lon="13.6280684"><ele>283.4</ele><time>2026-04-28T15:22:50.159Z</time></trkpt><trkpt lat="37.3291244" lon="13.6281182"><ele>285.0</ele><time>2026-04-28T15:22:51.159Z</time></trkpt><trkpt lat="37.3290811" lon="13.6281849"><ele>285.0</ele><time>2026-04-28T15:22:52.16Z</time></trkpt><trkpt lat="37.3290326" lon="13.628254"><ele>285.0</ele><time>2026-04-28T15:22:53.159Z</time></trkpt><trkpt lat="37.3289873" lon="13.6283096"><ele>285.0</ele><time>2026-04-28T15:22:54.16Z</time></trkpt><trkpt lat="37.3288968" lon="13.628372"><ele>285.0</ele><time>2026-04-28T15:22:56.16Z</time></trkpt><trkpt lat="37.3288236" lon="13.6283645"><ele>285.0</ele><time>2026-04-28T15:22:59.16Z</time></trkpt><trkpt lat="37.3289073" lon="13.628367"><ele>285.0</ele><time>2026-04-28T15:23:12.161Z</time></trkpt><trkpt lat="37.3290288" lon="13.6284089"><ele>285.0</ele><time>2026-04-28T15:23:14.161Z</time></trkpt><trkpt lat="37.3291116" lon="13.6284591"><ele>285.0</ele><time>2026-04-28T15:23:15.16Z</time></trkpt><trkpt lat="37.329221" lon="13.6285344"><ele>285.0</ele><time>2026-04-28T15:23:16.16Z</time></trkpt><trkpt lat="37.3293202" lon="13.6285942"><ele>285.0</ele><time>2026-04-28T15:23:17.159Z</time></trkpt><trkpt lat="37.3293974" lon="13.6286488"><ele>285.0</ele><time>2026-04-28T15:23:18.159Z</time></trkpt><trkpt lat="37.3294731" lon="13.6286965"><ele>285.5</ele><time>2026-04-28T15:23:19.159Z</time></trkpt><trkpt lat="37.3295452" lon="13.6287452"><ele>286.0</ele><time>2026-04-28T15:23:20.16Z</time></trkpt><trkpt lat="37.3296217" lon="13.6287849"><ele>286.5</ele><time>2026-04-28T15:23:21.159Z</time></trkpt><trkpt lat="37.3296898" lon="13.6288204"><ele>287.0</ele><time>2026-04-28T15:23:22.159Z</time></trkpt><trkpt lat="37.3297522" lon="13.6288518"><ele>287.5</ele><time>2026-04-28T15:23:23.16Z</time></trkpt><trkpt lat="37.3298589" lon="13.6288994"><ele>288.0</ele><time>2026-04-28T15:23:25.161Z</time></trkpt><trkpt lat="37.3299279" lon="13.6289465"><ele>288.0</ele><time>2026-04-28T15:23:27.159Z</time></trkpt><trkpt lat="37.329818" lon="13.6288924"><ele>288.0</ele><time>2026-04-28T15:23:33.16Z</time></trkpt><trkpt lat="37.3297168" lon="13.628855"><ele>288.0</ele><time>2026-04-28T15:23:34.159Z</time></trkpt><trkpt lat="37.3296151" lon="13.6288085"><ele>288.0</ele><time>2026-04-28T15:23:35.161Z</time></trkpt><trkpt lat="37.3295004" lon="13.6287424"><ele>287.4</ele><time>2026-04-28T15:23:36.16Z</time></trkpt><trkpt lat="37.3293886" lon="13.6286711"><ele>286.8</ele><time>2026-04-28T15:23:37.16Z</time></trkpt><trkpt lat="37.3292895" lon="13.6285933"><ele>286.2</ele><time>2026-04-28T15:23:38.159Z</time></trkpt><trkpt lat="37.3291999" lon="13.6285313"><ele>285.6</ele><time>2026-04-28T15:23:39.159Z</time></trkpt><trkpt lat="37.3291131" lon="13.6284824"><ele>285.0</ele><time>2026-04-28T15:23:40.159Z</time></trkpt><trkpt lat="37.3290379" lon="13.6284479"><ele>285.0</ele><time>2026-04-28T15:23:41.16Z</time></trkpt><trkpt lat="37.3289713" lon="13.628414"><ele>285.0</ele><time>2026-04-28T15:23:42.16Z</time></trkpt><trkpt lat="37.3288563" lon="13.6284094"><ele>285.0</ele><time>2026-04-28T15:23:44.16Z</time></trkpt><trkpt lat="37.328739" lon="13.628442"><ele>285.0</ele><time>2026-04-28T15:23:46.16Z</time></trkpt><trkpt lat="37.328682" lon="13.6284816"><ele>285.0</ele><time>2026-04-28T15:23:47.16Z</time></trkpt><trkpt lat="37.3286161" lon="13.628547"><ele>284.8333333333333</ele><time>2026-04-28T15:23:48.159Z</time></trkpt><trkpt lat="37.3285686" lon="13.6286022"><ele>284.6666666666667</ele><time>2026-04-28T15:23:49.16Z</time></trkpt><trkpt lat="37.3285268" lon="13.6286696"><ele>284.5</ele><time>2026-04-28T15:23:50.161Z</time></trkpt><trkpt lat="37.328488" lon="13.6287392"><ele>284.33333333333337</ele><time>2026-04-28T15:23:51.159Z</time></trkpt><trkpt lat="37.3284704" lon="13.6288326"><ele>284.1666666666667</ele><time>2026-04-28T15:23:52.159Z</time></trkpt><trkpt lat="37.3284708" lon="13.6289909"><ele>284.0</ele><time>2026-04-28T15:23:54.159Z</time></trkpt><trkpt lat="37.328481" lon="13.6290815"><ele>284.4</ele><time>2026-04-28T15:23:55.16Z</time></trkpt><trkpt lat="37.3285161" lon="13.6292012"><ele>284.79999999999995</ele><time>2026-04-28T15:23:56.159Z</time></trkpt><trkpt lat="37.3285539" lon="13.6293246"><ele>285.20000000000005</ele><time>2026-04-28T15:23:57.159Z</time></trkpt><trkpt lat="37.3285942" lon="13.629461"><ele>285.6</ele><time>2026-04-28T15:23:58.159Z</time></trkpt><trkpt lat="37.3286339" lon="13.6295893"><ele>286.0</ele><time>2026-04-28T15:23:59.159Z</time></trkpt><trkpt lat="37.3286639" lon="13.6297198"><ele>286.40000000000003</ele><time>2026-04-28T15:24:00.16Z</time></trkpt><trkpt lat="37.3286791" lon="13.6298611"><ele>286.8</ele><time>2026-04-28T15:24:01.161Z</time></trkpt><trkpt lat="37.3286919" lon="13.6300138"><ele>287.20000000000005</ele><time>2026-04-28T15:24:02.16Z</time></trkpt><trkpt lat="37.3287045" lon="13.6301348"><ele>287.6</ele><time>2026-04-28T15:24:03.159Z</time></trkpt><trkpt lat="37.328717" lon="13.6302442"><ele>288.0</ele><time>2026-04-28T15:24:04.16Z</time></trkpt><trkpt lat="37.328747" lon="13.6303768"><ele>288.5</ele><time>2026-04-28T15:24:05.158Z</time></trkpt><trkpt lat="37.3287802" lon="13.6305104"><ele>289.0</ele><time>2026-04-28T15:24:06.16Z</time></trkpt><trkpt lat="37.3288271" lon="13.6306892"><ele>289.5</ele><time>2026-04-28T15:24:07.159Z</time></trkpt><trkpt lat="37.3288737" lon="13.6308769"><ele>290.0</ele><time>2026-04-28T15:24:08.16Z</time></trkpt><trkpt lat="37.328906" lon="13.6310413"><ele>292.4</ele><time>2026-04-28T15:24:09.16Z</time></trkpt><trkpt lat="37.3289383" lon="13.6311879"><ele>294.8</ele><time>2026-04-28T15:24:10.159Z</time></trkpt><trkpt lat="37.3289675" lon="13.6313134"><ele>297.2</ele><time>2026-04-28T15:24:11.16Z</time></trkpt><trkpt lat="37.328995" lon="13.6314244"><ele>299.6</ele><time>2026-04-28T15:24:12.159Z</time></trkpt><trkpt lat="37.3290187" lon="13.6315319"><ele>302.0</ele><time>2026-04-28T15:24:13.16Z</time></trkpt><trkpt lat="37.3290269" lon="13.6316384"><ele>302.0</ele><time>2026-04-28T15:24:14.16Z</time></trkpt><trkpt lat="37.3290292" lon="13.6317642"><ele>302.0</ele><time>2026-04-28T15:24:15.16Z</time></trkpt><trkpt lat="37.329028" lon="13.6319058"><ele>302.0</ele><time>2026-04-28T15:24:16.159Z</time></trkpt><trkpt lat="37.3290223" lon="13.6320812"><ele>302.0</ele><time>2026-04-28T15:24:17.16Z</time></trkpt><trkpt lat="37.3290124" lon="13.6322432"><ele>302.2</ele><time>2026-04-28T15:24:18.159Z</time></trkpt><trkpt lat="37.3290003" lon="13.6323741"><ele>302.4</ele><time>2026-04-28T15:24:19.16Z</time></trkpt><trkpt lat="37.3289806" lon="13.6324919"><ele>302.6</ele><time>2026-04-28T15:24:20.16Z</time></trkpt><trkpt lat="37.3289425" lon="13.6326083"><ele>302.8</ele><time>2026-04-28T15:24:21.16Z</time></trkpt><trkpt lat="37.3288866" lon="13.632714"><ele>303.0</ele><time>2026-04-28T15:24:22.16Z</time></trkpt><trkpt lat="37.3288221" lon="13.6327976"><ele>305.6</ele><time>2026-04-28T15:24:23.159Z</time></trkpt><trkpt lat="37.3287585" lon="13.6328648"><ele>308.20000000000005</ele><time>2026-04-28T15:24:24.159Z</time></trkpt><trkpt lat="37.328679" lon="13.6329474"><ele>310.8</ele><time>2026-04-28T15:24:26.16Z</time></trkpt><trkpt lat="37.3286906" lon="13.6330418"><ele>313.40000000000003</ele><time>2026-04-28T15:24:28.159Z</time></trkpt><trkpt lat="37.3288111" lon="13.633126"><ele>316.0</ele><time>2026-04-28T15:24:30.159Z</time></trkpt><trkpt lat="37.3289035" lon="13.6331765"><ele>316.25</ele><time>2026-04-28T15:24:31.16Z</time></trkpt><trkpt lat="37.3290038" lon="13.6332321"><ele>316.5</ele><time>2026-04-28T15:24:32.16Z</time></trkpt><trkpt lat="37.3291064" lon="13.6333161"><ele>316.75</ele><time>2026-04-28T15:24:33.16Z</time></trkpt><trkpt lat="37.3292064" lon="13.6334206"><ele>317.0</ele><time>2026-04-28T15:24:34.161Z</time></trkpt><trkpt lat="37.3292987" lon="13.6335264"><ele>320.6</ele><time>2026-04-28T15:24:35.16Z</time></trkpt><trkpt lat="37.3293759" lon="13.633642"><ele>324.2</ele><time>2026-04-28T15:24:36.158Z</time></trkpt><trkpt lat="37.3294506" lon="13.6337594"><ele>327.8</ele><time>2026-04-28T15:24:37.16Z</time></trkpt><trkpt lat="37.3295247" lon="13.6338583"><ele>331.4</ele><time>2026-04-28T15:24:38.158Z</time></trkpt><trkpt lat="37.3295956" lon="13.633921"><ele>335.0</ele><time>2026-04-28T15:24:39.159Z</time></trkpt><trkpt lat="37.3296813" lon="13.6339875"><ele>333.6</ele><time>2026-04-28T15:24:40.159Z</time></trkpt><trkpt lat="37.3297685" lon="13.6340498"><ele>332.2</ele><time>2026-04-28T15:24:41.16Z</time></trkpt><trkpt lat="37.3298538" lon="13.634113"><ele>330.79999999999995</ele><time>2026-04-28T15:24:42.161Z</time></trkpt><trkpt lat="37.3299228" lon="13.634196"><ele>329.4</ele><time>2026-04-28T15:24:43.16Z</time></trkpt><trkpt lat="37.3300014" lon="13.6342925"><ele>328.0</ele><time>2026-04-28T15:24:44.159Z</time></trkpt><trkpt lat="37.3300916" lon="13.6343988"><ele>331.5</ele><time>2026-04-28T15:24:45.159Z</time></trkpt><trkpt lat="37.3301971" lon="13.6345153"><ele>335.0</ele><time>2026-04-28T15:24:46.16Z</time></trkpt><trkpt lat="37.330311" lon="13.6346196"><ele>338.5</ele><time>2026-04-28T15:24:47.159Z</time></trkpt><trkpt lat="37.3304188" lon="13.6347134"><ele>342.0</ele><time>2026-04-28T15:24:48.16Z</time></trkpt><trkpt lat="37.330518" lon="13.6347896"><ele>339.25</ele><time>2026-04-28T15:24:49.16Z</time></trkpt><trkpt lat="37.3306124" lon="13.6348668"><ele>336.5</ele><time>2026-04-28T15:24:50.158Z</time></trkpt><trkpt lat="37.3307026" lon="13.6349391"><ele>333.75</ele><time>2026-04-28T15:24:51.159Z</time></trkpt><trkpt lat="37.3308003" lon="13.6350292"><ele>331.0</ele><time>2026-04-28T15:24:52.159Z</time></trkpt><trkpt lat="37.3308893" lon="13.63511"><ele>331.0</ele><time>2026-04-28T15:24:53.16Z</time></trkpt><trkpt lat="37.3309699" lon="13.635188"><ele>331.0</ele><time>2026-04-28T15:24:54.159Z</time></trkpt><trkpt lat="37.3310562" lon="13.6352706"><ele>331.0</ele><time>2026-04-28T15:24:55.159Z</time></trkpt><trkpt lat="37.3311332" lon="13.6353671"><ele>331.0</ele><time>2026-04-28T15:24:56.159Z</time></trkpt><trkpt lat="37.3312155" lon="13.6354827"><ele>331.0</ele><time>2026-04-28T15:24:57.16Z</time></trkpt><trkpt lat="37.3313063" lon="13.6356322"><ele>331.0</ele><time>2026-04-28T15:24:58.159Z</time></trkpt><trkpt lat="37.3313943" lon="13.6358104"><ele>331.0</ele><time>2026-04-28T15:24:59.161Z</time></trkpt><trkpt lat="37.3314749" lon="13.6359797"><ele>331.0</ele><time>2026-04-28T15:25:00.16Z</time></trkpt><trkpt lat="37.3315511" lon="13.636138"><ele>331.75</ele><time>2026-04-28T15:25:01.158Z</time></trkpt><trkpt lat="37.3316197" lon="13.6362829"><ele>332.5</ele><time>2026-04-28T15:25:02.159Z</time></trkpt><trkpt lat="37.3316784" lon="13.6364211"><ele>333.25</ele><time>2026-04-28T15:25:03.159Z</time></trkpt><trkpt lat="37.3317322" lon="13.6365426"><ele>334.0</ele><time>2026-04-28T15:25:04.159Z</time></trkpt><trkpt lat="37.331797" lon="13.6366732"><ele>334.0</ele><time>2026-04-28T15:25:05.159Z</time></trkpt><trkpt lat="37.3318458" lon="13.6368015"><ele>334.0</ele><time>2026-04-28T15:25:06.159Z</time></trkpt><trkpt lat="37.3318897" lon="13.6369296"><ele>334.0</ele><time>2026-04-28T15:25:07.159Z</time></trkpt><trkpt lat="37.3319287" lon="13.6370591"><ele>334.0</ele><time>2026-04-28T15:25:08.159Z</time></trkpt><trkpt lat="37.3319615" lon="13.6371897"><ele>334.0</ele><time>2026-04-28T15:25:09.16Z</time></trkpt><trkpt lat="37.3319941" lon="13.6373191"><ele>335.4</ele><time>2026-04-28T15:25:10.159Z</time></trkpt><trkpt lat="37.3320266" lon="13.6374656"><ele>336.79999999999995</ele><time>2026-04-28T15:25:11.16Z</time></trkpt><trkpt lat="37.332059" lon="13.6376058"><ele>338.20000000000005</ele><time>2026-04-28T15:25:12.159Z</time></trkpt><trkpt lat="37.3320855" lon="13.63773"><ele>339.6</ele><time>2026-04-28T15:25:13.16Z</time></trkpt><trkpt lat="37.3321058" lon="13.6378418"><ele>341.0</ele><time>2026-04-28T15:25:14.16Z</time></trkpt><trkpt lat="37.3321218" lon="13.6379381"><ele>341.0</ele><time>2026-04-28T15:25:15.159Z</time></trkpt><trkpt lat="37.3321422" lon="13.6380166"><ele>341.0</ele><time>2026-04-28T15:25:16.16Z</time></trkpt><trkpt lat="37.3321902" lon="13.6380835"><ele>341.0</ele><time>2026-04-28T15:25:19.159Z</time></trkpt><trkpt lat="37.3322433" lon="13.6380392"><ele>341.0</ele><time>2026-04-28T15:32:45.157Z</time></trkpt><trkpt lat="37.3322113" lon="13.6381256"><ele>341.0</ele><time>2026-04-28T15:32:55.159Z</time></trkpt><trkpt lat="37.3321766" lon="13.6382065"><ele>341.0</ele><time>2026-04-28T15:32:58.158Z</time></trkpt><trkpt lat="37.3321972" lon="13.6383649"><ele>339.85714285714283</ele><time>2026-04-28T15:33:00.159Z</time></trkpt><trkpt lat="37.3322235" lon="13.638462"><ele>338.7142857142857</ele><time>2026-04-28T15:33:01.158Z</time></trkpt><trkpt lat="37.332251" lon="13.6385486"><ele>337.57142857142856</ele><time>2026-04-28T15:33:02.157Z</time></trkpt><trkpt lat="37.3322806" lon="13.6386201"><ele>336.42857142857144</ele><time>2026-04-28T15:33:03.16Z</time></trkpt><trkpt lat="37.3323108" lon="13.6386939"><ele>335.2857142857143</ele><time>2026-04-28T15:33:04.158Z</time></trkpt><trkpt lat="37.3323483" lon="13.6387718"><ele>334.14285714285717</ele><time>2026-04-28T15:33:05.158Z</time></trkpt><trkpt lat="37.3323869" lon="13.638861"><ele>333.0</ele><time>2026-04-28T15:33:06.159Z</time></trkpt><trkpt lat="37.33244" lon="13.6389523"><ele>333.0</ele><time>2026-04-28T15:33:07.159Z</time></trkpt><trkpt lat="37.3324983" lon="13.639055"><ele>333.0</ele><time>2026-04-28T15:33:08.157Z</time></trkpt><trkpt lat="37.3325472" lon="13.6391561"><ele>333.0</ele><time>2026-04-28T15:33:09.157Z</time></trkpt><trkpt lat="37.3325935" lon="13.6392444"><ele>333.0</ele><time>2026-04-28T15:33:10.158Z</time></trkpt><trkpt lat="37.3326314" lon="13.6393317"><ele>333.0</ele><time>2026-04-28T15:33:11.158Z</time></trkpt><trkpt lat="37.3326676" lon="13.6394002"><ele>333.0</ele><time>2026-04-28T15:33:12.158Z</time></trkpt><trkpt lat="37.3327182" lon="13.6395282"><ele>333.3333333333333</ele><time>2026-04-28T15:33:14.159Z</time></trkpt><trkpt lat="37.3327609" lon="13.6396283"><ele>333.6666666666667</ele><time>2026-04-28T15:33:16.158Z</time></trkpt><trkpt lat="37.3328025" lon="13.6397143"><ele>334.0</ele><time>2026-04-28T15:33:18.159Z</time></trkpt><trkpt lat="37.3328346" lon="13.6397904"><ele>334.33333333333337</ele><time>2026-04-28T15:33:20.159Z</time></trkpt><trkpt lat="37.3328797" lon="13.6398763"><ele>334.6666666666667</ele><time>2026-04-28T15:34:04.159Z</time></trkpt><trkpt lat="37.3329588" lon="13.6400026"><ele>335.0</ele><time>2026-04-28T15:34:06.159Z</time></trkpt><trkpt lat="37.3330144" lon="13.6401057"><ele>334.0</ele><time>2026-04-28T15:34:07.16Z</time></trkpt><trkpt lat="37.3330676" lon="13.6402224"><ele>333.0</ele><time>2026-04-28T15:34:08.157Z</time></trkpt><trkpt lat="37.3331201" lon="13.6403633"><ele>332.0</ele><time>2026-04-28T15:34:09.159Z</time></trkpt><trkpt lat="37.3331659" lon="13.6404934"><ele>331.0</ele><time>2026-04-28T15:34:10.159Z</time></trkpt><trkpt lat="37.3331992" lon="13.6406189"><ele>330.0</ele><time>2026-04-28T15:34:11.16Z</time></trkpt><trkpt lat="37.333235" lon="13.6407604"><ele>330.0</ele><time>2026-04-28T15:34:12.159Z</time></trkpt><trkpt lat="37.3332641" lon="13.6409045"><ele>330.0</ele><time>2026-04-28T15:34:13.158Z</time></trkpt><trkpt lat="37.3332777" lon="13.6410545"><ele>330.0</ele><time>2026-04-28T15:34:14.16Z</time></trkpt><trkpt lat="37.3332887" lon="13.6412171"><ele>330.0</ele><time>2026-04-28T15:34:15.159Z</time></trkpt><trkpt lat="37.3332968" lon="13.6413805"><ele>330.75</ele><time>2026-04-28T15:34:16.159Z</time></trkpt><trkpt lat="37.3333069" lon="13.6415479"><ele>331.5</ele><time>2026-04-28T15:34:17.159Z</time></trkpt><trkpt lat="37.3333083" lon="13.6417107"><ele>332.25</ele><time>2026-04-28T15:34:18.158Z</time></trkpt><trkpt lat="37.3333112" lon="13.6418806"><ele>333.0</ele><time>2026-04-28T15:34:19.158Z</time></trkpt><trkpt lat="37.333319" lon="13.6420543"><ele>334.0</ele><time>2026-04-28T15:34:20.159Z</time></trkpt><trkpt lat="37.3333274" lon="13.6422153"><ele>335.0</ele><time>2026-04-28T15:34:21.157Z</time></trkpt><trkpt lat="37.3333294" lon="13.6423815"><ele>336.0</ele><time>2026-04-28T15:34:22.158Z</time></trkpt><trkpt lat="37.3333275" lon="13.6425475"><ele>337.0</ele><time>2026-04-28T15:34:23.159Z</time></trkpt><trkpt lat="37.3333214" lon="13.6427045"><ele>338.0</ele><time>2026-04-28T15:34:24.157Z</time></trkpt><trkpt lat="37.3333175" lon="13.6428466"><ele>339.0</ele><time>2026-04-28T15:34:25.158Z</time></trkpt><trkpt lat="37.333321" lon="13.6429822"><ele>340.0</ele><time>2026-04-28T15:34:26.158Z</time></trkpt><trkpt lat="37.3333314" lon="13.6431157"><ele>341.0</ele><time>2026-04-28T15:34:27.158Z</time></trkpt><trkpt lat="37.3333351" lon="13.6432339"><ele>342.0</ele><time>2026-04-28T15:34:28.158Z</time></trkpt><trkpt lat="37.3333317" lon="13.6433632"><ele>342.0</ele><time>2026-04-28T15:34:29.158Z</time></trkpt><trkpt lat="37.333326" lon="13.6434871"><ele>342.0</ele><time>2026-04-28T15:34:30.158Z</time></trkpt><trkpt lat="37.3333251" lon="13.6436093"><ele>342.0</ele><time>2026-04-28T15:34:31.157Z</time></trkpt><trkpt lat="37.3333344" lon="13.6437367"><ele>342.0</ele><time>2026-04-28T15:34:32.157Z</time></trkpt><trkpt lat="37.333342" lon="13.6438716"><ele>342.0</ele><time>2026-04-28T15:34:33.158Z</time></trkpt><trkpt lat="37.3333513" lon="13.6439937"><ele>343.6</ele><time>2026-04-28T15:34:34.158Z</time></trkpt><trkpt lat="37.3333743" lon="13.6441117"><ele>345.20000000000005</ele><time>2026-04-28T15:34:35.159Z</time></trkpt><trkpt lat="37.3333888" lon="13.6442315"><ele>346.8</ele><time>2026-04-28T15:34:36.159Z</time></trkpt><trkpt lat="37.3334057" lon="13.6443489"><ele>348.4</ele><time>2026-04-28T15:34:37.158Z</time></trkpt><trkpt lat="37.3334156" lon="13.6444658"><ele>350.0</ele><time>2026-04-28T15:34:38.159Z</time></trkpt><trkpt lat="37.333436" lon="13.6445822"><ele>351.2</ele><time>2026-04-28T15:34:39.158Z</time></trkpt><trkpt lat="37.3334577" lon="13.6447169"><ele>352.4</ele><time>2026-04-28T15:34:40.16Z</time></trkpt><trkpt lat="37.3334857" lon="13.6448537"><ele>353.6</ele><time>2026-04-28T15:34:41.158Z</time></trkpt><trkpt lat="37.3335003" lon="13.6449764"><ele>354.8</ele><time>2026-04-28T15:34:42.158Z</time></trkpt><trkpt lat="37.333524" lon="13.6450955"><ele>356.0</ele><time>2026-04-28T15:34:43.159Z</time></trkpt><trkpt lat="37.3335405" lon="13.6451923"><ele>356.83333333333337</ele><time>2026-04-28T15:34:44.158Z</time></trkpt><trkpt lat="37.3335584" lon="13.6452956"><ele>357.6666666666667</ele><time>2026-04-28T15:34:45.159Z</time></trkpt><trkpt lat="37.3335866" lon="13.6453767"><ele>358.5</ele><time>2026-04-28T15:34:46.159Z</time></trkpt><trkpt lat="37.333621" lon="13.6454614"><ele>359.3333333333333</ele><time>2026-04-28T15:34:47.157Z</time></trkpt><trkpt lat="37.3336748" lon="13.6455487"><ele>360.16666666666663</ele><time>2026-04-28T15:34:48.158Z</time></trkpt><trkpt lat="37.3337324" lon="13.6456346"><ele>361.0</ele><time>2026-04-28T15:34:49.158Z</time></trkpt><trkpt lat="37.3337932" lon="13.6457192"><ele>361.0</ele><time>2026-04-28T15:34:50.158Z</time></trkpt><trkpt lat="37.33385" lon="13.6458098"><ele>361.0</ele><time>2026-04-28T15:34:51.157Z</time></trkpt><trkpt lat="37.3339067" lon="13.6459166"><ele>361.0</ele><time>2026-04-28T15:34:52.158Z</time></trkpt><trkpt lat="37.3339726" lon="13.6460153"><ele>361.0</ele><time>2026-04-28T15:34:53.159Z</time></trkpt><trkpt lat="37.3340317" lon="13.6460958"><ele>361.0</ele><time>2026-04-28T15:34:54.157Z</time></trkpt><trkpt lat="37.3340877" lon="13.646171"><ele>358.6</ele><time>2026-04-28T15:34:55.158Z</time></trkpt><trkpt lat="37.3341378" lon="13.646236"><ele>356.20000000000005</ele><time>2026-04-28T15:34:56.158Z</time></trkpt><trkpt lat="37.3341896" lon="13.6463195"><ele>353.79999999999995</ele><time>2026-04-28T15:34:57.158Z</time></trkpt><trkpt lat="37.3342453" lon="13.6464205"><ele>351.4</ele><time>2026-04-28T15:34:58.158Z</time></trkpt><trkpt lat="37.334304" lon="13.6465457"><ele>349.0</ele><time>2026-04-28T15:34:59.158Z</time></trkpt><trkpt lat="37.3343559" lon="13.6466658"><ele>349.0</ele><time>2026-04-28T15:35:00.158Z</time></trkpt><trkpt lat="37.3344064" lon="13.6467891"><ele>349.0</ele><time>2026-04-28T15:35:01.157Z</time></trkpt><trkpt lat="37.3344536" lon="13.6469034"><ele>349.0</ele><time>2026-04-28T15:35:02.157Z</time></trkpt><trkpt lat="37.3345007" lon="13.6470306"><ele>349.0</ele><time>2026-04-28T15:35:03.159Z</time></trkpt><trkpt lat="37.3345446" lon="13.6471698"><ele>349.0</ele><time>2026-04-28T15:35:04.157Z</time></trkpt><trkpt lat="37.3345752" lon="13.6472874"><ele>349.5</ele><time>2026-04-28T15:35:05.157Z</time></trkpt><trkpt lat="37.3345927" lon="13.6473887"><ele>350.0</ele><time>2026-04-28T15:35:06.159Z</time></trkpt><trkpt lat="37.3345999" lon="13.6474955"><ele>350.5</ele><time>2026-04-28T15:35:07.158Z</time></trkpt><trkpt lat="37.3345939" lon="13.6476017"><ele>351.0</ele><time>2026-04-28T15:35:08.159Z</time></trkpt><trkpt lat="37.3345703" lon="13.6477027"><ele>351.5</ele><time>2026-04-28T15:35:09.157Z</time></trkpt><trkpt lat="37.33453" lon="13.6478159"><ele>352.0</ele><time>2026-04-28T15:35:10.157Z</time></trkpt><trkpt lat="37.334477" lon="13.64792"><ele>352.0</ele><time>2026-04-28T15:35:11.157Z</time></trkpt><trkpt lat="37.334426" lon="13.6480038"><ele>352.0</ele><time>2026-04-28T15:35:12.158Z</time></trkpt><trkpt lat="37.3343695" lon="13.6481144"><ele>352.0</ele><time>2026-04-28T15:35:14.157Z</time></trkpt><trkpt lat="37.3344075" lon="13.6481776"><ele>352.0</ele><time>2026-04-28T15:35:16.159Z</time></trkpt><trkpt lat="37.3344681" lon="13.6482541"><ele>352.0</ele><time>2026-04-28T15:35:18.158Z</time></trkpt><trkpt lat="37.3345381" lon="13.6483627"><ele>352.0</ele><time>2026-04-28T15:35:20.158Z</time></trkpt><trkpt lat="37.334629" lon="13.6484542"><ele>352.0</ele><time>2026-04-28T15:35:22.158Z</time></trkpt><trkpt lat="37.334683" lon="13.6484989"><ele>352.0</ele><time>2026-04-28T15:35:23.158Z</time></trkpt><trkpt lat="37.334753" lon="13.6485505"><ele>352.0</ele><time>2026-04-28T15:35:24.158Z</time></trkpt><trkpt lat="37.3348222" lon="13.6485994"><ele>352.0</ele><time>2026-04-28T15:35:25.16Z</time></trkpt><trkpt lat="37.3348904" lon="13.6486459"><ele>352.0</ele><time>2026-04-28T15:35:26.158Z</time></trkpt><trkpt lat="37.3349638" lon="13.6486933"><ele>352.0</ele><time>2026-04-28T15:35:27.157Z</time></trkpt><trkpt lat="37.3350359" lon="13.6487439"><ele>350.0</ele><time>2026-04-28T15:35:28.158Z</time></trkpt><trkpt lat="37.3351022" lon="13.6487966"><ele>348.0</ele><time>2026-04-28T15:35:29.158Z</time></trkpt><trkpt lat="37.3351561" lon="13.6488583"><ele>346.0</ele><time>2026-04-28T15:35:30.159Z</time></trkpt><trkpt lat="37.3352098" lon="13.6489193"><ele>344.0</ele><time>2026-04-28T15:35:31.158Z</time></trkpt><trkpt lat="37.3352578" lon="13.6489829"><ele>342.0</ele><time>2026-04-28T15:35:32.157Z</time></trkpt><trkpt lat="37.3353097" lon="13.649057"><ele>340.0</ele><time>2026-04-28T15:35:33.158Z</time></trkpt><trkpt lat="37.3353548" lon="13.6491345"><ele>338.0</ele><time>2026-04-28T15:35:34.16Z</time></trkpt><trkpt lat="37.3353974" lon="13.6492092"><ele>338.0</ele><time>2026-04-28T15:35:35.158Z</time></trkpt><trkpt lat="37.3354394" lon="13.6492956"><ele>338.0</ele><time>2026-04-28T15:35:36.158Z</time></trkpt><trkpt lat="37.3354833" lon="13.6493828"><ele>338.0</ele><time>2026-04-28T15:35:37.159Z</time></trkpt><trkpt lat="37.3355268" lon="13.6494662"><ele>338.0</ele><time>2026-04-28T15:35:38.158Z</time></trkpt><trkpt lat="37.3355606" lon="13.6495434"><ele>338.0</ele><time>2026-04-28T15:35:39.157Z</time></trkpt><trkpt lat="37.3355896" lon="13.6496138"><ele>338.0</ele><time>2026-04-28T15:35:40.158Z</time></trkpt><trkpt lat="37.3356168" lon="13.6497383"><ele>336.0</ele><time>2026-04-28T15:35:42.157Z</time></trkpt><trkpt lat="37.3356234" lon="13.6498486"><ele>334.0</ele><time>2026-04-28T15:35:44.158Z</time></trkpt><trkpt lat="37.3356571" lon="13.6499652"><ele>332.0</ele><time>2026-04-28T15:35:46.158Z</time></trkpt><trkpt lat="37.335691" lon="13.6500803"><ele>330.0</ele><time>2026-04-28T15:35:48.159Z</time></trkpt><trkpt lat="37.3357025" lon="13.6502079"><ele>328.0</ele><time>2026-04-28T15:35:50.158Z</time></trkpt><trkpt lat="37.3357204" lon="13.6503528"><ele>327.66666666666663</ele><time>2026-04-28T15:35:52.157Z</time></trkpt><trkpt lat="37.3357444" lon="13.6504884"><ele>327.3333333333333</ele><time>2026-04-28T15:35:54.157Z</time></trkpt><trkpt lat="37.3357542" lon="13.6506227"><ele>327.0</ele><time>2026-04-28T15:35:56.157Z</time></trkpt><trkpt lat="37.3357596" lon="13.6507044"><ele>326.6666666666667</ele><time>2026-04-28T15:35:57.157Z</time></trkpt><trkpt lat="37.3357661" lon="13.6507905"><ele>326.33333333333337</ele><time>2026-04-28T15:35:58.158Z</time></trkpt><trkpt lat="37.3357881" lon="13.6509091"><ele>326.0</ele><time>2026-04-28T15:35:59.158Z</time></trkpt><trkpt lat="37.3358081" lon="13.6510281"><ele>325.6</ele><time>2026-04-28T15:36:00.158Z</time></trkpt><trkpt lat="37.3358196" lon="13.6511468"><ele>325.20000000000005</ele><time>2026-04-28T15:36:01.158Z</time></trkpt><trkpt lat="37.3358295" lon="13.6512705"><ele>324.79999999999995</ele><time>2026-04-28T15:36:02.157Z</time></trkpt><trkpt lat="37.3358326" lon="13.651389"><ele>324.4</ele><time>2026-04-28T15:36:03.157Z</time></trkpt><trkpt lat="37.3358308" lon="13.6514971"><ele>324.0</ele><time>2026-04-28T15:36:04.158Z</time></trkpt><trkpt lat="37.3358378" lon="13.6516101"><ele>324.0</ele><time>2026-04-28T15:36:05.157Z</time></trkpt><trkpt lat="37.3358466" lon="13.6517125"><ele>324.0</ele><time>2026-04-28T15:36:06.157Z</time></trkpt><trkpt lat="37.3358537" lon="13.6518078"><ele>324.0</ele><time>2026-04-28T15:36:07.157Z</time></trkpt><trkpt lat="37.3358581" lon="13.6518999"><ele>324.0</ele><time>2026-04-28T15:36:08.158Z</time></trkpt><trkpt lat="37.3358527" lon="13.6519843"><ele>324.0</ele><time>2026-04-28T15:36:09.158Z</time></trkpt><trkpt lat="37.3358492" lon="13.6520659"><ele>324.0</ele><time>2026-04-28T15:36:10.158Z</time></trkpt><trkpt lat="37.3358657" lon="13.652235"><ele>323.8571428571429</ele><time>2026-04-28T15:36:12.158Z</time></trkpt><trkpt lat="37.3358946" lon="13.6523137"><ele>323.7142857142857</ele><time>2026-04-28T15:36:13.158Z</time></trkpt><trkpt lat="37.3359167" lon="13.6523944"><ele>323.57142857142856</ele><time>2026-04-28T15:36:14.159Z</time></trkpt><trkpt lat="37.3359341" lon="13.6524858"><ele>323.42857142857144</ele><time>2026-04-28T15:36:15.158Z</time></trkpt><trkpt lat="37.3359452" lon="13.6525845"><ele>323.2857142857143</ele><time>2026-04-28T15:36:16.157Z</time></trkpt><trkpt lat="37.3359582" lon="13.652677"><ele>323.14285714285717</ele><time>2026-04-28T15:36:17.157Z</time></trkpt><trkpt lat="37.3359661" lon="13.6527691"><ele>323.0</ele><time>2026-04-28T15:36:18.157Z</time></trkpt><trkpt lat="37.33597" lon="13.6529247"><ele>322.2</ele><time>2026-04-28T15:36:20.158Z</time></trkpt><trkpt lat="37.3359637" lon="13.6530718"><ele>321.4</ele><time>2026-04-28T15:36:22.157Z</time></trkpt><trkpt lat="37.3359592" lon="13.6532072"><ele>320.59999999999997</ele><time>2026-04-28T15:36:24.158Z</time></trkpt><trkpt lat="37.335963" lon="13.6533367"><ele>319.79999999999995</ele><time>2026-04-28T15:36:26.159Z</time></trkpt><trkpt lat="37.3359916" lon="13.6534088"><ele>319.0</ele><time>2026-04-28T15:36:27.157Z</time></trkpt><trkpt lat="37.3360404" lon="13.6535517"><ele>318.5</ele><time>2026-04-28T15:36:29.159Z</time></trkpt><trkpt lat="37.3360565" lon="13.6536425"><ele>318.0</ele><time>2026-04-28T15:36:30.158Z</time></trkpt><trkpt lat="37.3360677" lon="13.653737"><ele>317.5</ele><time>2026-04-28T15:36:31.158Z</time></trkpt><trkpt lat="37.3360792" lon="13.6538283"><ele>317.0</ele><time>2026-04-28T15:36:32.157Z</time></trkpt><trkpt lat="37.3360958" lon="13.6539426"><ele>316.5</ele><time>2026-04-28T15:36:33.158Z</time></trkpt><trkpt lat="37.3361113" lon="13.6540499"><ele>316.0</ele><time>2026-04-28T15:36:34.158Z</time></trkpt><trkpt lat="37.336132" lon="13.6541543"><ele>316.0</ele><time>2026-04-28T15:36:35.158Z</time></trkpt><trkpt lat="37.3361571" lon="13.6542651"><ele>316.0</ele><time>2026-04-28T15:36:36.158Z</time></trkpt><trkpt lat="37.3361783" lon="13.6543621"><ele>316.0</ele><time>2026-04-28T15:36:37.159Z</time></trkpt><trkpt lat="37.3361924" lon="13.6544588"><ele>316.0</ele><time>2026-04-28T15:36:38.158Z</time></trkpt><trkpt lat="37.3362263" lon="13.6545439"><ele>316.0</ele><time>2026-04-28T15:36:39.158Z</time></trkpt><trkpt lat="37.3362396" lon="13.6546302"><ele>316.0</ele><time>2026-04-28T15:36:40.157Z</time></trkpt><trkpt lat="37.3362622" lon="13.6547356"><ele>315.42857142857144</ele><time>2026-04-28T15:36:41.158Z</time></trkpt><trkpt lat="37.3362772" lon="13.6548374"><ele>314.8571428571429</ele><time>2026-04-28T15:36:42.157Z</time></trkpt><trkpt lat="37.3362867" lon="13.6549377"><ele>314.28571428571433</ele><time>2026-04-28T15:36:43.157Z</time></trkpt><trkpt lat="37.3362779" lon="13.6550211"><ele>313.7142857142857</ele><time>2026-04-28T15:36:44.158Z</time></trkpt><trkpt lat="37.3362735" lon="13.6551081"><ele>313.1428571428571</ele><time>2026-04-28T15:36:45.159Z</time></trkpt><trkpt lat="37.3362559" lon="13.6551897"><ele>312.5714285714286</ele><time>2026-04-28T15:36:46.158Z</time></trkpt><trkpt lat="37.3362405" lon="13.6552787"><ele>312.0</ele><time>2026-04-28T15:36:47.157Z</time></trkpt><trkpt lat="37.3362235" lon="13.6553609"><ele>311.6666666666667</ele><time>2026-04-28T15:36:48.158Z</time></trkpt><trkpt lat="37.3361969" lon="13.6554405"><ele>311.3333333333333</ele><time>2026-04-28T15:36:49.157Z</time></trkpt><trkpt lat="37.3361769" lon="13.6555236"><ele>311.0</ele><time>2026-04-28T15:36:50.157Z</time></trkpt><trkpt lat="37.3361573" lon="13.6556113"><ele>310.66666666666663</ele><time>2026-04-28T15:36:51.159Z</time></trkpt><trkpt lat="37.3361423" lon="13.6557002"><ele>310.3333333333333</ele><time>2026-04-28T15:36:52.157Z</time></trkpt><trkpt lat="37.3361349" lon="13.6557989"><ele>310.0</ele><time>2026-04-28T15:36:53.158Z</time></trkpt><trkpt lat="37.336135" lon="13.6559206"><ele>310.0</ele><time>2026-04-28T15:36:54.159Z</time></trkpt><trkpt lat="37.3361388" lon="13.6560291"><ele>310.0</ele><time>2026-04-28T15:36:55.157Z</time></trkpt><trkpt lat="37.3361477" lon="13.6561302"><ele>310.0</ele><time>2026-04-28T15:36:56.158Z</time></trkpt><trkpt lat="37.3361615" lon="13.6562213"><ele>310.0</ele><time>2026-04-28T15:36:57.158Z</time></trkpt><trkpt lat="37.3361782" lon="13.6563091"><ele>310.0</ele><time>2026-04-28T15:36:58.157Z</time></trkpt><trkpt lat="37.3361857" lon="13.6563959"><ele>310.0</ele><time>2026-04-28T15:36:59.159Z</time></trkpt><trkpt lat="37.3361873" lon="13.6564828"><ele>309.2857142857143</ele><time>2026-04-28T15:37:00.157Z</time></trkpt><trkpt lat="37.3361996" lon="13.6565779"><ele>308.57142857142856</ele><time>2026-04-28T15:37:01.158Z</time></trkpt><trkpt lat="37.3362078" lon="13.6566749"><ele>307.8571428571429</ele><time>2026-04-28T15:37:02.158Z</time></trkpt><trkpt lat="37.3362179" lon="13.6567629"><ele>307.1428571428571</ele><time>2026-04-28T15:37:03.158Z</time></trkpt><trkpt lat="37.3362339" lon="13.6568479"><ele>306.4285714285714</ele><time>2026-04-28T15:37:04.157Z</time></trkpt><trkpt lat="37.3362318" lon="13.6569272"><ele>305.7142857142857</ele><time>2026-04-28T15:37:05.157Z</time></trkpt><trkpt lat="37.3362095" lon="13.6570058"><ele>305.0</ele><time>2026-04-28T15:37:06.157Z</time></trkpt><trkpt lat="37.3361825" lon="13.6570847"><ele>303.5</ele><time>2026-04-28T15:37:07.158Z</time></trkpt><trkpt lat="37.3361523" lon="13.6571561"><ele>302.0</ele><time>2026-04-28T15:37:08.158Z</time></trkpt><trkpt lat="37.3361255" lon="13.6572287"><ele>300.5</ele><time>2026-04-28T15:37:09.157Z</time></trkpt><trkpt lat="37.3361059" lon="13.657304"><ele>299.0</ele><time>2026-04-28T15:37:10.158Z</time></trkpt><trkpt lat="37.3360596" lon="13.6574415"><ele>297.5</ele><time>2026-04-28T15:37:12.159Z</time></trkpt><trkpt lat="37.3360002" lon="13.6575738"><ele>296.0</ele><time>2026-04-28T15:37:14.158Z</time></trkpt><trkpt lat="37.3359274" lon="13.6576939"><ele>295.8</ele><time>2026-04-28T15:37:16.157Z</time></trkpt><trkpt lat="37.3358531" lon="13.6577958"><ele>295.6</ele><time>2026-04-28T15:37:18.159Z</time></trkpt><trkpt lat="37.3357916" lon="13.657872"><ele>295.4</ele><time>2026-04-28T15:37:20.157Z</time></trkpt><trkpt lat="37.3356684" lon="13.6579485"><ele>295.2</ele><time>2026-04-28T15:37:22.158Z</time></trkpt><trkpt lat="37.3355673" lon="13.6579925"><ele>295.0</ele><time>2026-04-28T15:37:23.157Z</time></trkpt><trkpt lat="37.3354473" lon="13.6580349"><ele>295.0</ele><time>2026-04-28T15:37:24.158Z</time></trkpt><trkpt lat="37.3353101" lon="13.6580691"><ele>295.0</ele><time>2026-04-28T15:37:25.158Z</time></trkpt><trkpt lat="37.3351555" lon="13.6580872"><ele>295.0</ele><time>2026-04-28T15:37:26.157Z</time></trkpt><trkpt lat="37.334995" lon="13.6581005"><ele>295.0</ele><time>2026-04-28T15:37:27.158Z</time></trkpt><trkpt lat="37.3348314" lon="13.6581145"><ele>295.0</ele><time>2026-04-28T15:37:28.157Z</time></trkpt><trkpt lat="37.3346798" lon="13.6581476"><ele>295.0</ele><time>2026-04-28T15:37:29.158Z</time></trkpt><trkpt lat="37.3345401" lon="13.6581982"><ele>297.66666666666663</ele><time>2026-04-28T15:37:30.159Z</time></trkpt><trkpt lat="37.3344138" lon="13.6582997"><ele>300.3333333333333</ele><time>2026-04-28T15:37:31.157Z</time></trkpt><trkpt lat="37.3342775" lon="13.6584112"><ele>303.0</ele><time>2026-04-28T15:37:32.157Z</time></trkpt><trkpt lat="37.3341331" lon="13.6585275"><ele>302.6666666666667</ele><time>2026-04-28T15:37:33.159Z</time></trkpt><trkpt lat="37.3339881" lon="13.6586226"><ele>302.33333333333337</ele><time>2026-04-28T15:37:34.157Z</time></trkpt><trkpt lat="37.333841" lon="13.6586974"><ele>302.0</ele><time>2026-04-28T15:37:35.158Z</time></trkpt><trkpt lat="37.3336667" lon="13.6587563"><ele>303.25</ele><time>2026-04-28T15:37:36.157Z</time></trkpt><trkpt lat="37.3335065" lon="13.6588209"><ele>304.5</ele><time>2026-04-28T15:37:37.159Z</time></trkpt><trkpt lat="37.3333621" lon="13.6588752"><ele>305.75</ele><time>2026-04-28T15:37:38.158Z</time></trkpt><trkpt lat="37.3332402" lon="13.6589216"><ele>307.0</ele><time>2026-04-28T15:37:39.158Z</time></trkpt><trkpt lat="37.3331269" lon="13.6589583"><ele>308.5</ele><time>2026-04-28T15:37:40.158Z</time></trkpt><trkpt lat="37.3330004" lon="13.6590032"><ele>310.0</ele><time>2026-04-28T15:37:41.158Z</time></trkpt><trkpt lat="37.3328653" lon="13.6590536"><ele>311.5</ele><time>2026-04-28T15:37:42.158Z</time></trkpt><trkpt lat="37.3327417" lon="13.6590975"><ele>313.0</ele><time>2026-04-28T15:37:43.158Z</time></trkpt><trkpt lat="37.3326336" lon="13.6591383"><ele>313.0</ele><time>2026-04-28T15:37:44.158Z</time></trkpt><trkpt lat="37.3325433" lon="13.6591692"><ele>313.0</ele><time>2026-04-28T15:37:45.158Z</time></trkpt><trkpt lat="37.3324592" lon="13.6591988"><ele>313.0</ele><time>2026-04-28T15:37:46.157Z</time></trkpt><trkpt lat="37.3323816" lon="13.6592303"><ele>313.0</ele><time>2026-04-28T15:37:47.157Z</time></trkpt><trkpt lat="37.3322976" lon="13.659265"><ele>313.0</ele><time>2026-04-28T15:37:48.157Z</time></trkpt><trkpt lat="37.332218" lon="13.6593014"><ele>313.0</ele><time>2026-04-28T15:37:49.158Z</time></trkpt><trkpt lat="37.3321408" lon="13.6593375"><ele>314.0</ele><time>2026-04-28T15:37:50.158Z</time></trkpt><trkpt lat="37.3320736" lon="13.6593747"><ele>315.0</ele><time>2026-04-28T15:37:51.157Z</time></trkpt><trkpt lat="37.3320052" lon="13.6594207"><ele>316.0</ele><time>2026-04-28T15:37:52.159Z</time></trkpt><trkpt lat="37.3319365" lon="13.6594679"><ele>317.0</ele><time>2026-04-28T15:37:53.157Z</time></trkpt><trkpt lat="37.3318627" lon="13.6595275"><ele>318.0</ele><time>2026-04-28T15:37:54.158Z</time></trkpt><trkpt lat="37.3318032" lon="13.6595964"><ele>319.0</ele><time>2026-04-28T15:37:55.159Z</time></trkpt><trkpt lat="37.3317378" lon="13.6596741"><ele>319.4</ele><time>2026-04-28T15:37:56.158Z</time></trkpt><trkpt lat="37.3316707" lon="13.6597496"><ele>319.79999999999995</ele><time>2026-04-28T15:37:57.158Z</time></trkpt><trkpt lat="37.3316068" lon="13.6598308"><ele>320.20000000000005</ele><time>2026-04-28T15:37:58.158Z</time></trkpt><trkpt lat="37.3315395" lon="13.6599162"><ele>320.6</ele><time>2026-04-28T15:37:59.157Z</time></trkpt><trkpt lat="37.3314704" lon="13.6600009"><ele>321.0</ele><time>2026-04-28T15:38:00.158Z</time></trkpt><trkpt lat="37.331405" lon="13.6600783"><ele>321.3333333333333</ele><time>2026-04-28T15:38:01.157Z</time></trkpt><trkpt lat="37.3313326" lon="13.6601578"><ele>321.6666666666667</ele><time>2026-04-28T15:38:02.158Z</time></trkpt><trkpt lat="37.3312679" lon="13.6602384"><ele>322.0</ele><time>2026-04-28T15:38:03.158Z</time></trkpt><trkpt lat="37.3312043" lon="13.6603112"><ele>322.33333333333337</ele><time>2026-04-28T15:38:04.157Z</time></trkpt><trkpt lat="37.3311463" lon="13.6603807"><ele>322.6666666666667</ele><time>2026-04-28T15:38:05.157Z</time></trkpt><trkpt lat="37.3310991" lon="13.6604598"><ele>323.0</ele><time>2026-04-28T15:38:06.158Z</time></trkpt><trkpt lat="37.3310938" lon="13.6606046"><ele>323.0</ele><time>2026-04-28T15:38:08.158Z</time></trkpt><trkpt lat="37.3312156" lon="13.6606823"><ele>323.0</ele><time>2026-04-28T15:38:10.157Z</time></trkpt><trkpt lat="37.3313217" lon="13.6607018"><ele>323.0</ele><time>2026-04-28T15:38:11.158Z</time></trkpt><trkpt lat="37.3314484" lon="13.6607118"><ele>323.0</ele><time>2026-04-28T15:38:12.158Z</time></trkpt><trkpt lat="37.3315868" lon="13.6607209"><ele>323.0</ele><time>2026-04-28T15:38:13.158Z</time></trkpt><trkpt lat="37.3317409" lon="13.6607313"><ele>323.0</ele><time>2026-04-28T15:38:14.157Z</time></trkpt><trkpt lat="37.3318944" lon="13.6607468"><ele>323.0</ele><time>2026-04-28T15:38:15.157Z</time></trkpt><trkpt lat="37.3320364" lon="13.6607712"><ele>323.0</ele><time>2026-04-28T15:38:16.159Z</time></trkpt><trkpt lat="37.3321752" lon="13.6608079"><ele>323.0</ele><time>2026-04-28T15:38:17.158Z</time></trkpt><trkpt lat="37.3322904" lon="13.6608748"><ele>323.0</ele><time>2026-04-28T15:38:18.157Z</time></trkpt><trkpt lat="37.3324023" lon="13.6609655"><ele>323.0</ele><time>2026-04-28T15:38:19.157Z</time></trkpt><trkpt lat="37.3325129" lon="13.6610717"><ele>325.33333333333337</ele><time>2026-04-28T15:38:20.157Z</time></trkpt><trkpt lat="37.3326326" lon="13.6612139"><ele>327.6666666666667</ele><time>2026-04-28T15:38:21.157Z</time></trkpt><trkpt lat="37.332751" lon="13.661377"><ele>330.0</ele><time>2026-04-28T15:38:22.158Z</time></trkpt><trkpt lat="37.332886" lon="13.6615485"><ele>330.0</ele><time>2026-04-28T15:38:23.157Z</time></trkpt><trkpt lat="37.3330266" lon="13.6617252"><ele>330.0</ele><time>2026-04-28T15:38:24.157Z</time></trkpt><trkpt lat="37.3331495" lon="13.6618812"><ele>330.0</ele><time>2026-04-28T15:38:25.158Z</time></trkpt><trkpt lat="37.3332658" lon="13.6620233"><ele>330.75</ele><time>2026-04-28T15:38:26.158Z</time></trkpt><trkpt lat="37.3333709" lon="13.6621573"><ele>331.5</ele><time>2026-04-28T15:38:27.157Z</time></trkpt><trkpt lat="37.3334671" lon="13.6622943"><ele>332.25</ele><time>2026-04-28T15:38:28.157Z</time></trkpt><trkpt lat="37.3335537" lon="13.6624348"><ele>333.0</ele><time>2026-04-28T15:38:29.158Z</time></trkpt><trkpt lat="37.3336189" lon="13.6626146"><ele>332.0</ele><time>2026-04-28T15:38:30.157Z</time></trkpt><trkpt lat="37.333693" lon="13.6628091"><ele>331.0</ele><time>2026-04-28T15:38:31.158Z</time></trkpt><trkpt lat="37.3337696" lon="13.6630117"><ele>330.0</ele><time>2026-04-28T15:38:32.158Z</time></trkpt><trkpt lat="37.3338559" lon="13.6632468"><ele>329.0</ele><time>2026-04-28T15:38:33.157Z</time></trkpt><trkpt lat="37.3339409" lon="13.6634842"><ele>328.0</ele><time>2026-04-28T15:38:34.158Z</time></trkpt><trkpt lat="37.3340218" lon="13.6637169"><ele>327.0</ele><time>2026-04-28T15:38:35.158Z</time></trkpt><trkpt lat="37.3340998" lon="13.6639433"><ele>326.6666666666667</ele><time>2026-04-28T15:38:36.159Z</time></trkpt><trkpt lat="37.3341797" lon="13.6641656"><ele>326.33333333333337</ele><time>2026-04-28T15:38:37.157Z</time></trkpt><trkpt lat="37.3342656" lon="13.6644042"><ele>326.0</ele><time>2026-04-28T15:38:38.157Z</time></trkpt><trkpt lat="37.3343582" lon="13.6646588"><ele>325.6666666666667</ele><time>2026-04-28T15:38:39.158Z</time></trkpt><trkpt lat="37.3344534" lon="13.6649203"><ele>325.3333333333333</ele><time>2026-04-28T15:38:40.157Z</time></trkpt><trkpt lat="37.3345357" lon="13.6651633"><ele>325.0</ele><time>2026-04-28T15:38:41.158Z</time></trkpt><trkpt lat="37.3346168" lon="13.6653932"><ele>326.3333333333333</ele><time>2026-04-28T15:38:42.157Z</time></trkpt><trkpt lat="37.3346902" lon="13.6656066"><ele>327.6666666666667</ele><time>2026-04-28T15:38:43.158Z</time></trkpt><trkpt lat="37.3347643" lon="13.6658063"><ele>329.0</ele><time>2026-04-28T15:38:44.158Z</time></trkpt><trkpt lat="37.3348315" lon="13.6659959"><ele>327.25</ele><time>2026-04-28T15:38:45.157Z</time></trkpt><trkpt lat="37.3348936" lon="13.666169"><ele>325.5</ele><time>2026-04-28T15:38:46.159Z</time></trkpt><trkpt lat="37.3349459" lon="13.6663292"><ele>323.75</ele><time>2026-04-28T15:38:47.158Z</time></trkpt><trkpt lat="37.3349898" lon="13.6664877"><ele>322.0</ele><time>2026-04-28T15:38:48.158Z</time></trkpt><trkpt lat="37.3349899" lon="13.666632"><ele>322.0</ele><time>2026-04-28T15:38:49.157Z</time></trkpt><trkpt lat="37.3349749" lon="13.6667789"><ele>322.0</ele><time>2026-04-28T15:38:50.158Z</time></trkpt><trkpt lat="37.3349399" lon="13.666919"><ele>322.0</ele><time>2026-04-28T15:38:51.158Z</time></trkpt><trkpt lat="37.3348784" lon="13.6670431"><ele>322.0</ele><time>2026-04-28T15:38:52.157Z</time></trkpt><trkpt lat="37.3348006" lon="13.667164"><ele>321.0</ele><time>2026-04-28T15:38:53.157Z</time></trkpt><trkpt lat="37.3346849" lon="13.6672725"><ele>320.0</ele><time>2026-04-28T15:38:54.158Z</time></trkpt><trkpt lat="37.334559" lon="13.6673993"><ele>319.0</ele><time>2026-04-28T15:38:55.158Z</time></trkpt><trkpt lat="37.3344186" lon="13.6675281"><ele>319.0</ele><time>2026-04-28T15:38:56.157Z</time></trkpt><trkpt lat="37.3342794" lon="13.6676555"><ele>319.0</ele><time>2026-04-28T15:38:57.158Z</time></trkpt><trkpt lat="37.3341456" lon="13.6677816"><ele>319.0</ele><time>2026-04-28T15:38:58.159Z</time></trkpt><trkpt lat="37.334032" lon="13.6678939"><ele>318.0</ele><time>2026-04-28T15:38:59.157Z</time></trkpt><trkpt lat="37.3339238" lon="13.6680065"><ele>317.0</ele><time>2026-04-28T15:39:00.157Z</time></trkpt><trkpt lat="37.3338384" lon="13.6681174"><ele>316.0</ele><time>2026-04-28T15:39:01.157Z</time></trkpt><trkpt lat="37.3337777" lon="13.6682251"><ele>315.0</ele><time>2026-04-28T15:39:02.158Z</time></trkpt><trkpt lat="37.3337349" lon="13.6683266"><ele>314.6</ele><time>2026-04-28T15:39:03.157Z</time></trkpt><trkpt lat="37.3337465" lon="13.6684382"><ele>314.2</ele><time>2026-04-28T15:39:04.159Z</time></trkpt><trkpt lat="37.333776" lon="13.6685547"><ele>313.8</ele><time>2026-04-28T15:39:05.158Z</time></trkpt><trkpt lat="37.3338384" lon="13.6686667"><ele>313.4</ele><time>2026-04-28T15:39:06.157Z</time></trkpt><trkpt lat="37.3339291" lon="13.6687681"><ele>313.0</ele><time>2026-04-28T15:39:07.158Z</time></trkpt><trkpt lat="37.3340472" lon="13.6688795"><ele>313.0</ele><time>2026-04-28T15:39:08.157Z</time></trkpt><trkpt lat="37.3341744" lon="13.6690005"><ele>313.0</ele><time>2026-04-28T15:39:09.156Z</time></trkpt><trkpt lat="37.3343209" lon="13.6691275"><ele>313.0</ele><time>2026-04-28T15:39:10.157Z</time></trkpt><trkpt lat="37.3344544" lon="13.6692439"><ele>313.0</ele><time>2026-04-28T15:39:11.157Z</time></trkpt><trkpt lat="37.3345684" lon="13.6693541"><ele>313.0</ele><time>2026-04-28T15:39:12.157Z</time></trkpt><trkpt lat="37.3346644" lon="13.6694684"><ele>313.0</ele><time>2026-04-28T15:39:13.159Z</time></trkpt><trkpt lat="37.3347477" lon="13.6695866"><ele>313.0</ele><time>2026-04-28T15:39:14.157Z</time></trkpt><trkpt lat="37.3347896" lon="13.6697369"><ele>315.3333333333333</ele><time>2026-04-28T15:39:15.158Z</time></trkpt><trkpt lat="37.3348349" lon="13.6699059"><ele>317.6666666666667</ele><time>2026-04-28T15:39:16.157Z</time></trkpt><trkpt lat="37.3348754" lon="13.6700951"><ele>320.0</ele><time>2026-04-28T15:39:17.158Z</time></trkpt><trkpt lat="37.3349176" lon="13.6702844"><ele>320.5</ele><time>2026-04-28T15:39:18.157Z</time></trkpt><trkpt lat="37.3349579" lon="13.6704591"><ele>321.0</ele><time>2026-04-28T15:39:19.157Z</time></trkpt><trkpt lat="37.3349954" lon="13.6706253"><ele>321.5</ele><time>2026-04-28T15:39:20.157Z</time></trkpt><trkpt lat="37.3350305" lon="13.6707852"><ele>322.0</ele><time>2026-04-28T15:39:21.157Z</time></trkpt><trkpt lat="37.3350654" lon="13.6709312"><ele>322.0</ele><time>2026-04-28T15:39:22.158Z</time></trkpt><trkpt lat="37.3351119" lon="13.6710658"><ele>322.0</ele><time>2026-04-28T15:39:23.158Z</time></trkpt><trkpt lat="37.3351643" lon="13.6711908"><ele>322.0</ele><time>2026-04-28T15:39:24.158Z</time></trkpt><trkpt lat="37.3352484" lon="13.6713108"><ele>322.0</ele><time>2026-04-28T15:39:25.157Z</time></trkpt><trkpt lat="37.3353719" lon="13.6714022"><ele>321.0</ele><time>2026-04-28T15:39:26.158Z</time></trkpt><trkpt lat="37.3354729" lon="13.6714753"><ele>320.0</ele><time>2026-04-28T15:39:27.159Z</time></trkpt><trkpt lat="37.3355747" lon="13.6715478"><ele>319.0</ele><time>2026-04-28T15:39:28.158Z</time></trkpt><trkpt lat="37.3356774" lon="13.6716208"><ele>318.0</ele><time>2026-04-28T15:39:29.157Z</time></trkpt><trkpt lat="37.3357789" lon="13.6716945"><ele>318.0</ele><time>2026-04-28T15:39:30.158Z</time></trkpt><trkpt lat="37.3358756" lon="13.6717657"><ele>318.0</ele><time>2026-04-28T15:39:31.157Z</time></trkpt><trkpt lat="37.335983" lon="13.6718363"><ele>318.0</ele><time>2026-04-28T15:39:32.157Z</time></trkpt><trkpt lat="37.3360899" lon="13.6719184"><ele>318.0</ele><time>2026-04-28T15:39:33.158Z</time></trkpt><trkpt lat="37.3361874" lon="13.6719894"><ele>318.6</ele><time>2026-04-28T15:39:34.158Z</time></trkpt><trkpt lat="37.3362749" lon="13.6720508"><ele>319.20000000000005</ele><time>2026-04-28T15:39:35.158Z</time></trkpt><trkpt lat="37.3363349" lon="13.6721047"><ele>319.8</ele><time>2026-04-28T15:39:36.157Z</time></trkpt><trkpt lat="37.3363824" lon="13.672158"><ele>320.40000000000003</ele><time>2026-04-28T15:39:37.158Z</time></trkpt><trkpt lat="37.3364178" lon="13.6723343"><ele>321.0</ele><time>2026-04-28T15:39:39.158Z</time></trkpt><trkpt lat="37.3364504" lon="13.6724622"><ele>321.6</ele><time>2026-04-28T15:39:40.158Z</time></trkpt><trkpt lat="37.3364932" lon="13.6725939"><ele>322.20000000000005</ele><time>2026-04-28T15:39:41.158Z</time></trkpt><trkpt lat="37.3365313" lon="13.6727085"><ele>322.79999999999995</ele><time>2026-04-28T15:39:42.158Z</time></trkpt><trkpt lat="37.3365662" lon="13.6728068"><ele>323.4</ele><time>2026-04-28T15:39:43.157Z</time></trkpt><trkpt lat="37.3366036" lon="13.6729014"><ele>324.0</ele><time>2026-04-28T15:39:44.158Z</time></trkpt><trkpt lat="37.336645" lon="13.6730117"><ele>324.4</ele><time>2026-04-28T15:39:45.158Z</time></trkpt><trkpt lat="37.3366835" lon="13.6731131"><ele>324.79999999999995</ele><time>2026-04-28T15:39:46.157Z</time></trkpt><trkpt lat="37.3367229" lon="13.6732018"><ele>325.20000000000005</ele><time>2026-04-28T15:39:47.157Z</time></trkpt><trkpt lat="37.336777" lon="13.6733148"><ele>325.6</ele><time>2026-04-28T15:39:48.157Z</time></trkpt><trkpt lat="37.3368368" lon="13.673424"><ele>326.0</ele><time>2026-04-28T15:39:49.157Z</time></trkpt><trkpt lat="37.3368979" lon="13.6735158"><ele>326.0</ele><time>2026-04-28T15:39:50.157Z</time></trkpt><trkpt lat="37.3369623" lon="13.6735937"><ele>326.0</ele><time>2026-04-28T15:39:51.158Z</time></trkpt><trkpt lat="37.3370235" lon="13.6736696"><ele>326.0</ele><time>2026-04-28T15:39:52.157Z</time></trkpt><trkpt lat="37.3370861" lon="13.6737349"><ele>326.0</ele><time>2026-04-28T15:39:53.158Z</time></trkpt><trkpt lat="37.337145" lon="13.6738036"><ele>326.0</ele><time>2026-04-28T15:39:54.157Z</time></trkpt><trkpt lat="37.3372018" lon="13.6738628"><ele>326.0</ele><time>2026-04-28T15:39:55.157Z</time></trkpt><trkpt lat="37.3372609" lon="13.6739204"><ele>324.6666666666667</ele><time>2026-04-28T15:39:56.158Z</time></trkpt><trkpt lat="37.3373172" lon="13.6739778"><ele>323.33333333333337</ele><time>2026-04-28T15:39:57.156Z</time></trkpt><trkpt lat="37.33738" lon="13.6740409"><ele>322.0</ele><time>2026-04-28T15:39:58.157Z</time></trkpt><trkpt lat="37.3374341" lon="13.6741083"><ele>320.6666666666667</ele><time>2026-04-28T15:39:59.157Z</time></trkpt><trkpt lat="37.3374964" lon="13.6741796"><ele>319.3333333333333</ele><time>2026-04-28T15:40:00.156Z</time></trkpt><trkpt lat="37.3375523" lon="13.6742598"><ele>318.0</ele><time>2026-04-28T15:40:01.157Z</time></trkpt><trkpt lat="37.337609" lon="13.6743424"><ele>318.0</ele><time>2026-04-28T15:40:02.159Z</time></trkpt><trkpt lat="37.3376637" lon="13.674435"><ele>318.0</ele><time>2026-04-28T15:40:03.157Z</time></trkpt><trkpt lat="37.3377056" lon="13.6745337"><ele>318.0</ele><time>2026-04-28T15:40:04.157Z</time></trkpt><trkpt lat="37.3377459" lon="13.6746325"><ele>318.0</ele><time>2026-04-28T15:40:05.157Z</time></trkpt><trkpt lat="37.337785" lon="13.6747367"><ele>318.0</ele><time>2026-04-28T15:40:06.158Z</time></trkpt><trkpt lat="37.3378262" lon="13.6748456"><ele>316.5</ele><time>2026-04-28T15:40:07.158Z</time></trkpt><trkpt lat="37.3378647" lon="13.6749483"><ele>315.0</ele><time>2026-04-28T15:40:08.157Z</time></trkpt><trkpt lat="37.3379013" lon="13.675051"><ele>313.5</ele><time>2026-04-28T15:40:09.158Z</time></trkpt><trkpt lat="37.3379413" lon="13.6751477"><ele>312.0</ele><time>2026-04-28T15:40:10.158Z</time></trkpt><trkpt lat="37.3379831" lon="13.6752378"><ele>310.5</ele><time>2026-04-28T15:40:11.157Z</time></trkpt><trkpt lat="37.3380213" lon="13.6753237"><ele>309.0</ele><time>2026-04-28T15:40:12.156Z</time></trkpt><trkpt lat="37.3380585" lon="13.6754055"><ele>307.5</ele><time>2026-04-28T15:40:13.158Z</time></trkpt><trkpt lat="37.3380937" lon="13.6754888"><ele>306.0</ele><time>2026-04-28T15:40:14.158Z</time></trkpt><trkpt lat="37.3381345" lon="13.6755646"><ele>304.5</ele><time>2026-04-28T15:40:15.159Z</time></trkpt><trkpt lat="37.3381783" lon="13.6756515"><ele>303.0</ele><time>2026-04-28T15:40:16.158Z</time></trkpt><trkpt lat="37.338227" lon="13.675737"><ele>301.5</ele><time>2026-04-28T15:40:17.158Z</time></trkpt><trkpt lat="37.338282" lon="13.6758311"><ele>300.0</ele><time>2026-04-28T15:40:18.157Z</time></trkpt><trkpt lat="37.3383482" lon="13.6759534"><ele>300.0</ele><time>2026-04-28T15:40:19.157Z</time></trkpt><trkpt lat="37.3384087" lon="13.6760734"><ele>300.0</ele><time>2026-04-28T15:40:20.158Z</time></trkpt><trkpt lat="37.3384665" lon="13.6761863"><ele>300.0</ele><time>2026-04-28T15:40:21.158Z</time></trkpt><trkpt lat="37.3385136" lon="13.676299"><ele>300.0</ele><time>2026-04-28T15:40:22.158Z</time></trkpt><trkpt lat="37.3385659" lon="13.676413"><ele>300.0</ele><time>2026-04-28T15:40:23.158Z</time></trkpt><trkpt lat="37.3386221" lon="13.6765392"><ele>299.4</ele><time>2026-04-28T15:40:24.158Z</time></trkpt><trkpt lat="37.3386798" lon="13.676657"><ele>298.8</ele><time>2026-04-28T15:40:25.158Z</time></trkpt><trkpt lat="37.3387239" lon="13.6767587"><ele>298.2</ele><time>2026-04-28T15:40:26.159Z</time></trkpt><trkpt lat="37.3387728" lon="13.6768592"><ele>297.6</ele><time>2026-04-28T15:40:27.157Z</time></trkpt><trkpt lat="37.3388054" lon="13.6769568"><ele>297.0</ele><time>2026-04-28T15:40:28.158Z</time></trkpt><trkpt lat="37.3388406" lon="13.6770634"><ele>297.0</ele><time>2026-04-28T15:40:29.158Z</time></trkpt><trkpt lat="37.3388722" lon="13.6771744"><ele>297.0</ele><time>2026-04-28T15:40:30.158Z</time></trkpt><trkpt lat="37.3389046" lon="13.6772936"><ele>297.0</ele><time>2026-04-28T15:40:31.159Z</time></trkpt><trkpt lat="37.3389392" lon="13.6774215"><ele>297.0</ele><time>2026-04-28T15:40:32.158Z</time></trkpt><trkpt lat="37.3389695" lon="13.6775447"><ele>297.0</ele><time>2026-04-28T15:40:33.158Z</time></trkpt><trkpt lat="37.3390126" lon="13.6776724"><ele>300.25</ele><time>2026-04-28T15:40:34.157Z</time></trkpt><trkpt lat="37.3390621" lon="13.6778052"><ele>303.5</ele><time>2026-04-28T15:40:35.158Z</time></trkpt><trkpt lat="37.3391144" lon="13.6779599"><ele>306.75</ele><time>2026-04-28T15:40:36.156Z</time></trkpt><trkpt lat="37.3391582" lon="13.6780998"><ele>310.0</ele><time>2026-04-28T15:40:37.157Z</time></trkpt><trkpt lat="37.3391925" lon="13.6782108"><ele>310.0</ele><time>2026-04-28T15:40:38.158Z</time></trkpt><trkpt lat="37.3392265" lon="13.6783124"><ele>310.0</ele><time>2026-04-28T15:40:39.157Z</time></trkpt><trkpt lat="37.339269" lon="13.6784097"><ele>310.0</ele><time>2026-04-28T15:40:40.157Z</time></trkpt><trkpt lat="37.3393316" lon="13.6785002"><ele>310.0</ele><time>2026-04-28T15:40:41.157Z</time></trkpt><trkpt lat="37.3394005" lon="13.6785829"><ele>310.0</ele><time>2026-04-28T15:40:42.157Z</time></trkpt><trkpt lat="37.3394755" lon="13.6786599"><ele>310.0</ele><time>2026-04-28T15:40:43.159Z</time></trkpt><trkpt lat="37.3395334" lon="13.6787298"><ele>310.0</ele><time>2026-04-28T15:40:44.157Z</time></trkpt><trkpt lat="37.3395885" lon="13.6788095"><ele>310.0</ele><time>2026-04-28T15:40:45.158Z</time></trkpt><trkpt lat="37.3396205" lon="13.6789222"><ele>310.0</ele><time>2026-04-28T15:40:46.156Z</time></trkpt><trkpt lat="37.3396656" lon="13.6790399"><ele>310.0</ele><time>2026-04-28T15:40:47.158Z</time></trkpt><trkpt lat="37.3396961" lon="13.6791486"><ele>311.5</ele><time>2026-04-28T15:40:48.157Z</time></trkpt><trkpt lat="37.3397314" lon="13.6792668"><ele>313.0</ele><time>2026-04-28T15:40:49.157Z</time></trkpt><trkpt lat="37.3397747" lon="13.6794053"><ele>314.5</ele><time>2026-04-28T15:40:50.157Z</time></trkpt><trkpt lat="37.3398246" lon="13.679547"><ele>316.0</ele><time>2026-04-28T15:40:51.157Z</time></trkpt><trkpt lat="37.3398608" lon="13.6796749"><ele>316.2</ele><time>2026-04-28T15:40:52.156Z</time></trkpt><trkpt lat="37.3398976" lon="13.6798113"><ele>316.40000000000003</ele><time>2026-04-28T15:40:53.158Z</time></trkpt><trkpt lat="37.3399317" lon="13.679958"><ele>316.6</ele><time>2026-04-28T15:40:54.158Z</time></trkpt><trkpt lat="37.3399661" lon="13.6800901"><ele>316.8</ele><time>2026-04-28T15:40:55.158Z</time></trkpt><trkpt lat="37.3399911" lon="13.6802004"><ele>317.0</ele><time>2026-04-28T15:40:56.158Z</time></trkpt><trkpt lat="37.3400197" lon="13.6803396"><ele>317.5</ele><time>2026-04-28T15:40:57.158Z</time></trkpt><trkpt lat="37.3400455" lon="13.6804792"><ele>318.0</ele><time>2026-04-28T15:40:58.158Z</time></trkpt><trkpt lat="37.3400654" lon="13.680585"><ele>318.5</ele><time>2026-04-28T15:40:59.158Z</time></trkpt><trkpt lat="37.3400881" lon="13.6806803"><ele>319.0</ele><time>2026-04-28T15:41:00.157Z</time></trkpt><trkpt lat="37.3400992" lon="13.6807583"><ele>319.5</ele><time>2026-04-28T15:41:01.157Z</time></trkpt><trkpt lat="37.3401033" lon="13.6808374"><ele>320.0</ele><time>2026-04-28T15:41:02.158Z</time></trkpt><trkpt lat="37.3401046" lon="13.6809598"><ele>320.0</ele><time>2026-04-28T15:41:04.157Z</time></trkpt><trkpt lat="37.3401054" lon="13.6810479"><ele>320.0</ele><time>2026-04-28T15:41:05.157Z</time></trkpt><trkpt lat="37.3401159" lon="13.6811858"><ele>320.0</ele><time>2026-04-28T15:41:06.157Z</time></trkpt><trkpt lat="37.3401318" lon="13.6813144"><ele>320.0</ele><time>2026-04-28T15:41:07.159Z</time></trkpt><trkpt lat="37.3401592" lon="13.6814645"><ele>320.0</ele><time>2026-04-28T15:41:08.157Z</time></trkpt><trkpt lat="37.3401934" lon="13.6816268"><ele>320.25</ele><time>2026-04-28T15:41:09.157Z</time></trkpt><trkpt lat="37.3402305" lon="13.6817804"><ele>320.5</ele><time>2026-04-28T15:41:10.158Z</time></trkpt><trkpt lat="37.3402662" lon="13.6819426"><ele>320.75</ele><time>2026-04-28T15:41:11.156Z</time></trkpt><trkpt lat="37.3402901" lon="13.6820877"><ele>321.0</ele><time>2026-04-28T15:41:12.157Z</time></trkpt><trkpt lat="37.3403195" lon="13.6822263"><ele>321.3333333333333</ele><time>2026-04-28T15:41:13.157Z</time></trkpt><trkpt lat="37.3403347" lon="13.6823373"><ele>321.6666666666667</ele><time>2026-04-28T15:41:14.158Z</time></trkpt><trkpt lat="37.3403449" lon="13.6824296"><ele>322.0</ele><time>2026-04-28T15:41:15.159Z</time></trkpt><trkpt lat="37.3403579" lon="13.6825606"><ele>322.33333333333337</ele><time>2026-04-28T15:41:17.159Z</time></trkpt><trkpt lat="37.3403324" lon="13.682637"><ele>322.6666666666667</ele><time>2026-04-28T15:41:21.157Z</time></trkpt><trkpt lat="37.3402406" lon="13.6826347"><ele>323.0</ele><time>2026-04-28T15:41:23.158Z</time></trkpt><trkpt lat="37.3401685" lon="13.6826196"><ele>323.0</ele><time>2026-04-28T15:41:24.158Z</time></trkpt><trkpt lat="37.340064" lon="13.682592"><ele>323.0</ele><time>2026-04-28T15:41:25.157Z</time></trkpt><trkpt lat="37.3399443" lon="13.682564"><ele>323.0</ele><time>2026-04-28T15:41:26.156Z</time></trkpt><trkpt lat="37.3398337" lon="13.6825425"><ele>323.0</ele><time>2026-04-28T15:41:27.157Z</time></trkpt><trkpt lat="37.3397186" lon="13.682529"><ele>323.0</ele><time>2026-04-28T15:41:28.158Z</time></trkpt><trkpt lat="37.3396169" lon="13.6825209"><ele>323.0</ele><time>2026-04-28T15:41:29.157Z</time></trkpt><trkpt lat="37.3395221" lon="13.6825204"><ele>323.0</ele><time>2026-04-28T15:41:30.156Z</time></trkpt><trkpt lat="37.3394234" lon="13.6825167"><ele>323.0</ele><time>2026-04-28T15:41:31.158Z</time></trkpt><trkpt lat="37.3393119" lon="13.6825296"><ele>323.0</ele><time>2026-04-28T15:41:32.156Z</time></trkpt><trkpt lat="37.3391973" lon="13.6825431"><ele>323.0</ele><time>2026-04-28T15:41:33.159Z</time></trkpt><trkpt lat="37.3390919" lon="13.6825596"><ele>323.0</ele><time>2026-04-28T15:41:34.157Z</time></trkpt><trkpt lat="37.3389957" lon="13.682581"><ele>323.0</ele><time>2026-04-28T15:41:35.158Z</time></trkpt><trkpt lat="37.3389065" lon="13.682593"><ele>323.0</ele><time>2026-04-28T15:41:36.158Z</time></trkpt><trkpt lat="37.3388291" lon="13.6826024"><ele>323.0</ele><time>2026-04-28T15:41:37.159Z</time></trkpt><trkpt lat="37.3387504" lon="13.6826051"><ele>322.83333333333337</ele><time>2026-04-28T15:41:38.156Z</time></trkpt><trkpt lat="37.3386792" lon="13.6826089"><ele>322.6666666666667</ele><time>2026-04-28T15:41:39.157Z</time></trkpt><trkpt lat="37.3386111" lon="13.6826174"><ele>322.5</ele><time>2026-04-28T15:41:40.157Z</time></trkpt><trkpt lat="37.3385412" lon="13.6826182"><ele>322.3333333333333</ele><time>2026-04-28T15:41:42.157Z</time></trkpt><trkpt lat="37.3384446" lon="13.6825809"><ele>322.16666666666663</ele><time>2026-04-28T15:42:44.157Z</time></trkpt><trkpt lat="37.3383455" lon="13.6825741"><ele>322.0</ele><time>2026-04-28T15:42:45.156Z</time></trkpt><trkpt lat="37.3382359" lon="13.6825607"><ele>322.0</ele><time>2026-04-28T15:42:46.157Z</time></trkpt><trkpt lat="37.3381424" lon="13.6825489"><ele>322.0</ele><time>2026-04-28T15:42:47.156Z</time></trkpt><trkpt lat="37.3380505" lon="13.682534"><ele>322.0</ele><time>2026-04-28T15:42:48.157Z</time></trkpt><trkpt lat="37.3379593" lon="13.6825243"><ele>322.0</ele><time>2026-04-28T15:42:49.158Z</time></trkpt><trkpt lat="37.3378626" lon="13.6825246"><ele>322.0</ele><time>2026-04-28T15:42:50.157Z</time></trkpt><trkpt lat="37.3377471" lon="13.6825383"><ele>321.5</ele><time>2026-04-28T15:42:51.158Z</time></trkpt><trkpt lat="37.3376135" lon="13.6825596"><ele>321.0</ele><time>2026-04-28T15:42:52.157Z</time></trkpt><trkpt lat="37.3374939" lon="13.6825849"><ele>320.5</ele><time>2026-04-28T15:42:53.157Z</time></trkpt><trkpt lat="37.3373841" lon="13.6826151"><ele>320.0</ele><time>2026-04-28T15:42:54.158Z</time></trkpt><trkpt lat="37.3372818" lon="13.6826421"><ele>320.0</ele><time>2026-04-28T15:42:55.158Z</time></trkpt><trkpt lat="37.3371975" lon="13.682676"><ele>320.0</ele><time>2026-04-28T15:42:56.157Z</time></trkpt><trkpt lat="37.3371178" lon="13.6827019"><ele>320.0</ele><time>2026-04-28T15:42:57.158Z</time></trkpt><trkpt lat="37.3370359" lon="13.68272"><ele>320.0</ele><time>2026-04-28T15:42:58.157Z</time></trkpt><trkpt lat="37.3369656" lon="13.6827382"><ele>320.0</ele><time>2026-04-28T15:42:59.156Z</time></trkpt><trkpt lat="37.3369006" lon="13.6827617"><ele>320.0</ele><time>2026-04-28T15:43:00.156Z</time></trkpt><trkpt lat="37.3368294" lon="13.6827775"><ele>320.0</ele><time>2026-04-28T15:43:01.156Z</time></trkpt><trkpt lat="37.3367636" lon="13.6827919"><ele>320.0</ele><time>2026-04-28T15:43:02.157Z</time></trkpt><trkpt lat="37.3366836" lon="13.6828093"><ele>320.0</ele><time>2026-04-28T15:43:03.157Z</time></trkpt><trkpt lat="37.3365804" lon="13.6828384"><ele>320.0</ele><time>2026-04-28T15:43:04.157Z</time></trkpt><trkpt lat="37.3364503" lon="13.6828674"><ele>320.0</ele><time>2026-04-28T15:43:05.156Z</time></trkpt><trkpt lat="37.3363072" lon="13.6829008"><ele>319.25</ele><time>2026-04-28T15:43:06.156Z</time></trkpt><trkpt lat="37.3361756" lon="13.6829292"><ele>318.5</ele><time>2026-04-28T15:43:07.158Z</time></trkpt><trkpt lat="37.3360378" lon="13.6829638"><ele>317.75</ele><time>2026-04-28T15:43:08.157Z</time></trkpt><trkpt lat="37.3359026" lon="13.6829938"><ele>317.0</ele><time>2026-04-28T15:43:09.157Z</time></trkpt><trkpt lat="37.3357756" lon="13.6830223"><ele>317.0</ele><time>2026-04-28T15:43:10.157Z</time></trkpt><trkpt lat="37.335656" lon="13.6830457"><ele>317.0</ele><time>2026-04-28T15:43:11.156Z</time></trkpt><trkpt lat="37.3355387" lon="13.68305"><ele>317.0</ele><time>2026-04-28T15:43:12.157Z</time></trkpt><trkpt lat="37.3354516" lon="13.683028"><ele>317.0</ele><time>2026-04-28T15:43:13.156Z</time></trkpt><trkpt lat="37.335373" lon="13.683019"><ele>317.0</ele><time>2026-04-28T15:43:14.158Z</time></trkpt><trkpt lat="37.3353071" lon="13.683021"><ele>316.4</ele><time>2026-04-28T15:43:15.158Z</time></trkpt><trkpt lat="37.3351954" lon="13.6830357"><ele>315.79999999999995</ele><time>2026-04-28T15:43:17.157Z</time></trkpt><trkpt lat="37.3351244" lon="13.6830469"><ele>315.2</ele><time>2026-04-28T15:43:20.157Z</time></trkpt><trkpt lat="37.3352185" lon="13.6830339"><ele>314.59999999999997</ele><time>2026-04-28T15:43:24.157Z</time></trkpt><trkpt lat="37.3352963" lon="13.6830329"><ele>314.0</ele><time>2026-04-28T15:43:25.158Z</time></trkpt><trkpt lat="37.3354094" lon="13.6830204"><ele>314.0</ele><time>2026-04-28T15:43:26.158Z</time></trkpt><trkpt lat="37.3355247" lon="13.6830107"><ele>314.0</ele><time>2026-04-28T15:43:27.157Z</time></trkpt><trkpt lat="37.3356756" lon="13.6829926"><ele>314.0</ele><time>2026-04-28T15:43:28.157Z</time></trkpt><trkpt lat="37.3358248" lon="13.6829728"><ele>314.0</ele><time>2026-04-28T15:43:29.158Z</time></trkpt><trkpt lat="37.3359859" lon="13.6829402"><ele>315.0</ele><time>2026-04-28T15:43:30.158Z</time></trkpt><trkpt lat="37.3361637" lon="13.6828985"><ele>316.0</ele><time>2026-04-28T15:43:31.157Z</time></trkpt><trkpt lat="37.3363494" lon="13.682861"><ele>317.0</ele><time>2026-04-28T15:43:32.157Z</time></trkpt><trkpt lat="37.3365258" lon="13.6828191"><ele>316.33333333333337</ele><time>2026-04-28T15:43:33.156Z</time></trkpt><trkpt lat="37.336693" lon="13.6827781"><ele>315.6666666666667</ele><time>2026-04-28T15:43:34.158Z</time></trkpt><trkpt lat="37.3368419" lon="13.6827392"><ele>315.0</ele><time>2026-04-28T15:43:35.157Z</time></trkpt><trkpt lat="37.3369803" lon="13.6826959"><ele>315.0</ele><time>2026-04-28T15:43:36.157Z</time></trkpt><trkpt lat="37.3371017" lon="13.682661"><ele>315.0</ele><time>2026-04-28T15:43:37.157Z</time></trkpt><trkpt lat="37.3372261" lon="13.6826351"><ele>315.0</ele><time>2026-04-28T15:43:38.157Z</time></trkpt><trkpt lat="37.3373458" lon="13.6826129"><ele>315.0</ele><time>2026-04-28T15:43:39.157Z</time></trkpt><trkpt lat="37.3374675" lon="13.6825828"><ele>316.25</ele><time>2026-04-28T15:43:40.156Z</time></trkpt><trkpt lat="37.337593" lon="13.6825502"><ele>317.5</ele><time>2026-04-28T15:43:41.156Z</time></trkpt><trkpt lat="37.3377136" lon="13.6825345"><ele>318.75</ele><time>2026-04-28T15:43:42.156Z</time></trkpt><trkpt lat="37.3378438" lon="13.6825178"><ele>320.0</ele><time>2026-04-28T15:43:43.158Z</time></trkpt><trkpt lat="37.3379613" lon="13.6825139"><ele>320.5</ele><time>2026-04-28T15:43:44.157Z</time></trkpt><trkpt lat="37.3380778" lon="13.6825239"><ele>321.0</ele><time>2026-04-28T15:43:45.156Z</time></trkpt><trkpt lat="37.3382116" lon="13.6825388"><ele>321.5</ele><time>2026-04-28T15:43:46.156Z</time></trkpt><trkpt lat="37.3383472" lon="13.6825599"><ele>322.0</ele><time>2026-04-28T15:43:47.156Z</time></trkpt><trkpt lat="37.3384721" lon="13.6825784"><ele>322.0</ele><time>2026-04-28T15:43:48.156Z</time></trkpt><trkpt lat="37.338596" lon="13.6825963"><ele>322.0</ele><time>2026-04-28T15:43:49.157Z</time></trkpt><trkpt lat="37.3387274" lon="13.6825889"><ele>322.0</ele><time>2026-04-28T15:43:50.158Z</time></trkpt><trkpt lat="37.3388478" lon="13.6825797"><ele>322.0</ele><time>2026-04-28T15:43:51.159Z</time></trkpt><trkpt lat="37.3389607" lon="13.6825663"><ele>322.20000000000005</ele><time>2026-04-28T15:43:52.157Z</time></trkpt><trkpt lat="37.3390511" lon="13.6825443"><ele>322.4</ele><time>2026-04-28T15:43:53.156Z</time></trkpt><trkpt lat="37.3391447" lon="13.6825239"><ele>322.6</ele><time>2026-04-28T15:43:54.157Z</time></trkpt><trkpt lat="37.3392264" lon="13.682515"><ele>322.79999999999995</ele><time>2026-04-28T15:43:55.157Z</time></trkpt><trkpt lat="37.3393209" lon="13.6825134"><ele>323.0</ele><time>2026-04-28T15:43:56.158Z</time></trkpt><trkpt lat="37.3394177" lon="13.6825172"><ele>323.0</ele><time>2026-04-28T15:43:57.156Z</time></trkpt><trkpt lat="37.3395131" lon="13.6825187"><ele>323.0</ele><time>2026-04-28T15:43:58.156Z</time></trkpt><trkpt lat="37.3395975" lon="13.6825121"><ele>323.0</ele><time>2026-04-28T15:43:59.157Z</time></trkpt><trkpt lat="37.3396948" lon="13.6825195"><ele>323.0</ele><time>2026-04-28T15:44:00.156Z</time></trkpt><trkpt lat="37.3397919" lon="13.6825239"><ele>323.0</ele><time>2026-04-28T15:44:01.157Z</time></trkpt><trkpt lat="37.3398882" lon="13.6825354"><ele>323.0</ele><time>2026-04-28T15:44:02.158Z</time></trkpt><trkpt lat="37.3399887" lon="13.6825517"><ele>323.0</ele><time>2026-04-28T15:44:03.158Z</time></trkpt><trkpt lat="37.3400884" lon="13.6825716"><ele>323.0</ele><time>2026-04-28T15:44:04.158Z</time></trkpt><trkpt lat="37.3401886" lon="13.6825907"><ele>323.0</ele><time>2026-04-28T15:44:05.156Z</time></trkpt><trkpt lat="37.3402688" lon="13.6826114"><ele>323.0</ele><time>2026-04-28T15:44:06.157Z</time></trkpt><trkpt lat="37.3403384" lon="13.6826255"><ele>323.0</ele><time>2026-04-28T15:44:07.157Z</time></trkpt><trkpt lat="37.340415" lon="13.6826609"><ele>323.0</ele><time>2026-04-28T15:44:09.157Z</time></trkpt><trkpt lat="37.3403671" lon="13.6826004"><ele>323.0</ele><time>2026-04-28T15:44:15.157Z</time></trkpt><trkpt lat="37.3403339" lon="13.6824768"><ele>323.0</ele><time>2026-04-28T15:44:17.157Z</time></trkpt><trkpt lat="37.3403248" lon="13.6823883"><ele>323.0</ele><time>2026-04-28T15:44:18.158Z</time></trkpt><trkpt lat="37.3403015" lon="13.6822782"><ele>323.0</ele><time>2026-04-28T15:44:19.157Z</time></trkpt><trkpt lat="37.3402796" lon="13.6821157"><ele>323.0</ele><time>2026-04-28T15:44:20.158Z</time></trkpt><trkpt lat="37.3402592" lon="13.6819623"><ele>323.0</ele><time>2026-04-28T15:44:21.157Z</time></trkpt><trkpt lat="37.3402352" lon="13.6818127"><ele>323.0</ele><time>2026-04-28T15:44:22.157Z</time></trkpt><trkpt lat="37.3401994" lon="13.6816658"><ele>323.0</ele><time>2026-04-28T15:44:23.157Z</time></trkpt><trkpt lat="37.3401654" lon="13.6815245"><ele>322.6666666666667</ele><time>2026-04-28T15:44:24.157Z</time></trkpt><trkpt lat="37.3401387" lon="13.6813978"><ele>322.33333333333337</ele><time>2026-04-28T15:44:25.156Z</time></trkpt><trkpt lat="37.3401274" lon="13.6812859"><ele>322.0</ele><time>2026-04-28T15:44:26.156Z</time></trkpt><trkpt lat="37.3401133" lon="13.6811888"><ele>321.6666666666667</ele><time>2026-04-28T15:44:27.158Z</time></trkpt><trkpt lat="37.3401013" lon="13.6811084"><ele>321.3333333333333</ele><time>2026-04-28T15:44:28.157Z</time></trkpt><trkpt lat="37.3400879" lon="13.6809848"><ele>321.0</ele><time>2026-04-28T15:44:30.156Z</time></trkpt><trkpt lat="37.3401164" lon="13.6809039"><ele>320.0</ele><time>2026-04-28T15:44:52.156Z</time></trkpt><trkpt lat="37.3401744" lon="13.6808596"><ele>320.0</ele><time>2026-04-28T15:44:59.157Z</time></trkpt></trkseg></trk></gpx>